Provisional Data: Baldwin Creek near Lowman, NY


Please select a monitoring station.
Please select start date.
Please select start date.

Toggle Unit: C/F Toggle Unit: C/F
Sample Time Temperature (C) Temperature (F) Specific Conductivity (mS/cm) pH   Turbidity (NTU+) DO (mg/L)
10/22/2021 12:00:00 AM 14.35 57.83 0.18 7.53 3.59 9.1
10/22/2021 12:15:00 AM 14.35 57.83 0.164 7.52 5.06 9.1
10/22/2021 12:30:00 AM 14.36 57.848 0.178 7.51 5.18 9.09
10/22/2021 12:45:00 AM 14.35 57.83 0.147 7.51 4.98 9.08
10/22/2021 1:00:00 AM 14.34 57.812 0.177 7.51 5.52 9.06
10/22/2021 1:15:00 AM 14.32 57.776 0.178 7.51 4.29 9.06
10/22/2021 1:30:00 AM 14.3 57.74 0.178 7.5 4.5 9.05
10/22/2021 1:45:00 AM 14.27 57.686 0.178 7.51 4.52 9.06
10/22/2021 2:00:00 AM 14.23 57.614 0.179 7.51 4.85 9.08
10/22/2021 2:15:00 AM 14.22 57.596 0.18 7.5 5.06 9.09
10/22/2021 2:30:00 AM 14.18 57.524 0.178 7.49 7.18 9.14
10/22/2021 2:45:00 AM 14.18 57.524 0.097 7.46 8.23 9.19
10/22/2021 3:00:00 AM 14.17 57.506 0.179 7.46 8.21 9.23
10/22/2021 3:15:00 AM 14.14 57.452 0.18 7.48 9.15 9.3
10/22/2021 3:30:00 AM 14.12 57.416 0.183 7.46 9.71 9.33
10/22/2021 3:45:00 AM 14.11 57.398 0.186 7.46 13.49 9.35
10/22/2021 4:00:00 AM 13.98 57.164 0.184 7.45 21.4 9.41
10/22/2021 4:15:00 AM 13.83 56.894 0.177 7.43 32.04 9.48
10/22/2021 4:30:00 AM 13.74 56.732 0.175 7.47 37.15 9.5
10/22/2021 4:45:00 AM 13.7 56.66 0.171 7.44 35.71 9.51
10/22/2021 5:00:00 AM 13.69 56.642 0.098 7.44 32.28 9.52
10/22/2021 5:15:00 AM 13.68 56.624 0.17 7.44 29.78 9.54
10/22/2021 5:30:00 AM 13.65 56.57 0.103 7.45 30.63 9.56
10/22/2021 5:45:00 AM 13.62 56.516 0.092 7.44 20.67 9.59
10/22/2021 6:00:00 AM 13.57 56.426 0.164 7.47 24.65 9.6
10/22/2021 6:15:00 AM 13.54 56.372 0.16 7.43 30.36 9.61
10/22/2021 6:30:00 AM 13.5 56.3 0.16 7.43 34.59 9.62
10/22/2021 6:45:00 AM 13.48 56.264 0.158 7.43 33.52 9.61
10/22/2021 7:00:00 AM 13.47 56.246 0.159 7.46 32.65 9.62
10/22/2021 7:15:00 AM 13.45 56.21 0.159 7.44 31.14 9.63
10/22/2021 7:30:00 AM 13.44 56.192 0.158 7.41 27.87 9.63
10/22/2021 7:45:00 AM 13.42 56.156 0.157 7.44 26.18 9.63
10/22/2021 8:00:00 AM 13.41 56.138 0.155 7.44 22.73 9.65
10/22/2021 8:15:00 AM 13.39 56.102 0.153 7.43 21.25 9.67
10/22/2021 8:30:00 AM 13.36 56.048 0.148 7.42 20.4 9.7
10/22/2021 8:45:00 AM 13.34 56.012 0.148 7.45 20.79 9.73
10/22/2021 9:00:00 AM 13.32 55.976 0.145 7.44 21.56 9.76
10/22/2021 9:15:00 AM 13.32 55.976 0.143 7.46 19.45 9.84
10/22/2021 9:30:00 AM 13.36 56.048 0.142 7.46 22.21 9.96
10/22/2021 9:45:00 AM 13.39 56.102 0.139 7.47 22.75 10.04
10/22/2021 10:00:00 AM 13.41 56.138 0.139 7.52 21.18 10.11
10/22/2021 10:15:00 AM 13.41 56.138 0.138 7.48 21.53 10.1
10/22/2021 10:30:00 AM 13.4 56.12 0.137 7.49 22.01 10.09
10/22/2021 10:45:00 AM 13.4 56.12 0.137 7.49 20.67 10.1
10/22/2021 11:00:00 AM 13.4 56.12 0.136 7.49 19.95 10.17
10/22/2021 11:15:00 AM 13.39 56.102 0.136 7.5 19.29 10.18
10/22/2021 11:30:00 AM 13.4 56.12 0.133 7.52 18.36 10.2
10/22/2021 11:45:00 AM 13.42 56.156 0.136 7.52 17.36 10.24
10/22/2021 12:00:00 PM 13.43 56.174 0.136 7.52 18.85 10.27
10/22/2021 12:15:00 PM 13.44 56.192 0.104 7.52 18.16 10.29
10/22/2021 12:30:00 PM 13.52 56.336 0.137 7.58 15.33 10.4
10/22/2021 12:45:00 PM 13.61 56.498 0.135 7.59 15.84 10.52
10/22/2021 1:00:00 PM 13.64 56.552 0.137 7.61 15.49 10.59
10/22/2021 1:15:00 PM 13.69 56.642 0.138 7.63 14.03 10.58
10/22/2021 1:30:00 PM 13.73 56.714 0.139 7.65 13.56 10.6
10/22/2021 1:45:00 PM 13.81 56.858 0.139 7.67 12.87 10.63
10/22/2021 2:00:00 PM 13.81 56.858 0.138 7.65 12.97 10.64
10/22/2021 2:15:00 PM 13.83 56.894 0.14 7.66 12.41 10.62
10/22/2021 2:30:00 PM 13.89 57.002 0.141 7.68 11.69 10.62
10/22/2021 2:45:00 PM 13.87 56.966 0.141 7.67 11.01 10.55
10/22/2021 3:00:00 PM 13.9 57.02 0.14 7.65 11.55 10.56
10/22/2021 3:15:00 PM 13.96 57.128 0.142 7.71 10.43 10.59
10/22/2021 3:30:00 PM 13.96 57.128 0.142 7.69 9.75 10.57
10/22/2021 3:45:00 PM 13.99 57.182 0.143 7.69 9.92 10.53
10/22/2021 4:00:00 PM 14 57.2 0.143 7.68 9.49 10.52
10/22/2021 4:15:00 PM 13.98 57.164 0.144 7.69 9.34 10.45
10/22/2021 4:30:00 PM 13.96 57.128 0.144 7.66 8.96 10.39
10/22/2021 4:45:00 PM 13.94 57.092 0.145 7.64 8.97 10.33
10/22/2021 5:00:00 PM 13.91 57.038 0.145 7.63 8.9 10.27
10/22/2021 5:15:00 PM 13.88 56.984 0.145 7.61 8.69 10.21
10/22/2021 5:30:00 PM 13.83 56.894 0.146 7.6 8.28 10.14
10/22/2021 5:45:00 PM 13.78 56.804 0.146 7.56 8.27 10.08
10/22/2021 6:00:00 PM 13.72 56.696 0.096 7.54 9.11 9.99
10/22/2021 6:15:00 PM 13.66 56.588 0.147 7.55 8.09 9.92
10/22/2021 6:30:00 PM 13.59 56.462 0.147 7.51 7.86 9.87
10/22/2021 6:45:00 PM 13.51 56.318 0.147 7.49 7.67 9.84
10/22/2021 7:00:00 PM 13.44 56.192 0.147 7.47 8.77 9.81
10/22/2021 7:15:00 PM 13.38 56.084 0.147 7.48 7.49 9.78
10/22/2021 7:30:00 PM 13.31 55.958 0.147 7.47 7.31 9.76
10/22/2021 7:45:00 PM 13.24 55.832 0.147 7.46 7.19 9.75
10/22/2021 8:00:00 PM 13.17 55.706 0.148 7.46 7.36 9.77
10/22/2021 8:15:00 PM 13.11 55.598 0.148 7.46 7.05 9.79
10/22/2021 8:30:00 PM 13.05 55.49 0.148 7.45 6.92 9.8
10/22/2021 8:45:00 PM 12.99 55.382 0.148 7.45 6.76 9.78
10/22/2021 9:00:00 PM 12.93 55.274 0.148 7.44 8.43 9.79
10/22/2021 9:15:00 PM 12.87 55.166 0.148 7.43 8.55 9.79
10/22/2021 9:30:00 PM 12.82 55.076 0.148 7.45 8.3 9.81
10/22/2021 9:45:00 PM 12.78 55.004 0.147 7.45 8.18 9.82
10/22/2021 10:00:00 PM 12.72 54.896 0.148 7.46 6.8 9.83
10/22/2021 10:15:00 PM 12.66 54.788 0.148 7.45 6.87 9.84
10/22/2021 10:30:00 PM 12.6 54.68 0.148 7.44 8.21 9.83
10/22/2021 10:45:00 PM 12.53 54.554 0.149 7.45 6.56 9.84
10/22/2021 11:00:00 PM 12.46 54.428 0.149 7.45 6.68 9.86
10/22/2021 11:15:00 PM 12.39 54.302 0.149 7.45 6.47 9.89
10/22/2021 11:30:00 PM 12.33 54.194 0.149 7.44 7.98 9.91
10/22/2021 11:45:00 PM 12.26 54.068 0.149 7.46 6.56 9.91
10/23/2021 12:00:00 AM 12.2 53.96 0.149 7.44 7.86 9.92
10/23/2021 12:15:00 AM 12.16 53.888 0.149 7.45 7.71 9.92
10/23/2021 12:30:00 AM 12.12 53.816 0.149 7.46 6.31 9.92
10/23/2021 12:45:00 AM 12.07 53.726 0.149 7.45 6.25 9.93
10/23/2021 1:00:00 AM 12.03 53.654 0.149 7.45 6.02 9.95
10/23/2021 1:15:00 AM 11.99 53.582 0.149 7.46 5.92 9.97
10/23/2021 1:30:00 AM 11.95 53.51 0.142 7.44 7.22 9.98
10/23/2021 1:45:00 AM 11.91 53.438 0.149 7.46 5.9 10
10/23/2021 2:00:00 AM 11.87 53.366 0.149 7.45 5.75 10
10/23/2021 2:15:00 AM 11.83 53.294 0.149 7.44 7.2 10.01
10/23/2021 2:30:00 AM 11.79 53.222 0.149 7.46 5.68 10.02
10/23/2021 2:45:00 AM 11.76 53.168 0.149 7.45 5.77 10.02
10/23/2021 3:00:00 AM 11.72 53.096 0.141 7.45 7.11 10.03
10/23/2021 3:15:00 AM 11.68 53.024 0.149 7.46 7.09 10.04
10/23/2021 3:30:00 AM 11.64 52.952 0.15 7.47 5.63 10.05
10/23/2021 3:45:00 AM 11.6 52.88 0.15 7.45 5.69 10.07
10/23/2021 4:00:00 AM 11.57 52.826 0.15 7.44 7.03 10.08
10/23/2021 4:15:00 AM 11.53 52.754 0.15 7.47 5.5 10.1
10/23/2021 4:30:00 AM 11.49 52.682 0.148 7.44 6.95 10.11
10/23/2021 4:45:00 AM 11.46 52.628 0.149 7.45 6.96 10.12
10/23/2021 5:00:00 AM 11.42 52.556 0.15 7.48 5.44 10.12
10/23/2021 5:15:00 AM 11.39 52.502 0.15 7.45 5.45 10.12
10/23/2021 5:30:00 AM 11.36 52.448 0.09 7.45 7.01 10.12
10/23/2021 5:45:00 AM 11.33 52.394 0.15 7.46 5.36 10.13
10/23/2021 6:00:00 AM 11.31 52.358 0.15 7.45 6.74 10.13
10/23/2021 6:15:00 AM 11.28 52.304 0.15 7.45 6.84 10.13
10/23/2021 6:30:00 AM 11.26 52.268 0.15 7.45 6.95 10.14
10/23/2021 6:45:00 AM 11.23 52.214 0.148 7.45 6.75 10.15
10/23/2021 7:00:00 AM 11.2 52.16 0.15 7.46 6.76 10.18
10/23/2021 7:15:00 AM 11.17 52.106 0.15 7.46 5.43 10.19
10/23/2021 7:30:00 AM 11.15 52.07 0.151 7.45 6.79 10.21
10/23/2021 7:45:00 AM 11.13 52.034 0.151 7.47 6.76 10.23
10/23/2021 8:00:00 AM 11.11 51.998 0.151 7.47 6.39 10.29
10/23/2021 8:15:00 AM 11.09 51.962 0.151 7.49 6.44 10.39
10/23/2021 8:30:00 AM 11.1 51.98 0.151 7.53 5.25 10.55
10/23/2021 8:45:00 AM 11.12 52.016 0.149 7.54 6.44 10.74
10/23/2021 9:00:00 AM 11.13 52.034 0.149 7.58 6.45 10.92
10/23/2021 9:15:00 AM 11.13 52.034 0.15 7.61 6.29 11.02
10/23/2021 9:30:00 AM 11.13 52.034 0.151 7.63 4.91 10.98
10/23/2021 9:45:00 AM 11.12 52.016 0.151 7.62 4.93 10.96
10/23/2021 10:00:00 AM 11.14 52.052 0.15 7.61 6.31 10.97
10/23/2021 10:15:00 AM 11.17 52.106 0.15 7.66 6.12 11.08
10/23/2021 10:30:00 AM 11.21 52.178 0.15 7.71 6.27 11.26
10/23/2021 10:45:00 AM 11.24 52.232 0.15 7.75 6.28 11.42
10/23/2021 11:00:00 AM 11.3 52.34 0.15 7.8 6.09 11.53
10/23/2021 11:15:00 AM 11.37 52.466 0.08 7.85 5.94 11.66
10/23/2021 11:30:00 AM 11.43 52.574 0.15 7.92 4.72 11.76
10/23/2021 11:45:00 AM 11.47 52.646 0.15 7.95 4.71 11.83
10/23/2021 12:00:00 PM 11.53 52.754 0.15 8 4.65 11.87
10/23/2021 12:15:00 PM 11.61 52.898 0.147 8 6.01 11.9
10/23/2021 12:30:00 PM 11.63 52.934 0.15 8.04 4.7 11.91
10/23/2021 12:45:00 PM 11.64 52.952 0.15 8.03 4.66 11.85
10/23/2021 1:00:00 PM 11.66 52.988 0.15 8 4.58 11.75
10/23/2021 1:15:00 PM 11.7 53.06 0.15 8.01 4.61 11.75
10/23/2021 1:30:00 PM 11.72 53.096 0.15 8.03 5.89 11.8
10/23/2021 1:45:00 PM 11.74 53.132 0.15 8.05 4.64 11.8
10/23/2021 2:00:00 PM 11.74 53.132 0.151 8.02 4.63 11.7
10/23/2021 2:15:00 PM 11.74 53.132 0.151 7.96 4.63 11.57
10/23/2021 2:30:00 PM 11.75 53.15 0.151 7.94 4.61 11.48
10/23/2021 2:45:00 PM 11.75 53.15 0.151 7.92 5.96 11.48
10/23/2021 3:00:00 PM 11.76 53.168 0.151 7.95 4.62 11.49
10/23/2021 3:15:00 PM 11.79 53.222 0.151 7.94 4.59 11.49
10/23/2021 3:30:00 PM 11.84 53.312 0.151 7.98 4.49 11.58
10/23/2021 3:45:00 PM 11.87 53.366 0.151 8.01 4.5 11.64
10/23/2021 4:00:00 PM 11.86 53.348 0.151 7.98 4.67 11.54
10/23/2021 4:15:00 PM 11.86 53.348 0.151 7.92 4.39 11.35
10/23/2021 4:30:00 PM 11.86 53.348 0.147 7.82 5.75 11.15
10/23/2021 4:45:00 PM 11.85 53.33 0.151 7.79 4.48 11.03
10/23/2021 5:00:00 PM 11.84 53.312 0.151 7.75 5.8 10.97
10/23/2021 5:15:00 PM 11.84 53.312 0.151 7.75 4.5 10.96
10/23/2021 5:30:00 PM 11.83 53.294 0.151 7.75 4.45 10.96
10/23/2021 5:45:00 PM 11.79 53.222 0.151 7.73 4.49 10.89
10/23/2021 6:00:00 PM 11.75 53.15 0.151 7.7 4.43 10.79
10/23/2021 6:15:00 PM 11.72 53.096 0.152 7.65 5.66 10.67
10/23/2021 6:30:00 PM 11.67 53.006 0.152 7.64 4.45 10.57
10/23/2021 6:45:00 PM 11.62 52.916 0.152 7.61 4.52 10.47
10/23/2021 7:00:00 PM 11.57 52.826 0.152 7.59 4.43 10.39
10/23/2021 7:15:00 PM 11.51 52.718 0.152 7.56 4.59 10.34
10/23/2021 7:30:00 PM 11.46 52.628 0.152 7.53 5.88 10.3
10/23/2021 7:45:00 PM 11.42 52.556 0.152 7.53 4.32 10.26
10/23/2021 8:00:00 PM 11.37 52.466 0.153 7.53 4.61 10.24
10/23/2021 8:15:00 PM 11.33 52.394 0.153 7.52 4.53 10.23
10/23/2021 8:30:00 PM 11.3 52.34 0.152 7.5 5.69 10.22
10/23/2021 8:45:00 PM 11.27 52.286 0.153 7.5 6.02 10.22
10/23/2021 9:00:00 PM 11.25 52.25 0.152 7.5 6.09 10.22
10/23/2021 9:15:00 PM 11.23 52.214 0.153 7.51 4.67 10.22
10/23/2021 9:30:00 PM 11.21 52.178 0.153 7.5 4.85 10.22
10/23/2021 9:45:00 PM 11.19 52.142 0.153 7.5 6.22 10.23
10/23/2021 10:00:00 PM 11.17 52.106 0.153 7.51 4.43 10.24
10/23/2021 10:15:00 PM 11.14 52.052 0.153 7.49 4.62 10.25
10/23/2021 10:30:00 PM 11.12 52.016 0.153 7.49 4.73 10.25
10/23/2021 10:45:00 PM 11.09 51.962 0.153 7.47 5.84 10.25
10/23/2021 11:00:00 PM 11.08 51.944 0.153 7.48 4.36 10.26
10/23/2021 11:15:00 PM 11.06 51.908 0.153 7.48 4.51 10.26
10/23/2021 11:30:00 PM 11.04 51.872 0.152 7.48 5.91 10.26
10/23/2021 11:45:00 PM 11.03 51.854 0.153 7.49 4.69 10.26
10/24/2021 12:00:00 AM 11.01 51.818 0.153 7.47 5.7 10.26
10/24/2021 12:15:00 AM 10.99 51.782 0.154 7.48 4.48 10.26
10/24/2021 12:30:00 AM 10.97 51.746 0.154 7.47 4.31 10.26
10/24/2021 12:45:00 AM 10.95 51.71 0.154 7.47 4.33 10.25
10/24/2021 1:00:00 AM 10.92 51.656 0.154 7.48 5.98 10.25
10/24/2021 1:15:00 AM 10.9 51.62 0.153 7.47 5.93 10.26
10/24/2021 1:30:00 AM 10.88 51.584 0.152 7.47 6.02 10.27
10/24/2021 1:45:00 AM 10.87 51.566 0.154 7.48 4.32 10.27
10/24/2021 2:00:00 AM 10.86 51.548 0.154 7.47 4.32 10.28
10/24/2021 2:15:00 AM 10.84 51.512 0.154 7.47 5.89 10.28
10/24/2021 2:30:00 AM 10.81 51.458 0.154 7.48 4.39 10.3
10/24/2021 2:45:00 AM 10.78 51.404 0.154 7.47 4.5 10.31
10/24/2021 3:00:00 AM 10.76 51.368 0.154 7.48 4.59 10.32
10/24/2021 3:15:00 AM 10.74 51.332 0.155 7.47 4.31 10.33
10/24/2021 3:30:00 AM 10.74 51.332 0.153 7.46 5.7 10.33
10/24/2021 3:45:00 AM 10.73 51.314 0.155 7.47 4.39 10.34
10/24/2021 4:00:00 AM 10.71 51.278 0.154 7.46 5.86 10.34
10/24/2021 4:15:00 AM 10.7 51.26 0.155 7.47 4.42 10.35
10/24/2021 4:30:00 AM 10.69 51.242 0.155 7.47 4.44 10.35
10/24/2021 4:45:00 AM 10.68 51.224 0.155 7.46 5.85 10.35
10/24/2021 5:00:00 AM 10.66 51.188 0.155 7.47 4.22 10.35
10/24/2021 5:15:00 AM 10.64 51.152 0.155 7.47 4.41 10.35
10/24/2021 5:30:00 AM 10.62 51.116 0.155 7.48 4.19 10.36
10/24/2021 5:45:00 AM 10.61 51.098 0.155 7.46 5.72 10.36
10/24/2021 6:00:00 AM 10.59 51.062 0.155 7.48 4.26 10.36
10/24/2021 6:15:00 AM 10.58 51.044 0.156 7.48 4.19 10.36
10/24/2021 6:30:00 AM 10.57 51.026 0.156 7.46 5.64 10.37
10/24/2021 6:45:00 AM 10.56 51.008 0.083 7.47 5.55 10.37
10/24/2021 7:00:00 AM 10.55 50.99 0.156 7.48 4.35 10.37
10/24/2021 7:15:00 AM 10.54 50.972 0.156 7.48 4.21 10.37
10/24/2021 7:30:00 AM 10.52 50.936 0.156 7.49 4.28 10.38
10/24/2021 7:45:00 AM 10.5 50.9 0.153 7.47 5.62 10.4
10/24/2021 8:00:00 AM 10.49 50.882 0.101 7.48 5.73 10.44
10/24/2021 8:15:00 AM 10.48 50.864 0.156 7.51 4.11 10.53
10/24/2021 8:30:00 AM 10.49 50.882 0.156 7.52 5.76 10.68
10/24/2021 8:45:00 AM 10.5 50.9 0.156 7.55 8.92 10.85
10/24/2021 9:00:00 AM 10.52 50.936 0.156 7.6 8.6 11.05
10/24/2021 9:15:00 AM 10.55 50.99 0.156 7.63 7.99 11.23
10/24/2021 9:30:00 AM 10.57 51.026 0.156 7.69 3.83 11.37
10/24/2021 9:45:00 AM 10.6 51.08 0.156 7.72 5.26 11.53
10/24/2021 10:00:00 AM 10.64 51.152 0.156 7.78 3.76 11.67
10/24/2021 10:15:00 AM 10.7 51.26 0.086 7.83 5.2 11.84
10/24/2021 10:30:00 AM 10.77 51.386 0.155 7.91 3.64 11.99
10/24/2021 10:45:00 AM 10.88 51.584 0.155 7.99 3.61 12.12
10/24/2021 11:00:00 AM 10.92 51.656 0.155 8.05 3.63 12.19
10/24/2021 11:15:00 AM 11.02 51.836 0.155 8.12 3.49 12.28
10/24/2021 11:30:00 AM 11.14 52.052 0.146 8.16 5.07 12.39
10/24/2021 11:45:00 AM 11.29 52.322 0.155 8.26 3.51 12.45
10/24/2021 12:00:00 PM 11.45 52.61 0.155 8.3 3.53 12.48
10/24/2021 12:15:00 PM 11.58 52.844 0.155 8.36 3.51 12.56
10/24/2021 12:30:00 PM 11.65 52.97 0.155 8.39 4.93 12.58
10/24/2021 12:45:00 PM 11.69 53.042 0.084 8.42 5.26 12.55
10/24/2021 1:00:00 PM 11.73 53.114 0.155 8.45 3.49 12.51
10/24/2021 1:15:00 PM 11.76 53.168 0.155 8.44 3.42 12.45
10/24/2021 1:30:00 PM 11.76 53.168 0.155 8.41 3.44 12.35
10/24/2021 1:45:00 PM 11.74 53.132 0.155 8.35 3.47 12.21
10/24/2021 2:00:00 PM 11.73 53.114 0.156 8.26 3.43 12.02
10/24/2021 2:15:00 PM 11.72 53.096 0.156 8.18 3.44 11.9
10/24/2021 2:30:00 PM 11.72 53.096 0.156 8.13 3.39 11.8
10/24/2021 2:45:00 PM 11.71 53.078 0.156 8.08 3.38 11.72
10/24/2021 3:00:00 PM 11.7 53.06 0.156 8.04 3.44 11.63
10/24/2021 3:15:00 PM 11.69 53.042 0.156 7.98 3.38 11.52
10/24/2021 3:30:00 PM 11.68 53.024 0.156 7.93 4.91 11.4
10/24/2021 3:45:00 PM 11.68 53.024 0.156 7.89 3.38 11.3
10/24/2021 4:00:00 PM 11.68 53.024 0.156 7.85 5.09 11.24
10/24/2021 4:15:00 PM 11.67 53.006 0.156 7.84 3.31 11.19
10/24/2021 4:30:00 PM 11.67 53.006 0.156 7.81 3.29 11.1
10/24/2021 4:45:00 PM 11.67 53.006 0.157 7.77 3.4 10.98
10/24/2021 5:00:00 PM 11.67 53.006 0.157 7.73 3.4 10.86
10/24/2021 5:15:00 PM 11.66 52.988 0.157 7.69 3.33 10.75
10/24/2021 5:30:00 PM 11.65 52.97 0.157 7.67 3.4 10.67
10/24/2021 5:45:00 PM 11.64 52.952 0.157 7.64 4.93 10.6
10/24/2021 6:00:00 PM 11.62 52.916 0.157 7.63 3.35 10.53
10/24/2021 6:15:00 PM 11.61 52.898 0.157 7.61 3.43 10.47
10/24/2021 6:30:00 PM 11.59 52.862 0.157 7.6 3.42 10.42
10/24/2021 6:45:00 PM 11.57 52.826 0.156 7.57 5.12 10.37
10/24/2021 7:00:00 PM 11.55 52.79 0.157 7.56 3.47 10.33
10/24/2021 7:15:00 PM 11.52 52.736 0.157 7.56 3.42 10.3
10/24/2021 7:30:00 PM 11.5 52.7 0.157 7.55 3.53 10.28
10/24/2021 7:45:00 PM 11.48 52.664 0.157 7.54 3.37 10.27
10/24/2021 8:00:00 PM 11.46 52.628 0.157 7.54 3.45 10.24
10/24/2021 8:15:00 PM 11.44 52.592 0.083 7.52 5.05 10.24
10/24/2021 8:30:00 PM 11.42 52.556 0.156 7.52 3.54 10.23
10/24/2021 8:45:00 PM 11.41 52.538 0.156 7.51 3.51 10.22
10/24/2021 9:00:00 PM 11.39 52.502 0.156 7.51 3.67 10.21
10/24/2021 9:15:00 PM 11.38 52.484 0.154 7.5 5.25 10.2
10/24/2021 9:30:00 PM 11.36 52.448 0.156 7.5 3.73 10.2
10/24/2021 9:45:00 PM 11.35 52.43 0.156 7.5 3.71 10.19
10/24/2021 10:00:00 PM 11.34 52.412 0.156 7.5 3.65 10.19
10/24/2021 10:15:00 PM 11.33 52.394 0.156 7.5 3.96 10.19
10/24/2021 10:30:00 PM 11.32 52.376 0.156 7.5 3.87 10.19
10/24/2021 10:45:00 PM 11.31 52.358 0.156 7.49 3.84 10.19
10/24/2021 11:00:00 PM 11.3 52.34 0.083 7.48 5.52 10.19
10/24/2021 11:15:00 PM 11.28 52.304 0.155 7.5 3.82 10.19
10/24/2021 11:30:00 PM 11.27 52.286 0.155 7.49 3.96 10.19
10/24/2021 11:45:00 PM 11.26 52.268 0.153 7.48 5.63 10.19
10/25/2021 12:00:00 AM 11.25 52.25 0.155 7.49 4.26 10.19
10/25/2021 12:15:00 AM 11.25 52.25 0.155 7.48 4.43 10.19
10/25/2021 12:30:00 AM 11.24 52.232 0.155 7.48 4.59 10.18
10/25/2021 12:45:00 AM 11.24 52.232 0.154 7.47 6.38 10.19
10/25/2021 1:00:00 AM 11.23 52.214 0.155 7.48 5.51 10.18
10/25/2021 1:15:00 AM 11.23 52.214 0.155 7.47 5.3 10.18
10/25/2021 1:30:00 AM 11.24 52.232 0.155 7.46 5.68 10.17
10/25/2021 1:45:00 AM 11.24 52.232 0.154 7.47 5.7 10.18
10/25/2021 2:00:00 AM 11.25 52.25 0.154 7.45 5.77 10.18
10/25/2021 2:15:00 AM 11.26 52.268 0.153 7.44 6.21 10.19
10/25/2021 2:30:00 AM 11.28 52.304 0.153 7.45 6.49 10.2
10/25/2021 2:45:00 AM 11.29 52.322 0.153 7.43 7.97 10.21
10/25/2021 3:00:00 AM 11.32 52.376 0.155 7.45 9.38 10.22
10/25/2021 3:15:00 AM 11.36 52.448 0.159 7.43 11.69 10.21
10/25/2021 3:30:00 AM 11.33 52.394 0.159 7.44 17.8 10.25
10/25/2021 3:45:00 AM 11.26 52.268 0.157 7.42 25.94 10.3
10/25/2021 4:00:00 AM 11.24 52.232 0.154 7.45 33.5 10.3
10/25/2021 4:15:00 AM 11.24 52.232 0.154 7.44 34.13 10.3
10/25/2021 4:30:00 AM 11.25 52.25 0.151 7.44 36.18 10.3
10/25/2021 4:45:00 AM 11.23 52.214 0.152 7.45 36.49 10.3
10/25/2021 5:00:00 AM 11.19 52.142 0.149 7.43 38 10.31
10/25/2021 5:15:00 AM 11.13 52.034 0.146 7.43 40.35 10.32
10/25/2021 5:30:00 AM 11.08 51.944 0.143 7.42 44.43 10.33
10/25/2021 5:45:00 AM 11.04 51.872 0.14 7.42 46.81 10.35
10/25/2021 6:00:00 AM 11.01 51.818 0.138 7.4 36.7 10.37
10/25/2021 6:15:00 AM 10.99 51.782 0.137 7.4 43.6 10.38
10/25/2021 6:30:00 AM 10.98 51.764 0.136 7.39 42.48 10.39
10/25/2021 6:45:00 AM 10.96 51.728 0.135 7.4 40.53 10.4
10/25/2021 7:00:00 AM 10.95 51.71 0.134 7.39 40.99 10.41
10/25/2021 7:15:00 AM 10.94 51.692 0.132 7.4 39.39 10.41
10/25/2021 7:30:00 AM 10.93 51.674 0.13 7.39 36.56 10.41
10/25/2021 7:45:00 AM 10.92 51.656 0.129 7.39 33.61 10.42
10/25/2021 8:00:00 AM 10.91 51.638 0.126 7.37 35.01 10.43
10/25/2021 8:15:00 AM 10.91 51.638 0.126 7.36 34.57 10.44
10/25/2021 8:30:00 AM 10.91 51.638 0.124 7.37 33.17 10.46
10/25/2021 8:45:00 AM 10.92 51.656 0.123 7.38 35.06 10.47
10/25/2021 9:00:00 AM 10.95 51.71 0.122 7.39 33.01 10.49
10/25/2021 9:15:00 AM 10.98 51.764 0.121 7.39 32.14 10.52
10/25/2021 9:30:00 AM 11.01 51.818 0.12 7.38 31.09 10.53
10/25/2021 9:45:00 AM 11.04 51.872 0.12 7.38 29.72 10.54
10/25/2021 10:00:00 AM 11.11 51.998 0.117 7.38 30.96 10.58
10/25/2021 10:15:00 AM 11.17 52.106 0.12 7.42 28.19 10.61
10/25/2021 10:30:00 AM 11.25 52.25 0.119 7.41 26.22 10.65
10/25/2021 10:45:00 AM 11.34 52.412 0.119 7.42 25.19 10.69
10/25/2021 11:00:00 AM 11.45 52.61 0.119 7.43 25.24 10.7
10/25/2021 11:15:00 AM 11.55 52.79 0.12 7.43 23.75 10.71
10/25/2021 11:30:00 AM 11.67 53.006 0.12 7.43 22.55 10.76
10/25/2021 11:45:00 AM 11.78 53.204 0.12 7.46 22.56 10.77
10/25/2021 12:00:00 PM 11.91 53.438 0.12 7.45 22.82 10.75
10/25/2021 12:15:00 PM 12.03 53.654 0.12 7.48 20.59 10.77
10/25/2021 12:30:00 PM 12.15 53.87 0.121 7.5 19.36 10.78
10/25/2021 12:45:00 PM 12.28 54.104 0.121 7.5 18.57 10.75
10/25/2021 1:00:00 PM 12.4 54.32 0.121 7.5 19.47 10.77
10/25/2021 1:15:00 PM 12.52 54.536 0.122 7.52 17.73 10.77
10/25/2021 1:30:00 PM 12.62 54.716 0.122 7.51 17.25 10.72
10/25/2021 1:45:00 PM 12.73 54.914 0.123 7.53 16.23 10.71
10/25/2021 2:00:00 PM 12.83 55.094 0.122 7.52 14.76 10.7
10/25/2021 2:15:00 PM 12.92 55.256 0.123 7.53 15.66 10.65
10/25/2021 2:30:00 PM 13.02 55.436 0.123 7.53 15.47 10.61
10/25/2021 2:45:00 PM 13.1 55.58 0.124 7.57 14.41 10.61
10/25/2021 3:00:00 PM 13.17 55.706 0.123 7.53 15.23 10.56
10/25/2021 3:15:00 PM 13.26 55.868 0.066 7.53 14.45 10.54
10/25/2021 3:30:00 PM 13.32 55.976 0.125 7.56 12.9 10.49
10/25/2021 3:45:00 PM 13.37 56.066 0.125 7.52 14.55 10.45
10/25/2021 4:00:00 PM 13.43 56.174 0.12 7.52 13.66 10.45
10/25/2021 4:15:00 PM 13.48 56.264 0.125 7.53 13.29 10.44
10/25/2021 4:30:00 PM 13.51 56.318 0.126 7.52 12.77 10.41
10/25/2021 4:45:00 PM 13.53 56.354 0.126 7.54 11.38 10.32
10/25/2021 5:00:00 PM 13.54 56.372 0.125 7.47 13.1 10.21
10/25/2021 5:15:00 PM 13.54 56.372 0.126 7.47 13.53 10.14
10/25/2021 5:30:00 PM 13.54 56.372 0.127 7.47 11.77 10.07
10/25/2021 5:45:00 PM 13.55 56.39 0.126 7.43 12.19 9.99
10/25/2021 6:00:00 PM 13.55 56.39 0.125 7.42 12.12 9.93
10/25/2021 6:15:00 PM 13.56 56.408 0.127 7.43 10.72 9.87
10/25/2021 6:30:00 PM 13.56 56.408 0.128 7.41 10.52 9.83
10/25/2021 6:45:00 PM 13.57 56.426 0.098 7.37 11.53 9.8
10/25/2021 7:00:00 PM 13.57 56.426 0.089 7.37 11.61 9.76
10/25/2021 7:15:00 PM 13.57 56.426 0.127 7.36 12.13 9.74
10/25/2021 7:30:00 PM 13.57 56.426 0.126 7.35 11.23 9.72
10/25/2021 7:45:00 PM 13.56 56.408 0.128 7.35 11.4 9.7
10/25/2021 8:00:00 PM 13.56 56.408 0.128 7.38 9.97 9.69
10/25/2021 8:15:00 PM 13.55 56.39 0.128 7.36 9.8 9.68
10/25/2021 8:30:00 PM 13.54 56.372 0.129 7.35 9.57 9.68
10/25/2021 8:45:00 PM 13.53 56.354 0.129 7.34 9.59 9.68
10/25/2021 9:00:00 PM 13.52 56.336 0.128 7.32 10.69 9.68
10/25/2021 9:15:00 PM 13.51 56.318 0.088 7.33 10.53 9.68
10/25/2021 9:30:00 PM 13.49 56.282 0.129 7.34 9.29 9.68
10/25/2021 9:45:00 PM 13.47 56.246 0.129 7.32 10.44 9.68
10/25/2021 10:00:00 PM 13.46 56.228 0.129 7.34 8.99 9.68
10/25/2021 10:15:00 PM 13.44 56.192 0.129 7.35 8.7 9.69
10/25/2021 10:30:00 PM 13.42 56.156 0.129 7.35 8.69 9.69
10/25/2021 10:45:00 PM 13.4 56.12 0.13 7.34 8.61 9.7
10/25/2021 11:00:00 PM 13.37 56.066 0.13 7.35 8.57 9.69
10/25/2021 11:15:00 PM 13.35 56.03 0.128 7.31 9.97 9.69
10/25/2021 11:30:00 PM 13.32 55.976 0.13 7.32 9.82 9.69
10/25/2021 11:45:00 PM 13.29 55.922 0.13 7.35 8.21 9.69
10/26/2021 12:00:00 AM 13.27 55.886 0.128 7.32 9.48 9.68
10/26/2021 12:15:00 AM 13.25 55.85 0.13 7.35 8.33 9.69
10/26/2021 12:30:00 AM 13.23 55.814 0.127 7.32 9.49 9.69
10/26/2021 12:45:00 AM 13.21 55.778 0.13 7.33 8.37 9.68
10/26/2021 1:00:00 AM 13.2 55.76 0.129 7.32 9.33 9.69
10/26/2021 1:15:00 AM 13.18 55.724 0.131 7.34 8.21 9.69
10/26/2021 1:30:00 AM 13.16 55.688 0.131 7.31 9.6 9.69
10/26/2021 1:45:00 AM 13.14 55.652 0.131 7.3 9.73 9.7
10/26/2021 2:00:00 AM 13.12 55.616 0.131 7.3 9.28 9.71
10/26/2021 2:15:00 AM 13.1 55.58 0.131 7.32 8.1 9.71
10/26/2021 2:30:00 AM 13.09 55.562 0.131 7.3 9.15 9.71
10/26/2021 2:45:00 AM 13.07 55.526 0.126 7.3 9.15 9.72
10/26/2021 3:00:00 AM 13.06 55.508 0.132 7.29 8.91 9.72
10/26/2021 3:15:00 AM 13.05 55.49 0.099 7.31 8.7 9.72
10/26/2021 3:30:00 AM 13.04 55.472 0.132 7.32 7.58 9.72
10/26/2021 3:45:00 AM 13.03 55.454 0.132 7.31 8.83 9.73
10/26/2021 4:00:00 AM 13.02 55.436 0.132 7.3 9.08 9.73
10/26/2021 4:15:00 AM 13.02 55.436 0.132 7.33 7.56 9.73
10/26/2021 4:30:00 AM 13.01 55.418 0.132 7.3 9.05 9.73
10/26/2021 4:45:00 AM 13 55.4 0.132 7.32 7.81 9.73
10/26/2021 5:00:00 AM 12.99 55.382 0.132 7.3 9.12 9.74
10/26/2021 5:15:00 AM 12.98 55.364 0.131 7.3 8.95 9.74
10/26/2021 5:30:00 AM 12.98 55.364 0.131 7.31 9.39 9.74
10/26/2021 5:45:00 AM 12.97 55.346 0.132 7.3 9.8 9.74
10/26/2021 6:00:00 AM 12.96 55.328 0.132 7.3 9.81 9.74
10/26/2021 6:15:00 AM 12.96 55.328 0.133 7.34 8.21 9.74
10/26/2021 6:30:00 AM 12.95 55.31 0.131 7.29 9.31 9.74
10/26/2021 6:45:00 AM 12.94 55.292 0.132 7.3 9.4 9.74
10/26/2021 7:00:00 AM 12.94 55.292 0.133 7.34 7.74 9.75
10/26/2021 7:15:00 AM 12.94 55.292 0.133 7.33 7.89 9.75
10/26/2021 7:30:00 AM 12.93 55.274 0.133 7.34 7.89 9.75
10/26/2021 7:45:00 AM 12.92 55.256 0.132 7.33 7.89 9.75
10/26/2021 8:00:00 AM 12.9 55.22 0.132 7.33 9.11 9.77
10/26/2021 8:15:00 AM 12.88 55.184 0.13 7.34 9.18 9.78
10/26/2021 8:30:00 AM 12.87 55.166 0.125 7.34 9.53 9.79
10/26/2021 8:45:00 AM 12.86 55.148 0.131 7.37 9.12 9.81
10/26/2021 9:00:00 AM 12.86 55.148 0.131 7.36 11.87 9.83
10/26/2021 9:15:00 AM 12.84 55.112 0.129 7.37 12.86 9.84
10/26/2021 9:30:00 AM 12.83 55.094 0.126 7.37 16.3 9.85
10/26/2021 9:45:00 AM 12.82 55.076 0.125 7.34 41.14 9.84
10/26/2021 10:00:00 AM 12.8 55.04 0.124 7.3 76.36 9.85
10/26/2021 10:15:00 AM 12.76 54.968 0.114 7.34 193.04 9.88
10/26/2021 10:30:00 AM 12.75 54.95 0.108 7.22 253.6 9.85
10/26/2021 10:45:00 AM 12.74 54.932 0.105 7.23 265.27 9.87
10/26/2021 11:00:00 AM 12.72 54.896 0.102 6.99 281.8 9.88
10/26/2021 11:15:00 AM 12.7 54.86 0.098 6.92 257.18 9.89
10/26/2021 11:30:00 AM 12.68 54.824 0.091 6.89 235.5 9.91
10/26/2021 11:45:00 AM 12.66 54.788 0.092 6.87 277.38 9.92
10/26/2021 12:00:00 PM 12.64 54.752 0.085 6.86 254.29 9.93
10/26/2021 12:15:00 PM 12.61 54.698 0.087 6.85 265.72 9.95
10/26/2021 12:30:00 PM 12.59 54.662 0.083 6.84 262.44 9.95
10/26/2021 12:45:00 PM 12.56 54.608 0.086 6.83 289.96 9.95
10/26/2021 1:00:00 PM 12.53 54.554 0.079 6.81 270.61 9.95
10/26/2021 1:15:00 PM 12.5 54.5 0.082 6.8 322.55 9.95
10/26/2021 1:30:00 PM 12.48 54.464 0.08 6.79 327.58 9.96
10/26/2021 1:45:00 PM 12.45 54.41 0.079 6.79 336.94 9.96
10/26/2021 2:00:00 PM 12.42 54.356 0.079 6.81 366.86 9.97
10/26/2021 2:15:00 PM 12.39 54.302 0.024 6.81 318.99 9.99
10/26/2021 2:30:00 PM 12.36 54.248 0.072 6.79 399.56 10
10/26/2021 2:45:00 PM 12.33 54.194 0.077 6.8 326.89 10.02
10/26/2021 3:00:00 PM 12.28 54.104 0.076 6.79 2112.15 10.02
10/26/2021 3:15:00 PM 12.24 54.032 0.075 6.78 297.04 10.02
10/26/2021 3:30:00 PM 12.19 53.942 0.074 6.78 306.23 10.02
10/26/2021 3:45:00 PM 12.15 53.87 0.073 6.76 325.63 10.04
10/26/2021 4:00:00 PM 12.1 53.78 0.072 6.75 434.99 10.05
10/26/2021 4:15:00 PM 12.05 53.69 0.071 6.75 294.03 10.07
10/26/2021 4:30:00 PM 12.01 53.618 0.067 6.75 255.5 10.08
10/26/2021 4:45:00 PM 11.97 53.546 0.069 6.73 275.48 10.1
10/26/2021 5:00:00 PM 11.92 53.456 0.069 6.73 281.86 10.09
10/26/2021 5:15:00 PM 11.88 53.384 0.065 6.72 293.9 10.1
10/26/2021 5:30:00 PM 11.84 53.312 0.067 6.69 309.58 10.11
10/26/2021 5:45:00 PM 11.79 53.222 0.066 6.68 324.86 10.13
10/26/2021 6:00:00 PM 11.76 53.168 0.066 6.68 345.64 10.15
10/26/2021 6:15:00 PM 11.72 53.096 0.066 6.68 348.5 10.17
10/26/2021 6:30:00 PM 11.69 53.042 0.066 6.69 348.81 10.18
10/26/2021 6:45:00 PM 11.66 52.988 0.062 6.69 324.85 10.19
10/26/2021 7:00:00 PM 11.64 52.952 0.064 6.74 315.4 10.18
10/26/2021 7:15:00 PM 11.63 52.934 0.065 6.83 333.88 10.18
10/26/2021 7:30:00 PM 11.62 52.916 0.066 6.93 304.26 10.18
10/26/2021 7:45:00 PM 11.62 52.916 0.066 6.94 297 10.18
10/26/2021 8:00:00 PM 11.63 52.934 0.066 6.95 265.55 10.17
10/26/2021 8:15:00 PM 11.64 52.952 0.066 6.97 244.8 10.18
10/26/2021 8:30:00 PM 11.65 52.97 0.063 6.93 218.77 10.17
10/26/2021 8:45:00 PM 11.66 52.988 0.068 6.97 235.99 10.17
10/26/2021 9:00:00 PM 11.67 53.006 0.068 6.97 220.16 10.17
10/26/2021 9:15:00 PM 11.68 53.024 0.066 6.94 182.97 10.18
10/26/2021 9:30:00 PM 11.69 53.042 0.065 6.96 179.26 10.17
10/26/2021 9:45:00 PM 11.7 53.06 0.069 6.99 178.52 10.16
10/26/2021 10:00:00 PM 11.72 53.096 0.07 6.98 169.69 10.16
10/26/2021 10:15:00 PM 11.73 53.114 0.07 6.98 167.84 10.16
10/26/2021 10:30:00 PM 11.74 53.132 0.07 6.99 158.73 10.16
10/26/2021 10:45:00 PM 11.75 53.15 0.069 6.97 147.9 10.16
10/26/2021 11:00:00 PM 11.76 53.168 0.07 6.99 155.71 10.16
10/26/2021 11:15:00 PM 11.77 53.186 0.071 6.98 149.41 10.16
10/26/2021 11:30:00 PM 11.77 53.186 0.071 6.99 135.79 10.15
10/26/2021 11:45:00 PM 11.78 53.204 0.071 6.99 141.23 10.15
10/27/2021 12:00:00 AM 11.79 53.222 0.072 6.99 135.58 10.14
10/27/2021 12:15:00 AM 11.8 53.24 0.072 7 131.46 10.15
10/27/2021 12:30:00 AM 11.8 53.24 0.073 7.01 127.37 10.15
10/27/2021 12:45:00 AM 11.81 53.258 0.069 6.98 114.07 10.15
10/27/2021 1:00:00 AM 11.81 53.258 0.07 6.97 105.27 10.15
10/27/2021 1:15:00 AM 11.82 53.276 0.072 6.99 101.16 10.15
10/27/2021 1:30:00 AM 11.82 53.276 0.074 7 108.1 10.16
10/27/2021 1:45:00 AM 11.83 53.294 0.071 6.99 93.83 10.16
10/27/2021 2:00:00 AM 11.83 53.294 0.075 7.01 100.25 10.17
10/27/2021 2:15:00 AM 11.84 53.312 0.072 6.99 91.86 10.17
10/27/2021 2:30:00 AM 11.84 53.312 0.076 7.01 96.01 10.17
10/27/2021 2:45:00 AM 11.84 53.312 0.073 7 86.72 10.17
10/27/2021 3:00:00 AM 11.84 53.312 0.077 7.02 94.37 10.17
10/27/2021 3:15:00 AM 11.84 53.312 0.078 7.02 85.28 10.17
10/27/2021 3:30:00 AM 11.85 53.33 0.078 7.03 88.91 10.18
10/27/2021 3:45:00 AM 11.85 53.33 0.078 7.03 86.95 10.18
10/27/2021 4:00:00 AM 11.85 53.33 0.075 7.01 74.04 10.18
10/27/2021 4:15:00 AM 11.85 53.33 0.079 7.03 79.55 10.18
10/27/2021 4:30:00 AM 11.84 53.312 0.079 7.03 75.95 10.18
10/27/2021 4:45:00 AM 11.84 53.312 0.08 7.04 71.75 10.18
10/27/2021 5:00:00 AM 11.84 53.312 0.08 7.04 70.12 10.18
10/27/2021 5:15:00 AM 11.83 53.294 0.081 7.04 75.68 10.19
10/27/2021 5:30:00 AM 11.83 53.294 0.077 7.02 63.75 10.19
10/27/2021 5:45:00 AM 11.82 53.276 0.077 7.03 64 10.2
10/27/2021 6:00:00 AM 11.82 53.276 0.081 7.05 63.54 10.2
10/27/2021 6:15:00 AM 11.81 53.258 0.082 7.04 64.76 10.2
10/27/2021 6:30:00 AM 11.8 53.24 0.082 7.05 65.03 10.21
10/27/2021 6:45:00 AM 11.79 53.222 0.078 7.03 57.98 10.21
10/27/2021 7:00:00 AM 11.77 53.186 0.083 7.06 59.55 10.22
10/27/2021 7:15:00 AM 11.76 53.168 0.083 7.06 59.34 10.22
10/27/2021 7:30:00 AM 11.75 53.15 0.083 7.04 58.07 10.22
10/27/2021 7:45:00 AM 11.73 53.114 0.083 7.04 56.02 10.22
10/27/2021 8:00:00 AM 11.72 53.096 0.083 7.05 54.71 10.22
10/27/2021 8:15:00 AM 11.71 53.078 0.083 7.06 54.34 10.23
10/27/2021 8:30:00 AM 11.69 53.042 0.084 7.05 50.91 10.23
10/27/2021 8:45:00 AM 11.68 53.024 0.084 7.05 54.18 10.24
10/27/2021 9:00:00 AM 11.67 53.006 0.084 7.06 50.18 10.24
10/27/2021 9:15:00 AM 11.66 52.988 0.084 7.05 51.48 10.25
10/27/2021 9:30:00 AM 11.66 52.988 0.084 7.06 49.84 10.25
10/27/2021 9:45:00 AM 11.65 52.97 0.084 7.05 50.79 10.26
10/27/2021 10:00:00 AM 11.67 53.006 0.08 7.04 45.77 10.27
10/27/2021 10:15:00 AM 11.69 53.042 0.085 7.06 49.01 10.28
10/27/2021 10:30:00 AM 11.71 53.078 0.081 7.05 47.89 10.29
10/27/2021 10:45:00 AM 11.74 53.132 0.085 7.07 48.27 10.3
10/27/2021 11:00:00 AM 11.8 53.24 0.085 7.07 45.81 10.3
10/27/2021 11:15:00 AM 11.86 53.348 0.081 7.04 44.69 10.29
10/27/2021 11:30:00 AM 11.92 53.456 0.081 7.05 46.6 10.27
10/27/2021 11:45:00 AM 11.96 53.528 0.081 7.06 42.11 10.26
10/27/2021 12:00:00 PM 11.99 53.582 0.081 7.06 41.93 10.26
10/27/2021 12:15:00 PM 12.05 53.69 0.086 7.07 44.96 10.26
10/27/2021 12:30:00 PM 12.11 53.798 0.086 7.07 46.87 10.27
10/27/2021 12:45:00 PM 12.18 53.924 0.086 7.07 41.26 10.27
10/27/2021 1:00:00 PM 12.24 54.032 0.086 7.07 43.01 10.25
10/27/2021 1:15:00 PM 12.29 54.122 0.086 7.08 38.35 10.23
10/27/2021 1:30:00 PM 12.33 54.194 0.087 7.07 42.87 10.21
10/27/2021 1:45:00 PM 12.37 54.266 0.087 7.07 40.18 10.2
10/27/2021 2:00:00 PM 12.42 54.356 0.087 7.08 41.73 10.21
10/27/2021 2:15:00 PM 12.46 54.428 0.087 7.08 38.61 10.2
10/27/2021 2:30:00 PM 12.5 54.5 0.087 7.09 33.29 10.19
10/27/2021 2:45:00 PM 12.55 54.59 0.083 7.07 36.23 10.17
10/27/2021 3:00:00 PM 12.59 54.662 0.083 7.07 33.89 10.14
10/27/2021 3:15:00 PM 12.62 54.716 0.088 7.09 34.21 10.12
10/27/2021 3:30:00 PM 12.65 54.77 0.086 7.08 33.18 10.09
10/27/2021 3:45:00 PM 12.67 54.806 0.088 7.09 37.06 10.08
10/27/2021 4:00:00 PM 12.68 54.824 0.084 7.07 62.7 10.07
10/27/2021 4:15:00 PM 12.69 54.842 0.088 7.09 40.56 10.07
10/27/2021 4:30:00 PM 12.69 54.842 0.084 7.07 35.36 10.06
10/27/2021 4:45:00 PM 12.68 54.824 0.087 7.08 34.26 10.05
10/27/2021 5:00:00 PM 12.66 54.788 0.087 7.07 31.94 10.04
10/27/2021 5:15:00 PM 12.64 54.752 0.089 7.09 26.16 10.04
10/27/2021 5:30:00 PM 12.61 54.698 0.089 7.09 32.49 10.04
10/27/2021 5:45:00 PM 12.57 54.626 0.089 7.1 35.16 10.05
10/27/2021 6:00:00 PM 12.52 54.536 0.089 7.09 33.32 10.07
10/27/2021 6:15:00 PM 12.47 54.446 0.089 7.1 32.67 10.09
10/27/2021 6:30:00 PM 12.42 54.356 0.089 7.08 32.55 10.1
10/27/2021 6:45:00 PM 12.36 54.248 0.089 7.09 30.49 10.1
10/27/2021 7:00:00 PM 12.3 54.14 0.09 7.08 30.27 10.1
10/27/2021 7:15:00 PM 12.24 54.032 0.09 7.09 29.51 10.1
10/27/2021 7:30:00 PM 12.17 53.906 0.09 7.08 28 10.12
10/27/2021 7:45:00 PM 12.11 53.798 0.086 7.07 26.82 10.15
10/27/2021 8:00:00 PM 12.04 53.672 0.09 7.09 29.69 10.17
10/27/2021 8:15:00 PM 11.98 53.564 0.09 7.09 28.69 10.18
10/27/2021 8:30:00 PM 11.92 53.456 0.09 7.09 29.49 10.17
10/27/2021 8:45:00 PM 11.85 53.33 0.086 7.08 26.73 10.18
10/27/2021 9:00:00 PM 11.8 53.24 0.091 7.09 28.08 10.2
10/27/2021 9:15:00 PM 11.74 53.132 0.086 7.09 28.21 10.23
10/27/2021 9:30:00 PM 11.68 53.024 0.091 7.1 26.3 10.25
10/27/2021 9:45:00 PM 11.63 52.934 0.091 7.1 27.2 10.27
10/27/2021 10:00:00 PM 11.57 52.826 0.091 7.1 25.55 10.27
10/27/2021 10:15:00 PM 11.52 52.736 0.091 7.1 25.09 10.27
10/27/2021 10:30:00 PM 11.46 52.628 0.091 7.1 27.24 10.27
10/27/2021 10:45:00 PM 11.41 52.538 0.092 7.11 30.45 10.28
10/27/2021 11:00:00 PM 11.35 52.43 0.089 7.1 24.83 10.31
10/27/2021 11:15:00 PM 11.29 52.322 0.092 7.11 23.04 10.33
10/27/2021 11:30:00 PM 11.24 52.232 0.087 7.1 25.33 10.35
10/27/2021 11:45:00 PM 11.19 52.142 0.089 7.1 24.48 10.36
10/28/2021 12:00:00 AM 11.13 52.034 0.092 7.11 24.68 10.37
10/28/2021 12:15:00 AM 11.08 51.944 0.092 7.11 25.05 10.37
10/28/2021 12:30:00 AM 11.02 51.836 0.093 7.11 21.28 10.38
10/28/2021 12:45:00 AM 10.97 51.746 0.093 7.1 22.73 10.39
10/28/2021 1:00:00 AM 10.92 51.656 0.09 7.1 23.42 10.42
10/28/2021 1:15:00 AM 10.86 51.548 0.093 7.11 21.58 10.44
10/28/2021 1:30:00 AM 10.81 51.458 0.09 7.1 21.69 10.46
10/28/2021 1:45:00 AM 10.75 51.35 0.093 7.11 22.43 10.47
10/28/2021 2:00:00 AM 10.7 51.26 0.094 7.11 21.44 10.47
10/28/2021 2:15:00 AM 10.65 51.17 0.089 7.1 22.12 10.47
10/28/2021 2:30:00 AM 10.6 51.08 0.094 7.12 20.05 10.47
10/28/2021 2:45:00 AM 10.54 50.972 0.094 7.11 19.96 10.49
10/28/2021 3:00:00 AM 10.49 50.882 0.091 7.11 20.56 10.53
10/28/2021 3:15:00 AM 10.44 50.792 0.094 7.11 20.67 10.54
10/28/2021 3:30:00 AM 10.38 50.684 0.095 7.11 20.58 10.56
10/28/2021 3:45:00 AM 10.33 50.594 0.09 7.1 19.28 10.58
10/28/2021 4:00:00 AM 10.28 50.504 0.095 7.11 18.82 10.58
10/28/2021 4:15:00 AM 10.22 50.396 0.09 7.1 19.64 10.59
10/28/2021 4:30:00 AM 10.17 50.306 0.09 7.1 18.85 10.6
10/28/2021 4:45:00 AM 10.13 50.234 0.095 7.12 19.59 10.6
10/28/2021 5:00:00 AM 10.07 50.126 0.095 7.11 18.89 10.61
10/28/2021 5:15:00 AM 10.02 50.036 0.095 7.12 17.34 10.63
10/28/2021 5:30:00 AM 9.97 49.946 0.096 7.12 17.41 10.65
10/28/2021 5:45:00 AM 9.92 49.856 0.091 7.1 16.5 10.67
10/28/2021 6:00:00 AM 9.87 49.766 0.091 7.1 17.08 10.69
10/28/2021 6:15:00 AM 9.82 49.676 0.092 7.1 15.41 10.7
10/28/2021 6:30:00 AM 9.78 49.604 0.096 7.11 17.28 10.71
10/28/2021 6:45:00 AM 9.75 49.55 0.091 7.11 16.99 10.72
10/28/2021 7:00:00 AM 9.72 49.496 0.096 7.13 16.09 10.73
10/28/2021 7:15:00 AM 9.69 49.442 0.097 7.12 17.08 10.73
10/28/2021 7:30:00 AM 9.66 49.388 0.096 7.12 15.92 10.74
10/28/2021 7:45:00 AM 9.65 49.37 0.092 7.1 17.21 10.75
10/28/2021 8:00:00 AM 9.64 49.352 0.097 7.13 15.54 10.75
10/28/2021 8:15:00 AM 9.64 49.352 0.092 7.11 15.47 10.77
10/28/2021 8:30:00 AM 9.64 49.352 0.097 7.12 15.32 10.78
10/28/2021 8:45:00 AM 9.63 49.334 0.097 7.13 15.18 10.79
10/28/2021 9:00:00 AM 9.63 49.334 0.097 7.13 15.22 10.8
10/28/2021 9:15:00 AM 9.64 49.352 0.097 7.13 14.47 10.81
10/28/2021 9:30:00 AM 9.64 49.352 0.097 7.13 13.92 10.82
10/28/2021 9:45:00 AM 9.65 49.37 0.097 7.14 14.3 10.83
10/28/2021 10:00:00 AM 9.68 49.424 0.097 7.14 13.43 10.84
10/28/2021 10:15:00 AM 9.7 49.46 0.098 7.13 13.8 10.84
10/28/2021 10:30:00 AM 9.74 49.532 0.098 7.15 14.06 10.85
10/28/2021 10:45:00 AM 9.78 49.604 0.094 7.12 14.62 10.86
10/28/2021 11:00:00 AM 9.84 49.712 0.098 7.15 13.73 10.86
10/28/2021 11:15:00 AM 9.92 49.856 0.093 7.13 14.2 10.87
10/28/2021 11:30:00 AM 10.03 50.054 0.098 7.15 12.91 10.86
10/28/2021 11:45:00 AM 10.14 50.252 0.098 7.15 13.2 10.83
10/28/2021 12:00:00 PM 10.25 50.45 0.098 7.15 13.03 10.81
10/28/2021 12:15:00 PM 10.36 50.648 0.098 7.15 13.17 10.83
10/28/2021 12:30:00 PM 10.47 50.846 0.098 7.16 13.5 10.82
10/28/2021 12:45:00 PM 10.57 51.026 0.093 7.13 13.61 10.77
10/28/2021 1:00:00 PM 10.66 51.188 0.096 7.14 13.04 10.73
10/28/2021 1:15:00 PM 10.76 51.368 0.099 7.16 11.86 10.73
10/28/2021 1:30:00 PM 10.85 51.53 0.099 7.16 12.66 10.73
10/28/2021 1:45:00 PM 10.93 51.674 0.099 7.17 11.66 10.69
10/28/2021 2:00:00 PM 11.01 51.818 0.099 7.16 12.09 10.65
10/28/2021 2:15:00 PM 11.08 51.944 0.099 7.17 12.05 10.62
10/28/2021 2:30:00 PM 11.16 52.088 0.099 7.16 12.03 10.61
10/28/2021 2:45:00 PM 11.23 52.214 0.1 7.16 11.73 10.59
10/28/2021 3:00:00 PM 11.3 52.34 0.1 7.16 11.92 10.56
10/28/2021 3:15:00 PM 11.36 52.448 0.1 7.17 11.95 10.52
10/28/2021 3:30:00 PM 11.42 52.556 0.1 7.17 11.79 10.49
10/28/2021 3:45:00 PM 11.46 52.628 0.1 7.17 11.85 10.46
10/28/2021 4:00:00 PM 11.5 52.7 0.1 7.17 11.9 10.45
10/28/2021 4:15:00 PM 11.54 52.772 0.1 7.18 11.44 10.43
10/28/2021 4:30:00 PM 11.57 52.826 0.1 7.17 11.45 10.42
10/28/2021 4:45:00 PM 11.61 52.898 0.101 7.17 11.82 10.41
10/28/2021 5:00:00 PM 11.64 52.952 0.1 7.15 12.88 10.4
10/28/2021 5:15:00 PM 11.66 52.988 0.058 7.15 12.24 10.38
10/28/2021 5:30:00 PM 11.68 53.024 0.101 7.17 11.29 10.35
10/28/2021 5:45:00 PM 11.69 53.042 0.101 7.17 11.63 10.33
10/28/2021 6:00:00 PM 11.69 53.042 0.101 7.18 12.04 10.32
10/28/2021 6:15:00 PM 11.69 53.042 0.101 7.16 11.52 10.3
10/28/2021 6:30:00 PM 11.69 53.042 0.101 7.16 11.28 10.29
10/28/2021 6:45:00 PM 11.68 53.024 0.102 7.16 12.04 10.28
10/28/2021 7:00:00 PM 11.67 53.006 0.101 7.17 12.31 10.28
10/28/2021 7:15:00 PM 11.64 52.952 0.102 7.16 12.23 10.28
10/28/2021 7:30:00 PM 11.62 52.916 0.102 7.17 12.89 10.28
10/28/2021 7:45:00 PM 11.59 52.862 0.102 7.16 12.47 10.28
10/28/2021 8:00:00 PM 11.56 52.808 0.102 7.15 12.59 10.29
10/28/2021 8:15:00 PM 11.52 52.736 0.1 7.12 12.01 10.29
10/28/2021 8:30:00 PM 11.48 52.664 0.102 7.12 12.59 10.29
10/28/2021 8:45:00 PM 11.44 52.592 0.103 7.15 11.56 10.28
10/28/2021 9:00:00 PM 11.39 52.502 0.103 7.15 11.78 10.28
10/28/2021 9:15:00 PM 11.33 52.394 0.103 7.16 11.29 10.29
10/28/2021 9:30:00 PM 11.28 52.304 0.103 7.15 11.85 10.31
10/28/2021 9:45:00 PM 11.22 52.196 0.103 7.16 11.03 10.34
10/28/2021 10:00:00 PM 11.15 52.07 0.103 7.15 11.54 10.37
10/28/2021 10:15:00 PM 11.1 51.98 0.103 7.16 11.42 10.38
10/28/2021 10:30:00 PM 11.04 51.872 0.103 7.16 11.89 10.38
10/28/2021 10:45:00 PM 10.98 51.764 0.103 7.16 11.66 10.38
10/28/2021 11:00:00 PM 10.93 51.674 0.103 7.17 11.09 10.38
10/28/2021 11:15:00 PM 10.87 51.566 0.103 7.15 11.52 10.4
10/28/2021 11:30:00 PM 10.82 51.476 0.103 7.14 11.36 10.43
10/28/2021 11:45:00 PM 10.78 51.404 0.104 7.15 10.97 10.45
10/29/2021 12:00:00 AM 10.75 51.35 0.098 7.12 11.64 10.47
10/29/2021 12:15:00 AM 10.72 51.296 0.104 7.14 11.05 10.47
10/29/2021 12:30:00 AM 10.7 51.26 0.104 7.16 10.68 10.48
10/29/2021 12:45:00 AM 10.69 51.242 0.104 7.16 10.93 10.49
10/29/2021 1:00:00 AM 10.68 51.224 0.104 7.13 10.54 10.49
10/29/2021 1:15:00 AM 10.67 51.206 0.104 7.15 10.43 10.5
10/29/2021 1:30:00 AM 10.67 51.206 0.104 7.14 10.79 10.5
10/29/2021 1:45:00 AM 10.66 51.188 0.104 7.15 10.64 10.51
10/29/2021 2:00:00 AM 10.66 51.188 0.104 7.16 10.38 10.51
10/29/2021 2:15:00 AM 10.66 51.188 0.104 7.16 10.45 10.51
10/29/2021 2:30:00 AM 10.66 51.188 0.104 7.16 10.33 10.51
10/29/2021 2:45:00 AM 10.66 51.188 0.105 7.16 10.6 10.51
10/29/2021 3:00:00 AM 10.67 51.206 0.104 7.17 10.5 10.51
10/29/2021 3:15:00 AM 10.67 51.206 0.105 7.17 10.57 10.51
10/29/2021 3:30:00 AM 10.67 51.206 0.105 7.17 10.35 10.51
10/29/2021 3:45:00 AM 10.67 51.206 0.105 7.17 10.2 10.51
10/29/2021 4:00:00 AM 10.67 51.206 0.105 7.16 9.93 10.51
10/29/2021 4:15:00 AM 10.67 51.206 0.105 7.17 9.84 10.51
10/29/2021 4:30:00 AM 10.67 51.206 0.105 7.13 11.13 10.51
10/29/2021 4:45:00 AM 10.67 51.206 0.105 7.17 9.92 10.51
10/29/2021 5:00:00 AM 10.67 51.206 0.105 7.18 10.13 10.51
10/29/2021 5:15:00 AM 10.66 51.188 0.106 7.17 9.91 10.51
10/29/2021 5:30:00 AM 10.65 51.17 0.106 7.18 9.77 10.51
10/29/2021 5:45:00 AM 10.64 51.152 0.106 7.18 10.2 10.51
10/29/2021 6:00:00 AM 10.64 51.152 0.106 7.18 9.83 10.51
10/29/2021 6:15:00 AM 10.64 51.152 0.106 7.19 10.39 10.5
10/29/2021 6:30:00 AM 10.64 51.152 0.106 7.19 10.18 10.5
10/29/2021 6:45:00 AM 10.65 51.17 0.106 7.18 9.74 10.5
10/29/2021 7:00:00 AM 10.65 51.17 0.106 7.17 9.9 10.51
10/29/2021 7:15:00 AM 10.65 51.17 0.106 7.19 10.29 10.5
10/29/2021 7:30:00 AM 10.65 51.17 0.106 7.19 9.72 10.51
10/29/2021 7:45:00 AM 10.64 51.152 0.106 7.18 10.21 10.5
10/29/2021 8:00:00 AM 10.64 51.152 0.061 7.15 10.6 10.51
10/29/2021 8:15:00 AM 10.65 51.17 0.106 7.2 9.67 10.51
10/29/2021 8:30:00 AM 10.64 51.152 0.107 7.19 9.62 10.51
10/29/2021 8:45:00 AM 10.65 51.17 0.107 7.19 9.7 10.52
10/29/2021 9:00:00 AM 10.65 51.17 0.107 7.19 9.63 10.53
10/29/2021 9:15:00 AM 10.66 51.188 0.107 7.19 9.32 10.54
10/29/2021 9:30:00 AM 10.67 51.206 0.107 7.19 9.76 10.54
10/29/2021 9:45:00 AM 10.69 51.242 0.107 7.2 9.75 10.56
10/29/2021 10:00:00 AM 10.73 51.314 0.107 7.2 9.59 10.57
10/29/2021 10:15:00 AM 10.79 51.422 0.107 7.21 9.79 10.58
10/29/2021 10:30:00 AM 10.83 51.494 0.107 7.21 9.53 10.57
10/29/2021 10:45:00 AM 10.84 51.512 0.107 7.21 9.96 10.57
10/29/2021 11:00:00 AM 10.9 51.62 0.107 7.22 9.61 10.56
10/29/2021 11:15:00 AM 10.96 51.728 0.107 7.23 9.99 10.58
10/29/2021 11:30:00 AM 11.01 51.818 0.107 7.19 10.3 10.59
10/29/2021 11:45:00 AM 11.07 51.926 0.107 7.23 10 10.6
10/29/2021 12:00:00 PM 11.11 51.998 0.108 7.23 9.58 10.6
10/29/2021 12:15:00 PM 11.18 52.124 0.108 7.21 11.46 10.59
10/29/2021 12:30:00 PM 11.24 52.232 0.108 7.24 9.71 10.56
10/29/2021 12:45:00 PM 11.29 52.322 0.108 7.24 9.47 10.54
10/29/2021 1:00:00 PM 11.34 52.412 0.108 7.21 10.33 10.53
10/29/2021 1:15:00 PM 11.34 52.412 0.108 7.24 9.59 10.51
10/29/2021 1:30:00 PM 11.41 52.538 0.108 7.24 9.3 10.53
10/29/2021 1:45:00 PM 11.41 52.538 0.108 7.25 9.63 10.52
10/29/2021 2:00:00 PM 11.44 52.592 0.108 7.22 10.3 10.51
10/29/2021 2:15:00 PM 11.44 52.592 0.108 7.22 10.71 10.5
10/29/2021 2:30:00 PM 11.44 52.592 0.108 7.25 9.52 10.48
10/29/2021 2:45:00 PM 11.43 52.574 0.108 7.22 10.51 10.45
10/29/2021 3:00:00 PM 11.43 52.574 0.109 7.25 8.9 10.44
10/29/2021 3:15:00 PM 11.44 52.592 0.109 7.25 8.98 10.44
10/29/2021 3:30:00 PM 11.45 52.61 0.109 7.24 9.02 10.43
10/29/2021 3:45:00 PM 11.44 52.592 0.108 7.22 9.68 10.42
10/29/2021 4:00:00 PM 11.44 52.592 0.109 7.25 8.98 10.41
10/29/2021 4:15:00 PM 11.42 52.556 0.109 7.24 8.86 10.4
10/29/2021 4:30:00 PM 11.41 52.538 0.104 7.22 9.93 10.38
10/29/2021 4:45:00 PM 11.39 52.502 0.108 7.21 9.72 10.38
10/29/2021 5:00:00 PM 11.39 52.502 0.109 7.25 8.67 10.37
10/29/2021 5:15:00 PM 11.39 52.502 0.109 7.24 8.83 10.36
10/29/2021 5:30:00 PM 11.38 52.484 0.109 7.24 8.47 10.34
10/29/2021 5:45:00 PM 11.37 52.466 0.109 7.21 9.64 10.33
10/29/2021 6:00:00 PM 11.35 52.43 0.109 7.24 8.89 10.33
10/29/2021 6:15:00 PM 11.32 52.376 0.108 7.24 8.63 10.31
10/29/2021 6:30:00 PM 11.29 52.322 0.108 7.23 9.28 10.31
10/29/2021 6:45:00 PM 11.28 52.304 0.107 7.24 9.99 10.3
10/29/2021 7:00:00 PM 11.27 52.286 0.107 7.21 10.91 10.3
10/29/2021 7:15:00 PM 11.26 52.268 0.102 7.21 11.44 10.29
10/29/2021 7:30:00 PM 11.25 52.25 0.107 7.24 11.08 10.28
10/29/2021 7:45:00 PM 11.22 52.196 0.105 7.21 12.39 10.29
10/29/2021 8:00:00 PM 11.17 52.106 0.105 7.21 13.71 10.33
10/29/2021 8:15:00 PM 11.13 52.034 0.104 7.26 14.9 10.35
10/29/2021 8:30:00 PM 11.09 51.962 0.098 7.23 18.25 10.38
10/29/2021 8:45:00 PM 11.04 51.872 0.101 7.24 25.28 10.38
10/29/2021 9:00:00 PM 10.97 51.746 0.098 7.24 36.44 10.37
10/29/2021 9:15:00 PM 10.9 51.62 0.095 7.23 61.09 10.39
10/29/2021 9:30:00 PM 10.75 51.35 0.09 7.2 129.17 10.47
10/29/2021 9:45:00 PM 10.6 51.08 0.086 7.17 227.87 10.5
10/29/2021 10:00:00 PM 10.45 50.81 0.079 7.17 397.82 10.62
10/29/2021 10:15:00 PM 10.31 50.558 0.074 7.14 512.79 10.63
10/29/2021 10:30:00 PM 10.2 50.36 0.069 7.11 607.54 10.68
10/29/2021 10:45:00 PM 10.12 50.216 0.063 7.06 710.59 10.68
10/29/2021 11:00:00 PM 10.05 50.09 0.059 7.01 857.98 10.67
10/29/2021 11:15:00 PM 10.01 50.018 0.055 6.71 852.95 10.67
10/29/2021 11:30:00 PM 9.98 49.964 0.056 6.68 975.26 10.66
10/29/2021 11:45:00 PM 9.96 49.928 0.052 6.6 1126.91 10.65
10/30/2021 12:00:00 AM 9.94 49.892 0.054 6.59 1117.83 10.63
10/30/2021 12:15:00 AM 9.94 49.892 0.054 6.54 1141.31 10.62
10/30/2021 12:30:00 AM 9.94 49.892 0.053 6.57 1040 10.62
10/30/2021 12:45:00 AM 9.95 49.91 0.053 6.61 986.07 10.62
10/30/2021 1:00:00 AM 9.96 49.928 0.053 6.66 916.33 10.62
10/30/2021 1:15:00 AM 9.98 49.964 0.054 6.75 887.65 10.6
10/30/2021 1:30:00 AM 10 50 0.054 6.92 691.63 10.61
10/30/2021 1:45:00 AM 10.02 50.036 0.055 6.95 644.27 10.61
10/30/2021 2:00:00 AM 10.04 50.072 0.055 6.96 574.31 10.58
10/30/2021 2:15:00 AM 10.06 50.108 0.055 6.95 541.3 10.58
10/30/2021 2:30:00 AM 10.08 50.144 0.053 6.98 450.09 10.59
10/30/2021 2:45:00 AM 10.09 50.162 0.055 6.98 433.69 10.59
10/30/2021 3:00:00 AM 10.1 50.18 0.055 6.95 449.3 10.57
10/30/2021 3:15:00 AM 10.11 50.198 0.055 6.95 401.52 10.56
10/30/2021 3:30:00 AM 10.12 50.216 0.056 6.95 377.03 10.55
10/30/2021 3:45:00 AM 10.12 50.216 0.056 6.95 354.18 10.54
10/30/2021 4:00:00 AM 10.13 50.234 0.056 6.94 337.14 10.53
10/30/2021 4:15:00 AM 10.14 50.252 0.056 6.95 331.01 10.53
10/30/2021 4:30:00 AM 10.15 50.27 0.056 6.94 304.55 10.53
10/30/2021 4:45:00 AM 10.17 50.306 0.054 6.93 282.17 10.53
10/30/2021 5:00:00 AM 10.18 50.324 0.057 6.94 276.96 10.53
10/30/2021 5:15:00 AM 10.2 50.36 0.055 6.94 265.1 10.54
10/30/2021 5:30:00 AM 10.21 50.378 0.055 6.94 230.28 10.54
10/30/2021 5:45:00 AM 10.22 50.396 0.059 6.95 228.75 10.53
10/30/2021 6:00:00 AM 10.24 50.432 0.06 6.95 219.23 10.53
10/30/2021 6:15:00 AM 10.25 50.45 0.06 6.96 215.08 10.53
10/30/2021 6:30:00 AM 10.27 50.486 0.061 6.97 194.93 10.52
10/30/2021 6:45:00 AM 10.28 50.504 0.061 6.97 191.22 10.51
10/30/2021 7:00:00 AM 10.29 50.522 0.062 6.97 172.62 10.51
10/30/2021 7:15:00 AM 10.31 50.558 0.063 6.97 171.45 10.5
10/30/2021 7:30:00 AM 10.32 50.576 0.06 6.98 149.64 10.5
10/30/2021 7:45:00 AM 10.33 50.594 0.064 6.98 155.61 10.49
10/30/2021 8:00:00 AM 10.35 50.63 0.065 6.98 150.15 10.49
10/30/2021 8:15:00 AM 10.36 50.648 0.065 6.99 140.85 10.48
10/30/2021 8:30:00 AM 10.37 50.666 0.066 6.99 126.5 10.48
10/30/2021 8:45:00 AM 10.39 50.702 0.066 7 122.05 10.48
10/30/2021 9:00:00 AM 10.4 50.72 0.066 7 122.97 10.48
10/30/2021 9:15:00 AM 10.42 50.756 0.066 7.01 117.04 10.49
10/30/2021 9:30:00 AM 10.43 50.774 0.067 7.02 108.85 10.49
10/30/2021 9:45:00 AM 10.46 50.828 0.067 7.03 112.92 10.5
10/30/2021 10:00:00 AM 10.48 50.864 0.067 7.03 112.24 10.51
10/30/2021 10:15:00 AM 10.51 50.918 0.067 7.01 108.02 10.51
10/30/2021 10:30:00 AM 10.54 50.972 0.068 7.03 105.47 10.5
10/30/2021 10:45:00 AM 10.58 51.044 0.068 7.03 101.71 10.49
10/30/2021 11:00:00 AM 10.61 51.098 0.068 7.04 89.7 10.48
10/30/2021 11:15:00 AM 10.65 51.17 0.065 7.03 89.34 10.46
10/30/2021 11:30:00 AM 10.69 51.242 0.069 7.04 96.28 10.45
10/30/2021 11:45:00 AM 10.73 51.314 0.069 7.04 88.31 10.44
10/30/2021 12:00:00 PM 10.76 51.368 0.069 7.04 88.97 10.43
10/30/2021 12:15:00 PM 10.8 51.44 0.066 7.04 62.24 10.44
10/30/2021 12:30:00 PM 10.84 51.512 0.066 7.05 76.69 10.44
10/30/2021 12:45:00 PM 10.88 51.584 0.07 7.06 80.59 10.44
10/30/2021 1:00:00 PM 10.92 51.656 0.067 7.06 74.79 10.44
10/30/2021 1:15:00 PM 10.96 51.728 0.07 7.06 77.53 10.42
10/30/2021 1:30:00 PM 11.01 51.818 0.07 7.06 75.07 10.39
10/30/2021 1:45:00 PM 11.05 51.89 0.071 7.07 74.63 10.38
10/30/2021 2:00:00 PM 11.1 51.98 0.071 7.06 73.77 10.36
10/30/2021 2:15:00 PM 11.15 52.07 0.071 7.07 70.91 10.36
10/30/2021 2:30:00 PM 11.19 52.142 0.071 7.07 68.67 10.36
10/30/2021 2:45:00 PM 11.22 52.196 0.071 7.07 70.87 10.36
10/30/2021 3:00:00 PM 11.24 52.232 0.072 7.06 68.19 10.35
10/30/2021 3:15:00 PM 11.26 52.268 0.072 7.06 69.78 10.34
10/30/2021 3:30:00 PM 11.27 52.286 0.072 7.06 68.23 10.33
10/30/2021 3:45:00 PM 11.28 52.304 0.072 7.07 68.08 10.32
10/30/2021 4:00:00 PM 11.29 52.322 0.069 7.06 64.54 10.31
10/30/2021 4:15:00 PM 11.31 52.358 0.073 7.06 70.4 10.3
10/30/2021 4:30:00 PM 11.32 52.376 0.073 7.06 67.05 10.29
10/30/2021 4:45:00 PM 11.33 52.394 0.073 7.06 65.82 10.28
10/30/2021 5:00:00 PM 11.35 52.43 0.073 7.07 64.11 10.27
10/30/2021 5:15:00 PM 11.36 52.448 0.073 7.06 66.02 10.27
10/30/2021 5:30:00 PM 11.37 52.466 0.073 7.07 62.57 10.27
10/30/2021 5:45:00 PM 11.38 52.484 0.069 7.05 69.77 10.27
10/30/2021 6:00:00 PM 11.39 52.502 0.073 7.07 79.16 10.26
10/30/2021 6:15:00 PM 11.4 52.52 0.073 7.07 68.11 10.25
10/30/2021 6:30:00 PM 11.41 52.538 0.071 7.07 65.35 10.25
10/30/2021 6:45:00 PM 11.41 52.538 0.073 7.07 69.36 10.23
10/30/2021 7:00:00 PM 11.42 52.556 0.073 7.06 76.84 10.25
10/30/2021 7:15:00 PM 11.42 52.556 0.073 7.07 85.74 10.25
10/30/2021 7:30:00 PM 11.41 52.538 0.069 7.06 93.31 10.26
10/30/2021 7:45:00 PM 11.4 52.52 0.072 7.07 100.12 10.26
10/30/2021 8:00:00 PM 11.4 52.52 0.072 7.06 112.98 10.26
10/30/2021 8:15:00 PM 11.39 52.502 0.072 7.06 105.5 10.27
10/30/2021 8:30:00 PM 11.38 52.484 0.072 7.06 156.05 10.27
10/30/2021 8:45:00 PM 11.37 52.466 0.071 7.06 103.93 10.28
10/30/2021 9:00:00 PM 11.36 52.448 0.07 7.04 91.99 10.28
10/30/2021 9:15:00 PM 11.35 52.43 0.07 7.04 99.22 10.28
10/30/2021 9:30:00 PM 11.34 52.412 0.07 7.04 100.56 10.28
10/30/2021 9:45:00 PM 11.34 52.412 0.07 7.03 98.6 10.28
10/30/2021 10:00:00 PM 11.33 52.394 0.07 7.02 92.55 10.28
10/30/2021 10:15:00 PM 11.32 52.376 0.07 7.03 87.28 10.28
10/30/2021 10:30:00 PM 11.32 52.376 0.066 7.02 81.72 10.29
10/30/2021 10:45:00 PM 11.32 52.376 0.069 7.03 78.97 10.29
10/30/2021 11:00:00 PM 11.31 52.358 0.07 7.01 66.31 10.29
10/30/2021 11:15:00 PM 11.31 52.358 0.07 7.01 71.64 10.29
10/30/2021 11:30:00 PM 11.3 52.34 0.07 7.01 64.07 10.28
10/30/2021 11:45:00 PM 11.3 52.34 0.067 7 61.89 10.28
10/31/2021 12:00:00 AM 11.3 52.34 0.071 6.99 62.91 10.27
10/31/2021 12:15:00 AM 11.29 52.322 0.068 7 57.61 10.28
10/31/2021 12:30:00 AM 11.29 52.322 0.069 7 58.45 10.27
10/31/2021 12:45:00 AM 11.29 52.322 0.069 7 64.51 10.27
10/31/2021 1:00:00 AM 11.29 52.322 0.072 7.01 57.5 10.26
10/31/2021 1:15:00 AM 11.29 52.322 0.069 7 66.44 10.26
10/31/2021 1:30:00 AM 11.29 52.322 0.069 7 71.69 10.26
10/31/2021 1:45:00 AM 11.28 52.304 0.07 7.01 52.13 10.26
10/31/2021 2:00:00 AM 11.28 52.304 0.07 7.01 52.37 10.25
10/31/2021 2:15:00 AM 11.28 52.304 0.07 7.01 52.15 10.25
10/31/2021 2:30:00 AM 11.28 52.304 0.07 7.01 70.89 10.25
10/31/2021 2:45:00 AM 11.27 52.286 0.071 7.01 50.02 10.25
10/31/2021 3:00:00 AM 11.27 52.286 0.074 7.01 45.79 10.25
10/31/2021 3:15:00 AM 11.26 52.268 0.074 7.02 53.3 10.25
10/31/2021 3:30:00 AM 11.26 52.268 0.071 7.02 53.81 10.25
10/31/2021 3:45:00 AM 11.25 52.25 0.075 7.02 45.83 10.25
10/31/2021 4:00:00 AM 11.25 52.25 0.075 7.02 47.43 10.25
10/31/2021 4:15:00 AM 11.24 52.232 0.075 7.02 44.83 10.25
10/31/2021 4:30:00 AM 11.23 52.214 0.076 7.03 47.04 10.26
10/31/2021 4:45:00 AM 11.22 52.196 0.072 7.03 46.11 10.26
10/31/2021 5:00:00 AM 11.21 52.178 0.076 7.03 41.64 10.26
10/31/2021 5:15:00 AM 11.2 52.16 0.076 7.03 43.75 10.26
10/31/2021 5:30:00 AM 11.19 52.142 0.076 7.03 59.66 10.26
10/31/2021 5:45:00 AM 11.18 52.124 0.077 7.03 43.2 10.28
10/31/2021 6:00:00 AM 11.17 52.106 0.077 7.03 41.98 10.28
10/31/2021 6:15:00 AM 11.16 52.088 0.077 7.03 40.28 10.29
10/31/2021 6:30:00 AM 11.14 52.052 0.077 7.03 40.6 10.29
10/31/2021 6:45:00 AM 11.13 52.034 0.077 7.03 42.51 10.3
10/31/2021 7:00:00 AM 11.12 52.016 0.078 7.03 40.9 10.3
10/31/2021 7:15:00 AM 11.12 52.016 0.074 7.03 38.91 10.31
10/31/2021 7:30:00 AM 11.11 51.998 0.078 7.03 37.35 10.31
10/31/2021 7:45:00 AM 11.1 51.98 0.078 7.03 36.68 10.31
10/31/2021 8:00:00 AM 11.1 51.98 0.078 7.03 37.66 10.32
10/31/2021 8:15:00 AM 11.09 51.962 0.075 7.03 35.82 10.32
10/31/2021 8:30:00 AM 11.08 51.944 0.079 7.04 36.21 10.33
10/31/2021 8:45:00 AM 11.08 51.944 0.075 7.05 38.91 10.33
10/31/2021 9:00:00 AM 11.08 51.944 0.079 7.04 35.72 10.34
10/31/2021 9:15:00 AM 11.08 51.944 0.079 7.04 34.18 10.33
10/31/2021 9:30:00 AM 11.09 51.962 0.079 7.05 34.47 10.33
10/31/2021 9:45:00 AM 11.09 51.962 0.079 7.05 33.56 10.33
10/31/2021 10:00:00 AM 11.1 51.98 0.079 7.04 33.5 10.33
10/31/2021 10:15:00 AM 11.11 51.998 0.079 7.04 33.99 10.33
10/31/2021 10:30:00 AM 11.12 52.016 0.08 7.05 32.24 10.33
10/31/2021 10:45:00 AM 11.14 52.052 0.08 7.04 31.97 10.33
10/31/2021 11:00:00 AM 11.17 52.106 0.08 7.04 30.24 10.32
10/31/2021 11:15:00 AM 11.19 52.142 0.08 7.05 30.19 10.31
10/31/2021 11:30:00 AM 11.23 52.214 0.08 7.05 28.91 10.32
10/31/2021 11:45:00 AM 11.25 52.25 0.08 7.05 30.36 10.31
10/31/2021 12:00:00 PM 11.28 52.304 0.08 7.06 31.19 10.32
10/31/2021 12:15:00 PM 11.33 52.394 0.08 7.06 31.5 10.33
10/31/2021 12:30:00 PM 11.38 52.484 0.08 7.06 32.51 10.33
10/31/2021 12:45:00 PM 11.4 52.52 0.08 7.06 32.88 10.33
10/31/2021 1:00:00 PM 11.44 52.592 0.08 7.06 31.23 10.32
10/31/2021 1:15:00 PM 11.47 52.646 0.08 7.08 30.63 10.31
10/31/2021 1:30:00 PM 11.5 52.7 0.08 7.07 31.88 10.3
10/31/2021 1:45:00 PM 11.53 52.754 0.078 7.08 29.75 10.28
10/31/2021 2:00:00 PM 11.56 52.808 0.078 7.08 30.22 10.28
10/31/2021 2:15:00 PM 11.63 52.934 0.078 7.09 31.02 10.27
10/31/2021 2:30:00 PM 11.71 53.078 0.077 7.09 30.74 10.29
10/31/2021 2:45:00 PM 11.8 53.24 0.08 7.09 32.11 10.27
10/31/2021 3:00:00 PM 11.87 53.366 0.076 7.09 33.54 10.24
10/31/2021 3:15:00 PM 11.92 53.456 0.08 7.1 32.4 10.21
10/31/2021 3:30:00 PM 11.98 53.564 0.08 7.1 31.77 10.2
10/31/2021 3:45:00 PM 12.03 53.654 0.077 7.1 30.21 10.2
10/31/2021 4:00:00 PM 12.05 53.69 0.077 7.1 32.61 10.2
10/31/2021 4:15:00 PM 12.05 53.69 0.081 7.11 30.74 10.19
10/31/2021 4:30:00 PM 12.04 53.672 0.077 7.1 30.58 10.18
10/31/2021 4:45:00 PM 12.03 53.654 0.081 7.1 31.23 10.18
10/31/2021 5:00:00 PM 12.02 53.636 0.077 7.1 32.5 10.16
10/31/2021 5:15:00 PM 12.01 53.618 0.078 7.1 32.43 10.17
10/31/2021 5:30:00 PM 11.99 53.582 0.081 7.1 30.41 10.16
10/31/2021 5:45:00 PM 11.97 53.546 0.081 7.09 30.09 10.16
10/31/2021 6:00:00 PM 11.95 53.51 0.078 7.09 30.51 10.15
10/31/2021 6:15:00 PM 11.93 53.474 0.079 7.1 30.14 10.15
10/31/2021 6:30:00 PM 11.91 53.438 0.077 7.09 30.67 10.15
10/31/2021 6:45:00 PM 11.89 53.402 0.079 7.1 30.4 10.16
10/31/2021 7:00:00 PM 11.86 53.348 0.081 7.1 30.45 10.17
10/31/2021 7:15:00 PM 11.83 53.294 0.078 7.09 29.34 10.18
10/31/2021 7:30:00 PM 11.79 53.222 0.082 7.1 29.5 10.19
10/31/2021 7:45:00 PM 11.77 53.186 0.08 7.1 29.54 10.21
10/31/2021 8:00:00 PM 11.74 53.132 0.079 7.1 29.72 10.22
10/31/2021 8:15:00 PM 11.72 53.096 0.082 7.1 28.39 10.22
10/31/2021 8:30:00 PM 11.69 53.042 0.079 7.09 28.29 10.24
10/31/2021 8:45:00 PM 11.67 53.006 0.083 7.09 27.57 10.23
10/31/2021 9:00:00 PM 11.66 52.988 0.083 7.09 30.38 10.24
10/31/2021 9:15:00 PM 11.64 52.952 0.079 7.09 28.29 10.25
10/31/2021 9:30:00 PM 11.61 52.898 0.083 7.09 29.27 10.24
10/31/2021 9:45:00 PM 11.57 52.826 0.083 7.09 28.34 10.25
10/31/2021 10:00:00 PM 11.55 52.79 0.079 7.09 30.21 10.24
10/31/2021 10:15:00 PM 11.53 52.754 0.082 7.1 26.29 10.25
10/31/2021 10:30:00 PM 11.51 52.718 0.084 7.11 27.19 10.25
10/31/2021 10:45:00 PM 11.48 52.664 0.084 7.1 30.09 10.26
10/31/2021 11:00:00 PM 11.46 52.628 0.084 7.1 26.95 10.27
10/31/2021 11:15:00 PM 11.44 52.592 0.084 7.1 24.82 10.27
10/31/2021 11:30:00 PM 11.42 52.556 0.084 7.1 24.87 10.28
10/31/2021 11:45:00 PM 11.4 52.52 0.08 7.1 24.08 10.29
11/1/2021 12:00:00 AM 11.39 52.502 0.082 7.1 38.06 10.31
11/1/2021 12:15:00 AM 11.37 52.466 0.083 7.1 17.18 10.31
11/1/2021 12:30:00 AM 11.35 52.43 0.083 7.11 20.93 10.32
11/1/2021 12:45:00 AM 11.33 52.394 0.085 7.1 22.78 10.32
11/1/2021 1:00:00 AM 11.31 52.358 0.085 7.1 23.34 10.34
11/1/2021 1:15:00 AM 11.29 52.322 0.085 7.1 23.79 10.34
11/1/2021 1:30:00 AM 11.28 52.304 0.085 7.1 26.26 10.34
11/1/2021 1:45:00 AM 11.27 52.286 0.085 7.11 21.92 10.35
11/1/2021 2:00:00 AM 11.26 52.268 0.08 7.12 41.39 10.35
11/1/2021 2:15:00 AM 11.25 52.25 0.081 7.1 22.8 10.36
11/1/2021 2:30:00 AM 11.23 52.214 0.086 7.1 22.53 10.36
11/1/2021 2:45:00 AM 11.22 52.196 0.086 7.11 23.48 10.36
11/1/2021 3:00:00 AM 11.2 52.16 0.086 7.11 23.41 10.37
11/1/2021 3:15:00 AM 11.19 52.142 0.082 7.11 33.39 10.37
11/1/2021 3:30:00 AM 11.18 52.124 0.086 7.11 27.18 10.37
11/1/2021 3:45:00 AM 11.17 52.106 0.082 7.11 29.08 10.38
11/1/2021 4:00:00 AM 11.16 52.088 0.082 7.1 26.59 10.38
11/1/2021 4:15:00 AM 11.14 52.052 0.087 7.11 27.32 10.39
11/1/2021 4:30:00 AM 11.13 52.034 0.087 7.11 26.26 10.38
11/1/2021 4:45:00 AM 11.11 51.998 0.083 7.11 29.35 10.39
11/1/2021 5:00:00 AM 11.1 51.98 0.085 7.12 31.27 10.39
11/1/2021 5:15:00 AM 11.08 51.944 0.085 7.12 25.97 10.4
11/1/2021 5:30:00 AM 11.05 51.89 0.087 7.13 25.33 10.4
11/1/2021 5:45:00 AM 11.02 51.836 0.087 7.12 22.49 10.42
11/1/2021 6:00:00 AM 10.99 51.782 0.087 7.11 22.85 10.43
11/1/2021 6:15:00 AM 10.94 51.692 0.087 7.12 21.99 10.46
11/1/2021 6:30:00 AM 10.9 51.62 0.087 7.12 22.53 10.48
11/1/2021 6:45:00 AM 10.86 51.548 0.088 7.12 21.65 10.49
11/1/2021 7:00:00 AM 10.82 51.476 0.083 7.12 23.2 10.5
11/1/2021 7:15:00 AM 10.79 51.422 0.088 7.12 20.7 10.5
11/1/2021 7:30:00 AM 10.75 51.35 0.088 7.12 22.92 10.5
11/1/2021 7:45:00 AM 10.71 51.278 0.088 7.13 22.87 10.5
11/1/2021 8:00:00 AM 10.69 51.242 0.088 7.12 20.88 10.51
11/1/2021 8:15:00 AM 10.67 51.206 0.088 7.12 20.93 10.52
11/1/2021 8:30:00 AM 10.65 51.17 0.088 7.13 20.83 10.54
11/1/2021 8:45:00 AM 10.63 51.134 0.088 7.13 21.01 10.55
11/1/2021 9:00:00 AM 10.63 51.134 0.089 7.13 20.67 10.56
11/1/2021 9:15:00 AM 10.62 51.116 0.089 7.13 19.55 10.58
11/1/2021 9:30:00 AM 10.62 51.116 0.089 7.13 20.84 10.58
11/1/2021 9:45:00 AM 10.63 51.134 0.089 7.13 19.98 10.59
11/1/2021 10:00:00 AM 10.65 51.17 0.089 7.13 20.02 10.6
11/1/2021 10:15:00 AM 10.68 51.224 0.089 7.14 20.13 10.61
11/1/2021 10:30:00 AM 10.67 51.206 0.09 7.14 19.71 10.61
11/1/2021 10:45:00 AM 10.68 51.224 0.089 7.13 19.92 10.62
11/1/2021 11:00:00 AM 10.73 51.314 0.09 7.14 18.07 10.62
11/1/2021 11:15:00 AM 10.73 51.314 0.085 7.14 26.65 10.64
11/1/2021 11:30:00 AM 10.75 51.35 0.09 7.15 19.01 10.64
11/1/2021 11:45:00 AM 10.77 51.386 0.09 7.15 20 10.65
11/1/2021 12:00:00 PM 10.79 51.422 0.09 7.16 20.13 10.65
11/1/2021 12:15:00 PM 10.85 51.53 0.09 7.16 17.14 10.66
11/1/2021 12:30:00 PM 10.89 51.602 0.086 7.15 21.06 10.67
11/1/2021 12:45:00 PM 10.86 51.548 0.091 7.16 17.07 10.67
11/1/2021 1:00:00 PM 10.93 51.674 0.091 7.16 17.61 10.67
11/1/2021 1:15:00 PM 11.04 51.872 0.086 7.16 18.16 10.64
11/1/2021 1:30:00 PM 11.13 52.034 0.088 7.17 14.79 10.62
11/1/2021 1:45:00 PM 11.15 52.07 0.087 7.17 16.67 10.62
11/1/2021 2:00:00 PM 11.14 52.052 0.091 7.18 15.37 10.6
11/1/2021 2:15:00 PM 11.11 51.998 0.092 7.18 17.1 10.59
11/1/2021 2:30:00 PM 11.1 51.98 0.092 7.18 16.41 10.59
11/1/2021 2:45:00 PM 11.03 51.854 0.092 7.18 16.9 10.59
11/1/2021 3:00:00 PM 11 51.8 0.087 7.17 23.18 10.61
11/1/2021 3:15:00 PM 10.98 51.764 0.092 7.18 19.13 10.6
11/1/2021 3:30:00 PM 10.94 51.692 0.092 7.18 16.25 10.61
11/1/2021 3:45:00 PM 10.93 51.674 0.092 7.18 16.17 10.61
11/1/2021 4:00:00 PM 10.91 51.638 0.092 7.18 16.64 10.62
11/1/2021 4:15:00 PM 10.88 51.584 0.092 7.18 14.03 10.62
11/1/2021 4:30:00 PM 10.87 51.566 0.093 7.18 16.76 10.62
11/1/2021 4:45:00 PM 10.86 51.548 0.093 7.19 15.83 10.62
11/1/2021 5:00:00 PM 10.85 51.53 0.093 7.18 41.04 10.6
11/1/2021 5:15:00 PM 10.85 51.53 0.093 7.18 27.65 10.59
11/1/2021 5:30:00 PM 10.84 51.512 0.093 7.17 15.57 10.59
11/1/2021 5:45:00 PM 10.83 51.494 0.093 7.17 16.55 10.58
11/1/2021 6:00:00 PM 10.81 51.458 0.093 7.17 15.74 10.59
11/1/2021 6:15:00 PM 10.79 51.422 0.089 7.17 21.26 10.58
11/1/2021 6:30:00 PM 10.77 51.386 0.094 7.17 15.95 10.58
11/1/2021 6:45:00 PM 10.75 51.35 0.094 7.17 19.89 10.57
11/1/2021 7:00:00 PM 10.73 51.314 0.094 7.17 18.66 10.56
11/1/2021 7:15:00 PM 10.7 51.26 0.095 7.17 20.8 10.55
11/1/2021 7:30:00 PM 10.66 51.188 0.095 7.17 17.95 10.56
11/1/2021 7:45:00 PM 10.62 51.116 0.095 7.17 18.6 10.55
11/1/2021 8:00:00 PM 10.58 51.044 0.095 7.16 17.24 10.57
11/1/2021 8:15:00 PM 10.53 50.954 0.095 7.16 16.83 10.6
11/1/2021 8:30:00 PM 10.48 50.864 0.095 7.17 16.2 10.63
11/1/2021 8:45:00 PM 10.43 50.774 0.095 7.17 24.11 10.65
11/1/2021 9:00:00 PM 10.37 50.666 0.095 7.16 15.93 10.66
11/1/2021 9:15:00 PM 10.3 50.54 0.095 7.17 15.29 10.67
11/1/2021 9:30:00 PM 10.23 50.414 0.095 7.16 24.42 10.66
11/1/2021 9:45:00 PM 10.16 50.288 0.095 7.16 15.14 10.68
11/1/2021 10:00:00 PM 10.09 50.162 0.095 7.16 15.24 10.71
11/1/2021 10:15:00 PM 10.02 50.036 0.091 7.15 16.8 10.75
11/1/2021 10:30:00 PM 9.97 49.946 0.092 7.16 13.01 10.77
11/1/2021 10:45:00 PM 9.92 49.856 0.096 7.17 15.85 10.78
11/1/2021 11:00:00 PM 9.87 49.766 0.096 7.16 15.41 10.79
11/1/2021 11:15:00 PM 9.81 49.658 0.095 7.16 15.07 10.79
11/1/2021 11:30:00 PM 9.76 49.568 0.096 7.16 12.22 10.8
11/1/2021 11:45:00 PM 9.71 49.478 0.093 7.16 16.62 10.82
11/2/2021 12:00:00 AM 9.67 49.406 0.096 7.16 14.32 10.83
11/2/2021 12:15:00 AM 9.63 49.334 0.096 7.16 14.28 10.85
11/2/2021 12:30:00 AM 9.59 49.262 0.096 7.16 13.83 10.88
11/2/2021 12:45:00 AM 9.56 49.208 0.096 7.16 14.27 10.89
11/2/2021 1:00:00 AM 9.53 49.154 0.091 7.16 14.78 10.92
11/2/2021 1:15:00 AM 9.49 49.082 0.096 7.16 14.28 10.92
11/2/2021 1:30:00 AM 9.46 49.028 0.096 7.17 13.68 10.92
11/2/2021 1:45:00 AM 9.43 48.974 0.092 7.16 14.48 10.94
11/2/2021 2:00:00 AM 9.4 48.92 0.097 7.17 13.26 10.92
11/2/2021 2:15:00 AM 9.37 48.866 0.097 7.17 13.61 10.92
11/2/2021 2:30:00 AM 9.35 48.83 0.097 7.17 13.31 10.92
11/2/2021 2:45:00 AM 9.32 48.776 0.097 7.17 13.63 10.92
11/2/2021 3:00:00 AM 9.29 48.722 0.097 7.17 13.18 10.93
11/2/2021 3:15:00 AM 9.27 48.686 0.097 7.17 13.07 10.95
11/2/2021 3:30:00 AM 9.24 48.632 0.097 7.18 12.78 10.95
11/2/2021 3:45:00 AM 9.22 48.596 0.097 7.18 12.96 10.97
11/2/2021 4:00:00 AM 9.19 48.542 0.096 7.17 13.31 10.98
11/2/2021 4:15:00 AM 9.17 48.506 0.097 7.18 13.11 11
11/2/2021 4:30:00 AM 9.14 48.452 0.092 7.17 13.11 11.01
11/2/2021 4:45:00 AM 9.11 48.398 0.096 7.18 13.48 11.03
11/2/2021 5:00:00 AM 9.08 48.344 0.088 7.18 13.86 11.04
11/2/2021 5:15:00 AM 9.05 48.29 0.002 7.19 12.55 11.05
11/2/2021 5:30:00 AM 9 48.2 0.018 7.18 1790.85 11.08
11/2/2021 5:45:00 AM 8.92 48.056 0.005 7.18 12.93 11.09
11/2/2021 6:00:00 AM 8.87 47.966 0.001 7.18 12.63 11.1
11/2/2021 6:15:00 AM 8.79 47.822 0.001 7.18 12.82 11.13
11/2/2021 6:30:00 AM 8.72 47.696 0.001 7.18 12.62 11.14
11/2/2021 6:45:00 AM 8.68 47.624 0 7.18 12.85 11.14
11/2/2021 7:00:00 AM 8.65 47.57 0 7.18 12.71 11.15
11/2/2021 7:15:00 AM 8.51 47.318 0 7.18 11.97 11.2
11/2/2021 7:30:00 AM 8.47 47.246 0 7.18 12.59 11.22
11/2/2021 7:45:00 AM 8.42 47.156 0 7.2 12.63 11.24
11/2/2021 8:00:00 AM 8.29 46.922 0 7.18 11.82 11.3
11/2/2021 8:15:00 AM 8.24 46.832 0 7.19 40.76 11.33
11/2/2021 8:30:00 AM 8.18 46.724 0 7.19 12.15 11.37
11/2/2021 8:45:00 AM 8.18 46.724 0 7.19 11.61 11.37
11/2/2021 9:00:00 AM 8.21 46.778 0 7.19 14.8 11.39
11/2/2021 9:15:00 AM 8.29 46.922 0 7.19 12.03 11.35
11/2/2021 9:30:00 AM 8.32 46.976 0 7.19 12.4 11.35
11/2/2021 9:45:00 AM 8.57 47.426 0.002 7.19 15.18 11.23
11/2/2021 10:00:00 AM 8.49 47.282 0 7.18 20.59 11.28
11/2/2021 10:15:00 AM 8.55 47.39 0 7.19 14.12 11.28
11/2/2021 10:30:00 AM 8.63 47.534 0 7.2 13.9 11.26
11/2/2021 10:45:00 AM 8.74 47.732 0 7.21 11.8 11.25
11/2/2021 11:00:00 AM 8.95 48.11 0 7.21 876.1 11.22
11/2/2021 11:15:00 AM 9.2 48.56 0 7.22 16.12 11.17
11/2/2021 11:30:00 AM 9.14 48.452 0 7.22 15.79 11.21
11/2/2021 11:45:00 AM 9.13 48.434 0 7.23 15.8 11.28
11/2/2021 12:00:00 PM 8.66 47.588 0 7.23 9671.66 11.38
11/2/2021 12:15:00 PM 8.6 47.48 0 7.22 343.96 11.49
11/2/2021 12:30:00 PM 9.18 48.524 0 7.23 14357.45 11.31
11/2/2021 12:45:00 PM 9.29 48.722 0 7.22 13.51 11.29
11/2/2021 1:00:00 PM 9.1 48.38 0.002 7.23 22.35 11.37
11/2/2021 1:15:00 PM 8.98 48.164 0 7.24 1030.6 11.46
11/2/2021 1:30:00 PM 8.95 48.11 0 7.24 2059.2 11.5
11/2/2021 1:45:00 PM 9.1 48.38 0 7.25 19.01 11.43
11/2/2021 2:00:00 PM 8.97 48.146 0 7.24 15.83 11.49
11/2/2021 2:15:00 PM 8.67 47.606 0 7.24 12.15 11.63
11/2/2021 2:30:00 PM 8.78 47.804 0 7.24 12.4 11.59
11/2/2021 2:45:00 PM 8.97 48.146 0 7.25 21.88 11.35
11/2/2021 3:00:00 PM 8.67 47.606 0 7.24 41.64 11.61
11/2/2021 3:15:00 PM 9 48.2 0 7.23 30.38 11.5
11/2/2021 3:30:00 PM 9.18 48.524 0 7.25 30.18 11.52
11/2/2021 3:45:00 PM 8.96 48.128 0 7.25 34.43 11.57
11/2/2021 4:00:00 PM 8.97 48.146 0 7.26 32.15 11.53
11/2/2021 4:15:00 PM 8.81 47.858 0 7.27 32.44 11.57
11/2/2021 4:30:00 PM 9.01 48.218 0 7.32 34.45 11.51
11/2/2021 4:45:00 PM 8.82 47.876 0 7.34 33.84 11.57
11/2/2021 5:00:00 PM 8.88 47.984 0.002 7.34 35.46 11.55
11/2/2021 5:15:00 PM 8.86 47.948 0.001 7.35 32.38 11.56
11/2/2021 5:30:00 PM 8.29 46.922 0 7.39 32.48 11.71
11/2/2021 5:45:00 PM 8.37 47.066 0 7.4 32.68 11.7
11/2/2021 6:00:00 PM 8.06 46.508 0 7.42 32.33 11.79
11/2/2021 6:15:00 PM 8.05 46.49 0 7.45 28.42 11.73
11/2/2021 6:30:00 PM 8.01 46.418 0 7.45 26.38 11.72
11/2/2021 6:45:00 PM 7.69 45.842 0 7.46 21.95 11.86
11/2/2021 7:00:00 PM 7.65 45.77 0 7.46 20.98 11.87
11/2/2021 7:15:00 PM 7.56 45.608 0 7.43 15.04 11.92
11/2/2021 7:30:00 PM 7.5 45.5 0 7.45 11.09 11.93
11/2/2021 7:45:00 PM 7.6 45.68 0 7.46 12.02 11.88
11/2/2021 8:00:00 PM 7.52 45.536 0 7.49 9.57 11.91
11/2/2021 8:15:00 PM 7.54 45.572 0 7.53 9.28 11.9
11/2/2021 8:30:00 PM 7.48 45.464 0 7.48 8.27 11.92
11/2/2021 8:45:00 PM 7.31 45.158 0 7.54 7.2 11.97
11/2/2021 9:00:00 PM 7.25 45.05 0 7.48 6.93 12
11/2/2021 9:15:00 PM 7.19 44.942 0 7.43 6.76 12.02
11/2/2021 9:30:00 PM 7.14 44.852 0 7.43 6.31 12.04
11/2/2021 9:45:00 PM 7.04 44.672 0 7.48 6.29 12.08
11/2/2021 10:00:00 PM 7.04 44.672 0 7.18 6.01 12.08
11/2/2021 10:15:00 PM 6.95 44.51 0 7.34 5.75 12.1
11/2/2021 10:30:00 PM 6.71 44.078 0 7.5 5.52 12.19
11/2/2021 10:45:00 PM 6.66 43.988 0 7.11 5.49 12.22
11/2/2021 11:00:00 PM 6.36 43.448 0 7.54 5.78 12.3
11/2/2021 11:15:00 PM 6.31 43.358 0 7.18 5.52 12.33
11/2/2021 11:30:00 PM 6.06 42.908 0 7.49 5.4 12.41
11/2/2021 11:45:00 PM 5.98 42.764 0 7.17 5.48 12.42
11/3/2021 12:00:00 AM 5.51 41.918 0 7.24 5.21 12.65
11/3/2021 12:15:00 AM 5.3 41.54 0 7.28 5.92 12.74
11/3/2021 12:30:00 AM 5.1 41.18 0 7.54 5.23 12.8
11/3/2021 12:45:00 AM 4.94 40.892 0 7.53 5.25 12.83
11/3/2021 1:00:00 AM 4.93 40.874 0 7.27 5.11 12.81
11/3/2021 1:15:00 AM 4.73 40.514 0 7.51 5.05 12.9
11/3/2021 1:30:00 AM 4.58 40.244 0 7.27 5.33 12.97
11/3/2021 1:45:00 AM 4.64 40.352 0 7.27 5.27 12.92
11/3/2021 2:00:00 AM 4.68 40.424 0 7.41 5.55 12.92
11/3/2021 2:15:00 AM 4.67 40.406 0 7.57 5.3 12.93
11/3/2021 2:30:00 AM 4.73 40.514 0 7.32 5.24 12.9
11/3/2021 2:45:00 AM 4.58 40.244 0 7.35 5.92 12.96
11/3/2021 3:00:00 AM 4.29 39.722 0 7.3 6.25 13.08
11/3/2021 3:15:00 AM 4.1 39.38 0 7.36 6.05 13.16
11/3/2021 3:30:00 AM 4.12 39.416 0 7.68 5.64 13.14
11/3/2021 3:45:00 AM 4.19 39.542 0 7.37 5.65 13.11
11/3/2021 4:00:00 AM 4.29 39.722 0 7.38 5.04 13.07
11/3/2021 4:15:00 AM 4.33 39.794 0 7.41 5.49 13.05
11/3/2021 4:30:00 AM 4.43 39.974 0 7.52 5.38 13.02
11/3/2021 4:45:00 AM 4.48 40.064 0 7.33 5.17 12.99
11/3/2021 5:00:00 AM 4.44 39.992 0 7.35 5.27 13.02
11/3/2021 5:15:00 AM 4.54 40.172 0 7.35 5.52 12.98
11/3/2021 5:30:00 AM 4.64 40.352 0 7.59 5.18 12.92
11/3/2021 5:45:00 AM 4.67 40.406 0 7.32 5.47 12.92
11/3/2021 6:00:00 AM 4.77 40.586 0 7.56 5.43 12.88
11/3/2021 6:15:00 AM 4.79 40.622 0 7.28 5.19 12.89
11/3/2021 6:30:00 AM 4.83 40.694 0 7.34 5.14 12.88
11/3/2021 6:45:00 AM 4.94 40.892 0 7.41 5.29 12.84
11/3/2021 7:00:00 AM 4.96 40.928 0 7.51 5.17 12.83
11/3/2021 7:15:00 AM 4.91 40.838 0 7.35 5.21 12.86
11/3/2021 7:30:00 AM 4.89 40.802 0 7.33 5.42 12.87
11/3/2021 7:45:00 AM 4.96 40.928 0 7.34 5.39 12.83
11/3/2021 8:00:00 AM 5 41 0 7.36 5.25 12.82
11/3/2021 8:15:00 AM 4.99 40.982 0 7.35 5.15 12.83
11/3/2021 8:30:00 AM 5.05 41.09 0 7.36 5.14 12.8
11/3/2021 8:45:00 AM 5.19 41.342 0 7.34 5.23 12.74
11/3/2021 9:00:00 AM 5.24 41.432 0 7.43 5.2 12.72
11/3/2021 9:15:00 AM 5.13 41.234 0 7.33 5.18 12.78
11/3/2021 9:30:00 AM 5.06 41.108 0 7.37 5.49 12.82
11/3/2021 9:45:00 AM 5.15 41.27 0 7.35 5.1 12.77
11/3/2021 10:00:00 AM 5.4 41.72 0 7.35 5.15 12.66
11/3/2021 10:15:00 AM 5.74 42.332 0 7.31 5.02 12.53
11/3/2021 10:30:00 AM 6.03 42.854 0 7.34 5.07 12.44
11/3/2021 10:45:00 AM 6.33 43.394 0 7.38 5.23 12.4
11/3/2021 11:00:00 AM 6.69 44.042 0 7.32 5.02 12.23
11/3/2021 11:15:00 AM 6.61 43.898 0 7.35 5.2 12.26
11/3/2021 11:30:00 AM 6.42 43.556 0 7.37 5.03 12.34
11/3/2021 11:45:00 AM 6.23 43.214 0 7.37 5.22 12.44
11/3/2021 12:00:00 PM 6.73 44.114 0 7.52 5.07 12.22
11/3/2021 12:15:00 PM 7.24 45.032 0 7.38 5.19 12.12
11/3/2021 12:30:00 PM 7.11 44.798 0 7.46 5.14 12.18
11/3/2021 12:45:00 PM 7.75 45.95 0 7.43 5 11.91
11/3/2021 1:00:00 PM 8.7 47.66 0 7.32 5.04 11.57
11/3/2021 1:15:00 PM 9.54 49.172 0 7.14 5.13 11.35
11/3/2021 1:30:00 PM 10.24 50.432 0 7.14 5.28 11.25
11/3/2021 1:45:00 PM 9.95 49.91 0 7.25 5.46 11.39
11/3/2021 2:00:00 PM 10.44 50.792 0 7.3 5.23 11.28
11/3/2021 2:15:00 PM 9.79 49.622 0 7.38 5.33 11.46
11/3/2021 2:30:00 PM 10.55 50.99 0.002 7.37 7.07 11.33
11/3/2021 2:45:00 PM 10.83 51.494 0.001 7.45 7.02 11.2
11/3/2021 3:00:00 PM 10.02 50.036 0 7.21 5.39 11.41
11/3/2021 3:15:00 PM 8.64 47.552 0.001 7.43 7.44 11.8
11/3/2021 3:30:00 PM 9.11 48.398 0 7.3 5.54 11.71
11/3/2021 3:45:00 PM 8.82 47.876 0 7.41 5.56 11.73
11/3/2021 4:00:00 PM 8.42 47.156 0 7.6 5.29 11.91
11/3/2021 4:15:00 PM 8.02 46.436 0 7.45 5.61 12
11/3/2021 4:30:00 PM 8.09 46.562 0 7.48 6.12 11.96
11/3/2021 4:45:00 PM 8.31 46.958 0 7.44 5.56 11.87
11/3/2021 5:00:00 PM 7.49 45.482 0 7.48 5.33 12.08
11/3/2021 5:15:00 PM 7.08 44.744 0 7.63 5.12 12.25
11/3/2021 5:30:00 PM 6.79 44.222 0 7.55 7.15 12.27
11/3/2021 5:45:00 PM 6.29 43.322 0 7.53 5.42 12.43
11/3/2021 6:00:00 PM 5.97 42.746 0 7.52 5.62 12.54
11/3/2021 6:15:00 PM 5.7 42.26 0 7.55 5.18 12.63
11/3/2021 6:30:00 PM 5.63 42.134 0 7.45 5.44 12.63
11/3/2021 6:45:00 PM 5.54 41.972 0 7.51 5.25 12.65
11/3/2021 7:00:00 PM 5.41 41.738 0 7.47 5.32 12.69
11/3/2021 7:15:00 PM 5.28 41.504 0 7.48 5.33 12.75
11/3/2021 7:30:00 PM 5.31 41.558 0 7.4 5.55 12.71
11/3/2021 7:45:00 PM 5.06 41.108 0 7.47 5.37 12.82
11/3/2021 8:00:00 PM 5.05 41.09 0 7.43 5 12.8
11/3/2021 8:15:00 PM 4.99 40.982 0 7.38 5.27 12.83
11/3/2021 8:30:00 PM 4.92 40.856 0 7.39 5.25 12.85
11/3/2021 8:45:00 PM 4.8 40.64 0 7.34 5.5 12.9
11/3/2021 9:00:00 PM 4.7 40.46 0 7.36 5.38 12.93
11/3/2021 9:15:00 PM 4.48 40.064 0 7.38 5.5 13.03
11/3/2021 9:30:00 PM 4.49 40.082 0 7.33 5.14 13.02
11/3/2021 9:45:00 PM 4.48 40.064 0 7.38 5.75 13.03
11/3/2021 10:00:00 PM 4.41 39.938 0 7.29 5.26 13.06
11/3/2021 10:15:00 PM 4.42 39.956 0 7.29 5.31 13.05
11/3/2021 10:30:00 PM 4.47 40.046 0 7.3 5.35 13.03
11/3/2021 10:45:00 PM 4.38 39.884 0 7.29 5.48 13.08
11/3/2021 11:00:00 PM 4.34 39.812 0 7.3 5.85 13.08
11/3/2021 11:15:00 PM 4.24 39.632 0 7.29 5.47 13.12
11/3/2021 11:30:00 PM 4.1 39.38 0 7.32 5.37 13.18
11/3/2021 11:45:00 PM 4.01 39.218 0 7.28 5.26 13.2
11/4/2021 12:00:00 AM 3.79 38.822 0 7.24 5.21 13.29
11/4/2021 12:15:00 AM 3.75 38.75 0 7.25 5.38 13.31
11/4/2021 12:30:00 AM 3.65 38.57 0 7.2 5.26 13.33
11/4/2021 12:45:00 AM 3.43 38.174 0 7.19 5.16 13.42
11/4/2021 1:00:00 AM 3.14 37.652 0 7.26 6.33 13.56
11/4/2021 1:15:00 AM 2.95 37.31 0 7.27 5.48 13.62
11/4/2021 1:30:00 AM 2.71 36.878 0 7.23 5.26 13.71
11/4/2021 1:45:00 AM 2.64 36.752 0 7.26 5.03 13.74
11/4/2021 2:00:00 AM 2.4 36.32 0 7.24 5.45 13.84
11/4/2021 2:15:00 AM 2.36 36.248 0 7.25 5.26 13.85
11/4/2021 2:30:00 AM 2.13 35.834 0 7.24 6.78 13.95
11/4/2021 2:45:00 AM 2.16 35.888 0 7.25 5.78 13.92
11/4/2021 3:00:00 AM 1.98 35.564 0 7.29 5.42 14.01
11/4/2021 3:15:00 AM 1.75 35.15 0 7.24 5.73 14.11
11/4/2021 3:30:00 AM 1.61 34.898 0 7.28 5.71 14.17
11/4/2021 3:45:00 AM 1.6 34.88 0 7.24 5.87 14.13
11/4/2021 4:00:00 AM 1.4 34.52 0 7.24 5.61 14.25
11/4/2021 4:15:00 AM 1.47 34.646 0 7.21 5.71 14.21
11/4/2021 4:30:00 AM 1.39 34.502 0 7.18 5.1 14.24
11/4/2021 4:45:00 AM 1.2 34.16 0 7.2 5.66 14.35
11/4/2021 5:00:00 AM 1.27 34.286 0 7.18 5.56 14.27
11/4/2021 5:15:00 AM 1.24 34.232 0 7.2 5.66 14.31
11/4/2021 5:30:00 AM 1.19 34.142 0 7.2 6.03 14.33
11/4/2021 5:45:00 AM 1.13 34.034 0 7.17 5.91 14.37
11/4/2021 6:00:00 AM 1.15 34.07 0 7.15 5.57 14.37
11/4/2021 6:15:00 AM 1.39 34.502 0 7.16 5.73 14.25
11/4/2021 6:30:00 AM 1.49 34.682 0 7.15 6.02 14.21
11/4/2021 6:45:00 AM 1.69 35.042 0 7.15 5.57 14.11
11/4/2021 7:00:00 AM 1.71 35.078 0 7.13 5.62 14.09
11/4/2021 7:15:00 AM 1.73 35.114 0 7.13 5.6 14.08
11/4/2021 7:30:00 AM 1.75 35.15 0 7.14 5.66 14.07
11/4/2021 7:45:00 AM 1.83 35.294 0 7.13 5.31 14.03
11/4/2021 8:00:00 AM 1.86 35.348 0 7.13 5.72 14.02
11/4/2021 8:15:00 AM 1.79 35.222 0 7.11 5.51 14.07
11/4/2021 8:30:00 AM 1.98 35.564 0 7.1 6 13.98
11/4/2021 8:45:00 AM 2.23 36.014 0 7.07 6.19 13.87
11/4/2021 9:00:00 AM 2.33 36.194 0 7.06 5.93 13.83
11/4/2021 9:15:00 AM 2.57 36.626 0 7.06 5.49 13.71
11/4/2021 9:30:00 AM 2.75 36.95 0 7.05 5.6 13.65
11/4/2021 9:45:00 AM 3.06 37.508 0 7.05 5.39 13.49
11/4/2021 10:00:00 AM 3.32 37.976 0 7.05 5.35 13.42
11/4/2021 10:15:00 AM 3.57 38.426 0 7.05 5.45 13.34
11/4/2021 10:30:00 AM 3.97 39.146 0 7.05 5.64 13.17
11/4/2021 10:45:00 AM 4.75 40.55 0 7.01 5.19 12.83
11/4/2021 11:00:00 AM 5.4 41.72 0 6.99 5.11 12.62
11/4/2021 11:15:00 AM 6.29 43.322 0 6.98 5.36 12.28
11/4/2021 11:30:00 AM 6.13 43.034 0 7.02 5.56 12.43
11/4/2021 11:45:00 AM 6.18 43.124 0 6.99 5.21 12.44
11/4/2021 12:00:00 PM 6.33 43.394 0 7.03 5.48 12.43
11/4/2021 12:15:00 PM 6.63 43.934 0 6.98 5.49 12.32
11/4/2021 12:30:00 PM 6.78 44.204 0 6.96 4.86 12.23
11/4/2021 12:45:00 PM 7.52 45.536 0 6.99 5.26 12.01
11/4/2021 1:00:00 PM 8.08 46.544 0 6.72 8.08 11.75
11/4/2021 1:15:00 PM 8.12 46.616 0 6.81 4.98 11.83
11/4/2021 1:30:00 PM 8.32 46.976 0 6.85 5.29 11.86
11/4/2021 1:45:00 PM 8.41 47.138 0 6.81 6.39 11.76
11/4/2021 2:00:00 PM 9.64 49.352 0 6.85 5.11 11.53
11/4/2021 2:15:00 PM 9.33 48.794 0 6.61 9.21 11.48
11/4/2021 2:30:00 PM 9.12 48.416 0 6.45 10.47 11.55
11/4/2021 2:45:00 PM 8.61 47.498 0 6.44 10.27 11.65
11/4/2021 3:00:00 PM 8.65 47.57 0 6.6 10.11 11.73
11/4/2021 3:15:00 PM 8.48 47.264 0 6.7 9.6 11.8
11/4/2021 3:30:00 PM 8.42 47.156 0 6.54 10.64 11.81
11/4/2021 3:45:00 PM 8.32 46.976 0 6.41 10.58 11.82
11/4/2021 4:00:00 PM 8.27 46.886 0 6.4 10.6 11.76
11/4/2021 4:15:00 PM 7.92 46.256 0 6.34 10.41 11.94
11/4/2021 4:30:00 PM 7.68 45.824 0 6.53 9.37 12.03
11/4/2021 4:45:00 PM 7.66 45.788 0 6.55 9.25 11.99
11/4/2021 5:00:00 PM 7.43 45.374 0 6.56 9.91 12.02
11/4/2021 5:15:00 PM 7.17 44.906 0 6.6 10.26 12.11
11/4/2021 5:30:00 PM 6.85 44.33 0 6.56 9.38 12.22
11/4/2021 5:45:00 PM 6.57 43.826 0 6.6 9.84 12.29
11/4/2021 6:00:00 PM 6.31 43.358 0 6.54 10.36 12.36
11/4/2021 6:15:00 PM 6.01 42.818 0 6.54 8.26 12.48
11/4/2021 6:30:00 PM 5.83 42.494 0 6.56 9.78 12.52
11/4/2021 6:45:00 PM 5.4 41.72 0 6.57 9.03 12.68
11/4/2021 7:00:00 PM 4.86 40.748 0 6.44 10.22 12.87
11/4/2021 7:15:00 PM 4.24 39.632 0 6.41 10.24 13.13
11/4/2021 7:30:00 PM 3.78 38.804 0 6.43 10.43 13.28
11/4/2021 7:45:00 PM 3.52 38.336 0 6.45 10.13 13.4
11/4/2021 8:00:00 PM 3.36 38.048 0 6.58 8.84 13.45
11/4/2021 8:15:00 PM 3.36 38.048 0 6.62 7.16 13.46
11/4/2021 8:30:00 PM 3.29 37.922 0 6.61 6.8 13.46
11/4/2021 8:45:00 PM 3.17 37.706 0 6.56 6.9 13.49
11/4/2021 9:00:00 PM 2.84 37.112 0 6.53 8.62 13.61
11/4/2021 9:15:00 PM 2.55 36.59 0 6.56 8.73 13.76
11/4/2021 9:30:00 PM 2.28 36.104 0 6.49 9.45 13.86
11/4/2021 9:45:00 PM 2.11 35.798 0 6.59 7.86 13.95
11/4/2021 10:00:00 PM 1.98 35.564 0 6.57 7.3 14
11/4/2021 10:15:00 PM 1.81 35.258 0 6.51 7.76 14.06
11/4/2021 10:30:00 PM 1.72 35.096 0 6.63 6.9 14.07
11/4/2021 10:45:00 PM 1.65 34.97 0 6.55 8.35 14.1
11/4/2021 11:00:00 PM 1.41 34.538 0 6.61 7.34 14.22
11/4/2021 11:15:00 PM 1.3 34.34 0 6.61 7.63 14.28
11/4/2021 11:30:00 PM 1.32 34.376 0 6.66 6.18 14.27
11/4/2021 11:45:00 PM 1.29 34.322 0 6.65 6.69 14.27
11/5/2021 12:00:00 AM 1.27 34.286 0 6.68 6.46 14.28
11/5/2021 12:15:00 AM 1.38 34.484 0 6.71 6.24 14.24
11/5/2021 12:30:00 AM 1.4 34.52 0 6.72 6.33 14.22
11/5/2021 12:45:00 AM 1.34 34.412 0 6.69 6.54 14.23
11/5/2021 1:00:00 AM 1.37 34.466 0 6.69 6.55 14.22
11/5/2021 1:15:00 AM 1.32 34.376 0 6.74 5.7 14.28
11/5/2021 1:30:00 AM 1.16 34.088 0 6.71 6.09 14.34
11/5/2021 1:45:00 AM 1.1 33.98 0 6.63 6.22 14.35
11/5/2021 2:00:00 AM 0.97 33.746 0 6.68 7.1 14.41
11/5/2021 2:15:00 AM 0.81 33.458 0 6.7 7 14.49
11/5/2021 2:30:00 AM 0.64 33.152 0 6.71 5.78 14.58
11/5/2021 2:45:00 AM 0.58 33.044 0 6.68 5.81 14.58
11/5/2021 3:00:00 AM 0.46 32.828 0 6.76 5.71 14.62
11/5/2021 3:15:00 AM 0.37 32.666 0 6.77 6.17 14.68
11/5/2021 3:30:00 AM 0.28 32.504 0 6.73 6.13 14.7
11/5/2021 3:45:00 AM 0.17 32.306 0 6.77 6.78 14.75
11/5/2021 4:00:00 AM 0.04 32.072 0 6.76 6.07 14.82
11/5/2021 4:15:00 AM -0.09 31.838 0 6.76 6.27 14.9
11/5/2021 4:30:00 AM -0.07 31.874 0.001 6.81 5.69 14.87
11/5/2021 4:45:00 AM -0.08 31.856 0 6.74 6.12 14.87
11/5/2021 5:00:00 AM -0.21 31.622 0.001 6.67 7.15 14.95
11/5/2021 5:15:00 AM -0.31 31.442 0 6.76 6.67 15
11/5/2021 5:30:00 AM -0.35 31.37 0 6.68 6.69 15.02
11/5/2021 5:45:00 AM -0.36 31.352 0 6.69 6.03 15.01
11/5/2021 6:00:00 AM -0.39 31.298 0 6.61 6.91 15.03
11/5/2021 6:15:00 AM -0.4 31.28 0 6.64 8.68 15.05
11/5/2021 6:30:00 AM -0.4 31.28 0.001 6.61 8.15 15.04
11/5/2021 6:45:00 AM -0.3 31.46 0.001 6.67 6.59 14.99
11/5/2021 7:00:00 AM -0.41 31.262 0.001 6.59 7.76 15.04
11/5/2021 7:15:00 AM -0.52 31.064 0 6.58 7.25 15.11
11/5/2021 7:30:00 AM -0.61 30.902 0 6.54 8.97 15.16
11/5/2021 7:45:00 AM -0.68 30.776 0 6.47 6.94 15.19
11/5/2021 8:00:00 AM -0.76 30.632 0 6.45 8.97 15.22
11/5/2021 8:15:00 AM -0.76 30.632 0 6.51 7.53 15.24
11/5/2021 8:30:00 AM -0.71 30.722 0 6.53 10.37 15.21
11/5/2021 8:45:00 AM -0.57 30.974 0 6.62 7.91 15.14
11/5/2021 9:00:00 AM -0.38 31.316 0.001 6.62 8.85 15.03
11/5/2021 9:15:00 AM -0.25 31.55 0.001 6.69 8.58 14.96
11/5/2021 9:30:00 AM -0.09 31.838 0.001 6.77 6.62 14.87
11/5/2021 9:45:00 AM 0.06 32.108 0.001 6.76 5.62 14.81
11/5/2021 10:00:00 AM 0.28 32.504 0.001 6.83 5.24 14.7
11/5/2021 10:15:00 AM 0.53 32.954 0 6.82 5.09 14.57
11/5/2021 10:30:00 AM 1.13 34.034 0 6.88 5.27 14.29
11/5/2021 10:45:00 AM 2.33 36.194 0 6.86 5.66 13.74
11/5/2021 11:00:00 AM 3.59 38.462 0.001 6.91 5.09 13.22
11/5/2021 11:15:00 AM 4.78 40.604 0 6.82 5.69 12.74
11/5/2021 11:30:00 AM 5.38 41.684 0 6.8 5.79 12.53
11/5/2021 11:45:00 AM 6.04 42.872 0 6.76 5.22 12.31
11/5/2021 12:00:00 PM 7.14 44.852 0 6.7 5.43 11.92
11/5/2021 12:15:00 PM 8.2 46.76 0 6.7 5.54 11.63
11/5/2021 12:30:00 PM 8.44 47.192 0 6.57 4.97 11.61
11/5/2021 12:45:00 PM 9.5 49.1 0 6.6 5.5 11.33
11/5/2021 1:00:00 PM 10.12 50.216 0 6.33 5.88 11.13
11/5/2021 1:15:00 PM 10.81 51.458 0 6.38 7.18 11.03
11/5/2021 1:30:00 PM 11.12 52.016 0 6.47 8.19 11.04
11/5/2021 1:45:00 PM 11.57 52.826 0 5.85 10.81 10.93
11/5/2021 2:00:00 PM 12.19 53.942 0 5.58 10.59 10.88
11/5/2021 2:15:00 PM 12.6 54.68 0 5.56 11.17 10.77
11/5/2021 2:30:00 PM 13.29 55.922 0 5.86 11.08 10.65
11/5/2021 2:45:00 PM 12.39 54.302 0 5.82 13.99 10.88
11/5/2021 3:00:00 PM 11.92 53.456 0 5.83 13.73 10.98
11/5/2021 3:15:00 PM 11.63 52.934 0 5.79 14.13 11.11
11/5/2021 3:30:00 PM 11.88 53.384 0 5.95 10.68 11
11/5/2021 3:45:00 PM 11.15 52.07 0 5.62 10.89 11.16
11/5/2021 4:00:00 PM 11.07 51.926 0 5.87 14.54 11.24
11/5/2021 4:15:00 PM 10.71 51.278 0 5.74 15.08 11.28
11/5/2021 4:30:00 PM 10.55 50.99 0 5.94 14.19 11.21
11/5/2021 4:45:00 PM 11.2 52.16 0 6.02 10.76 11
11/5/2021 5:00:00 PM 9.33 48.794 0 6 10.91 11.55
11/5/2021 5:15:00 PM 8.05 46.49 0 6.02 11.59 11.91
11/5/2021 5:30:00 PM 6.95 44.51 0 6.1 14.58 12.27
11/5/2021 5:45:00 PM 6.32 43.376 0 6.15 10.86 12.4
11/5/2021 6:00:00 PM 5.44 41.792 0 6.11 10.74 12.73
11/5/2021 6:15:00 PM 4.66 40.388 0 6.09 10.69 13.03
11/5/2021 6:30:00 PM 4 39.2 0 6.09 10.75 13.27
11/5/2021 6:45:00 PM 3.49 38.282 0 6.14 10.7 13.48
11/5/2021 7:00:00 PM 3.15 37.67 0 6.17 10.48 13.58
11/5/2021 7:15:00 PM 2.7 36.86 0 6.16 10.45 13.76
11/5/2021 7:30:00 PM 2.45 36.41 0 6.19 10.47 13.86
11/5/2021 7:45:00 PM 2.24 36.032 0 6.24 10.5 13.92
11/5/2021 8:00:00 PM 2.03 35.654 0 6.24 10.8 13.99
11/5/2021 8:15:00 PM 1.93 35.474 0 6.24 10.96 13.99
11/5/2021 8:30:00 PM 1.8 35.24 0.001 6.3 9.61 14.09
11/5/2021 8:45:00 PM 1.6 34.88 0.001 6.25 9.28 14.18
11/5/2021 9:00:00 PM 1.45 34.61 0.001 6.24 11.13 14.2
11/5/2021 9:15:00 PM 1.31 34.358 0.001 6.29 9.41 14.27
11/5/2021 9:30:00 PM 1.12 34.016 0.001 6.3 9.32 14.37
11/5/2021 9:45:00 PM 1.06 33.908 0.001 6.28 9.89 14.39
11/5/2021 10:00:00 PM 0.94 33.692 0.001 6.28 9.57 14.43
11/5/2021 10:15:00 PM 0.88 33.584 0.001 6.29 9.27 14.45
11/5/2021 10:30:00 PM 0.69 33.242 0.001 6.27 9.62 14.55
11/5/2021 10:45:00 PM 0.53 32.954 0.001 6.24 9.98 14.64
11/5/2021 11:00:00 PM 0.47 32.846 0.001 6.26 10.44 14.63
11/5/2021 11:15:00 PM 0.39 32.702 0.001 6.28 9.86 14.68
11/5/2021 11:30:00 PM 0.28 32.504 0.001 6.24 9.92 14.74
11/5/2021 11:45:00 PM 0.21 32.378 0.001 6.24 10.26 14.77
11/6/2021 12:00:00 AM 0.07 32.126 0.001 6.25 10.12 14.84
11/6/2021 12:15:00 AM -0.02 31.964 0.001 6.25 10.52 14.88
11/6/2021 12:30:00 AM -0.1 31.82 0.001 6.23 10.28 14.89
11/6/2021 12:45:00 AM -0.17 31.694 0.001 6.23 10.51 14.94
11/6/2021 1:00:00 AM -0.27 31.514 0 6.23 10.73 14.99
11/6/2021 1:15:00 AM -0.31 31.442 0.001 6.22 10.26 15.01
11/6/2021 1:30:00 AM -0.37 31.334 0.001 6.21 9.91 15.03
11/6/2021 1:45:00 AM -0.46 31.172 0.001 6.2 10.62 15.07
11/6/2021 2:00:00 AM -0.52 31.064 0.001 6.21 11.04 15.1
11/6/2021 2:15:00 AM -0.53 31.046 0.001 6.23 10.18 15.1
11/6/2021 2:30:00 AM -0.67 30.794 0.001 6.16 10.99 15.18
11/6/2021 2:45:00 AM -0.69 30.758 0.001 6.16 11.76 15.17
11/6/2021 3:00:00 AM -0.79 30.578 0.001 6.15 11.4 15.23
11/6/2021 3:15:00 AM -0.66 30.812 0.001 6.2 11.79 15.13
11/6/2021 3:30:00 AM -0.83 30.506 0.001 6.17 12.09 15.22
11/6/2021 3:45:00 AM -0.93 30.326 0.001 6.13 12.27 15.27
11/6/2021 4:00:00 AM -0.97 30.254 0.001 6.09 11.64 15.34
11/6/2021 4:15:00 AM -1.03 30.146 0.001 6.11 11.54 15.37
11/6/2021 4:30:00 AM -1.07 30.074 0.001 6.05 11.84 15.38
11/6/2021 4:45:00 AM -1.13 29.966 0 6.11 12.11 15.41
11/6/2021 5:00:00 AM -1.11 30.002 0.001 6.09 11.93 15.4
11/6/2021 5:15:00 AM -1.05 30.11 0.001 6.14 11.25 15.36
11/6/2021 5:30:00 AM -0.94 30.308 0.001 6.16 10.88 15.31
11/6/2021 5:45:00 AM -0.8 30.56 0.001 6.16 11.06 15.22
11/6/2021 6:00:00 AM -0.67 30.794 0.001 6.15 10.1 15.15
11/6/2021 6:15:00 AM -0.54 31.028 0.001 6.26 9.93 15.06
11/6/2021 6:30:00 AM -0.42 31.244 0.001 6.27 9.51 15
11/6/2021 6:45:00 AM -0.3 31.46 0.001 6.3 9.41 14.95
11/6/2021 7:00:00 AM -0.27 31.514 0.001 6.33 9.44 14.95
11/6/2021 7:15:00 AM -0.27 31.514 0.001 6.31 9.44 14.95
11/6/2021 7:30:00 AM -0.26 31.532 0.001 6.28 9.52 14.94
11/6/2021 7:45:00 AM -0.22 31.604 0.001 6.27 9.95 14.9
11/6/2021 8:00:00 AM -0.2 31.64 0.001 6.23 10.24 14.9
11/6/2021 8:15:00 AM -0.16 31.712 0.001 6.21 11.51 14.85
11/6/2021 8:30:00 AM -0.13 31.766 0.001 6.22 10.83 14.86
11/6/2021 8:45:00 AM -0.06 31.892 0.001 6.23 12.81 14.81
11/6/2021 9:00:00 AM -0.05 31.91 0.001 6.18 12.11 14.83
11/6/2021 9:15:00 AM 0.06 32.108 0.001 6.2 10.53 14.8
11/6/2021 9:30:00 AM 0.22 32.396 0.001 6.21 11.27 14.69
11/6/2021 9:45:00 AM 0.29 32.522 0.001 6.14 11.9 14.66
11/6/2021 10:00:00 AM 0.45 32.81 0.001 6.15 9.22 14.62
11/6/2021 10:15:00 AM 0.79 33.422 0.001 6.12 11.19 14.42
11/6/2021 10:30:00 AM 0.94 33.692 0.001 6.12 9.48 14.41
11/6/2021 10:45:00 AM 1.37 34.466 0.001 6.08 11.57 14.15
11/6/2021 11:00:00 AM 1.86 35.348 0.001 6.17 8.38 13.98
11/6/2021 11:15:00 AM 2.79 37.022 0 6.18 8.11 13.51
11/6/2021 11:30:00 AM 3.52 38.336 0 6.08 7.96 13.19
11/6/2021 11:45:00 AM 4.34 39.812 0 6.06 7.17 12.85
11/6/2021 12:00:00 PM 5.93 42.674 0 5.82 8.14 12.22
11/6/2021 12:15:00 PM 7.35 45.23 0 5.68 11.4 11.73
11/6/2021 12:30:00 PM 8.49 47.282 0 5.61 12.09 11.43
11/6/2021 12:45:00 PM 9.4 48.92 0 5.43 11.82 11.17
11/6/2021 1:00:00 PM 10.17 50.306 0 5.4 11.03 11.05
11/6/2021 1:15:00 PM 10.99 51.782 0 5.38 10.93 10.85
11/6/2021 1:30:00 PM 11.56 52.808 0 5.41 14.48 10.83
11/6/2021 1:45:00 PM 12.36 54.248 0 5.33 10.84 10.68
11/6/2021 2:00:00 PM 13.1 55.58 0 5.31 10.83 10.6
11/6/2021 2:15:00 PM 13.28 55.904 0 5.27 10.79 10.66
11/6/2021 2:30:00 PM 13.74 56.732 0 5.26 10.88 10.57
11/6/2021 2:45:00 PM 13.54 56.372 0 5.29 10.84 10.64
11/6/2021 3:00:00 PM 13.2 55.76 0 5.25 10.95 10.71
11/6/2021 3:15:00 PM 13.21 55.778 0 5.22 10.87 10.72
11/6/2021 3:30:00 PM 13.39 56.102 0 5.35 10.91 10.75
11/6/2021 3:45:00 PM 13.04 55.472 0 5.24 11.07 10.69
11/6/2021 4:00:00 PM 12.81 55.058 0 5.28 11.17 10.77
11/6/2021 4:15:00 PM 12.82 55.076 0 5.34 10.95 10.7
11/6/2021 4:30:00 PM 12.29 54.122 0 5.38 10.97 10.71
11/6/2021 4:45:00 PM 13.11 55.598 0 5.48 10.97 10.39
11/6/2021 5:00:00 PM 10.91 51.638 0 5.49 11.11 11.04
11/6/2021 5:15:00 PM 9.27 48.686 0 5.53 11.18 11.5
11/6/2021 5:30:00 PM 7.96 46.328 0 5.59 11.3 11.84
11/6/2021 5:45:00 PM 6.74 44.132 0 5.73 11.38 12.22
11/6/2021 6:00:00 PM 5.67 42.206 0 5.8 11.44 12.57
11/6/2021 6:15:00 PM 4.78 40.604 0 5.77 11.47 12.89
11/6/2021 6:30:00 PM 4.11 39.398 0 5.84 11.49 13.14
11/6/2021 6:45:00 PM 3.45 38.21 0 5.84 11.59 13.31
11/6/2021 7:00:00 PM 3.04 37.472 0 5.94 11.6 13.49
11/6/2021 7:15:00 PM 2.7 36.86 0 5.99 11.59 13.69
11/6/2021 7:30:00 PM 2.42 36.356 0 6.05 11.64 13.74
11/6/2021 7:45:00 PM 2.26 36.068 0 6.12 11.56 13.79
11/6/2021 8:00:00 PM 2.13 35.834 0 6.14 11.42 13.83
11/6/2021 8:15:00 PM 1.9 35.42 0 6.14 11.37 13.92
11/6/2021 8:30:00 PM 1.7 35.06 0 6.13 11.22 14.04
11/6/2021 8:45:00 PM 1.53 34.754 0 6.16 11.29 14.07
11/6/2021 9:00:00 PM 1.33 34.394 0 6.17 10.9 14.18
11/6/2021 9:15:00 PM 1.19 34.142 0.001 6.17 10.92 14.22
11/6/2021 9:30:00 PM 0.99 33.782 0.001 6.19 11.15 14.29
11/6/2021 9:45:00 PM 0.82 33.476 0.001 6.22 11.24 14.35
11/6/2021 10:00:00 PM 0.67 33.206 0.001 6.19 10.93 14.45
11/6/2021 10:15:00 PM 0.56 33.008 0.001 6.22 10.76 14.49
11/6/2021 10:30:00 PM 0.5 32.9 0.001 6.25 10.22 14.52
11/6/2021 10:45:00 PM 0.37 32.666 0.001 6.22 10.6 14.57
11/6/2021 11:00:00 PM 0.19 32.342 0.001 6.12 11.58 14.55
11/6/2021 11:15:00 PM 0.19 32.342 0.001 6.2 10.66 14.66
11/6/2021 11:30:00 PM 0.09 32.162 0.001 6.2 10.72 14.71
11/6/2021 11:45:00 PM 0.02 32.036 0.001 6.28 13.13 14.73
11/7/2021 12:00:00 AM -0.11 31.802 0.001 6.2 10.7 14.8
11/7/2021 12:15:00 AM -0.22 31.604 0.001 6.15 10.95 14.84
11/7/2021 12:30:00 AM -0.28 31.496 0.001 6.18 11.4 14.85
11/7/2021 12:45:00 AM -0.36 31.352 0.001 6.21 13.5 14.89
11/7/2021 1:00:00 AM -0.46 31.172 0.001 6.17 10.94 14.95
11/7/2021 1:15:00 AM -0.53 31.046 0.001 6.17 11.27 14.98
11/7/2021 1:30:00 AM -0.67 30.794 0.001 6.09 11.77 14.93
11/7/2021 1:45:00 AM -0.69 30.758 0.001 6.15 11.31 15.02
11/7/2021 2:00:00 AM -0.72 30.704 0.001 6.2 11.57 15.05
11/7/2021 2:15:00 AM -0.69 30.758 0.001 6.19 11.64 15.02
11/7/2021 2:30:00 AM -0.78 30.596 0.001 6.17 11.56 15.08
11/7/2021 2:45:00 AM -0.88 30.416 0.001 6.17 11.55 15.13
11/7/2021 3:00:00 AM -0.9 30.38 0.001 6.16 11.7 15.13
11/7/2021 3:15:00 AM -0.97 30.254 0.001 6.16 11.57 15.18
11/7/2021 3:30:00 AM -1.24 29.768 0.001 6.21 11.79 15.3
11/7/2021 3:45:00 AM -1.18 29.876 0.001 6.11 11.87 15.26
11/7/2021 4:00:00 AM -1.16 29.912 0.001 6.15 11.9 15.26
11/7/2021 4:15:00 AM -1.22 29.804 0.001 6.11 12 15.27
11/7/2021 4:30:00 AM -1.3 29.66 0.001 6.11 12.03 15.34
11/7/2021 4:45:00 AM -1.34 29.588 0.001 6.12 12 15.35
11/7/2021 5:00:00 AM -1.38 29.516 0.001 6.12 12.12 15.39
11/7/2021 5:15:00 AM -1.49 29.318 0.001 6.11 12.12 15.45
11/7/2021 5:30:00 AM -1.5 29.3 0.001 6.08 12.18 15.43
11/7/2021 5:45:00 AM -1.49 29.318 0.001 6.1 12.23 15.44
11/7/2021 6:00:00 AM -1.49 29.318 0.001 6.11 12.17 15.44
11/7/2021 6:15:00 AM -1.51 29.282 0.001 6.09 12.25 15.44
11/7/2021 6:30:00 AM -1.53 29.246 0.001 6.09 12.26 15.46
11/7/2021 6:45:00 AM -1.58 29.156 0.001 6.14 12.22 15.49
11/7/2021 7:00:00 AM -1.64 29.048 0.001 6.15 12.23 15.51
11/7/2021 7:15:00 AM -1.66 29.012 0.001 6.13 12.21 15.52
11/7/2021 7:30:00 AM -1.52 29.264 0.001 6.16 12.21 15.42
11/7/2021 7:45:00 AM -1.39 29.498 0.001 6.19 12.13 15.36
11/7/2021 8:00:00 AM -1.15 29.93 0.001 6.24 12.15 15.21
11/7/2021 8:15:00 AM -0.96 30.272 0.001 6.29 11.71 15.11
11/7/2021 8:30:00 AM -0.78 30.596 0.001 6.31 11.3 15.01
11/7/2021 8:45:00 AM -0.59 30.938 0.001 6.34 10.56 14.9
11/7/2021 9:00:00 AM -0.5 31.1 0.001 6.34 10.58 14.86
11/7/2021 9:15:00 AM -0.28 31.496 0.001 6.37 9.72 14.72
11/7/2021 9:30:00 AM 0.22 32.396 0.001 6.53 7.25 14.45
11/7/2021 9:45:00 AM 0.85 33.53 0.001 6.59 6.9 14.09
11/7/2021 10:00:00 AM 1.83 35.294 0.001 6.63 7.19 13.7
11/7/2021 10:15:00 AM 3.18 37.724 0.001 6.6 7.26 13.1
11/7/2021 10:30:00 AM 3.6 38.48 0 6.59 7.25 12.97
11/7/2021 10:45:00 AM 4.7 40.46 0 6.58 7.38 12.57
11/7/2021 11:00:00 AM 6.37 43.466 0 6.39 7.34 11.94
11/7/2021 11:15:00 AM 7.86 46.148 0 6.35 7.31 11.52
11/7/2021 11:30:00 AM 9.19 48.542 0 6.14 8.13 11.15
11/7/2021 11:45:00 AM 10.37 50.666 0 5.75 14.14 10.75
11/7/2021 12:00:00 PM 11.73 53.114 0 5.94 9.27 10.48
11/7/2021 12:15:00 PM 12.69 54.842 0 5.53 11.57 10.28
11/7/2021 12:30:00 PM 13.51 56.318 0 5.6 12.7 10.24
11/7/2021 12:45:00 PM 14.4 57.92 0 5.71 10.66 10.13
11/7/2021 1:00:00 PM 15.05 59.09 0 5.39 10.8 10.12
11/7/2021 1:15:00 PM 15.87 60.566 0 5.34 10.7 9.98
11/7/2021 1:30:00 PM 16.42 61.556 0 5.4 10.8 9.98
11/7/2021 1:45:00 PM 16.33 61.394 0 5.3 10.92 9.9
11/7/2021 2:00:00 PM 15.68 60.224 0 5.29 10.95 10.05
11/7/2021 2:15:00 PM 15.45 59.81 0 5.25 11.1 10.12
11/7/2021 2:30:00 PM 15.72 60.296 0 5.21 10.94 10.09
11/7/2021 2:45:00 PM 15.51 59.918 0 5.26 11.05 10.03
11/7/2021 3:00:00 PM 15.45 59.81 0 5.39 11.07 10.02
11/7/2021 3:15:00 PM 15.38 59.684 0 5.4 11.17 9.98
11/7/2021 3:30:00 PM 14.44 57.992 0 5.41 11.22 10.1
11/7/2021 3:45:00 PM 14.55 58.19 0 5.43 11.26 9.99
11/7/2021 4:00:00 PM 12.22 53.996 0 5.47 11.33 10.6
11/7/2021 4:15:00 PM 10.61 51.098 0 5.54 11.46 10.98
11/7/2021 4:30:00 PM 9.24 48.632 0 5.54 11.56 11.35
11/7/2021 4:45:00 PM 8.04 46.472 0 5.59 11.59 11.69
11/7/2021 5:00:00 PM 7.02 44.636 0 5.66 11.69 12.01
11/7/2021 5:15:00 PM 6.16 43.088 0 5.77 11.75 12.31
11/7/2021 5:30:00 PM 5.5 41.9 0 5.86 11.77 12.51
11/7/2021 5:45:00 PM 4.98 40.964 0 5.94 11.77 12.68
11/7/2021 6:00:00 PM 4.54 40.172 0 5.98 11.78 12.84
11/7/2021 6:15:00 PM 4.2 39.56 0 6.12 11.79 12.94
11/7/2021 6:30:00 PM 3.92 39.056 0 6.12 11.73 13.03
11/7/2021 6:45:00 PM 3.68 38.624 0 6.15 11.67 13.14
11/7/2021 7:00:00 PM 3.42 38.156 0 6.19 11.63 13.22
11/7/2021 7:15:00 PM 3.24 37.832 0 6.2 11.63 13.29
11/7/2021 7:30:00 PM 3.06 37.508 0 6.19 11.6 13.34
11/7/2021 7:45:00 PM 2.88 37.184 0 6.2 11.63 13.41
11/7/2021 8:00:00 PM 2.65 36.77 0 6.19 11.67 13.52
11/7/2021 8:15:00 PM 2.49 36.482 0 6.19 11.57 13.57
11/7/2021 8:30:00 PM 2.32 36.176 0 6.21 11.45 13.65
11/7/2021 8:45:00 PM 2.17 35.906 0 6.2 11.58 13.7
11/7/2021 9:00:00 PM 1.98 35.564 0 6.23 11.56 13.78
11/7/2021 9:15:00 PM 1.88 35.384 0 6.28 11.66 13.81
11/7/2021 9:30:00 PM 1.8 35.24 0.001 6.29 11.12 13.85
11/7/2021 9:45:00 PM 1.65 34.97 0.001 6.27 11.11 13.91
11/7/2021 10:00:00 PM 1.56 34.808 0.001 6.31 11.92 13.94
11/7/2021 10:15:00 PM 1.53 34.754 0.001 6.28 12.25 13.94
11/7/2021 10:30:00 PM 1.43 34.574 0.001 6.29 12.37 14
11/7/2021 10:45:00 PM 1.37 34.466 0.001 6.29 12.35 14.02
11/7/2021 11:00:00 PM 1.29 34.322 0.001 6.34 11.98 14.07
11/7/2021 11:15:00 PM 1.21 34.178 0.001 6.26 12.21 14.08
11/7/2021 11:30:00 PM 1.13 34.034 0.001 6.31 12.3 14.12
11/7/2021 11:45:00 PM 1.06 33.908 0.001 6.33 12.48 14.14
11/8/2021 12:00:00 AM 0.95 33.71 0.001 6.28 12.24 14.21
11/8/2021 12:15:00 AM 0.78 33.404 0.001 6.3 12.43 14.26
11/8/2021 12:30:00 AM 0.78 33.404 0.001 6.29 12.25 14.27
11/8/2021 12:45:00 AM 0.72 33.296 0.001 6.32 12.41 14.29
11/8/2021 1:00:00 AM 0.64 33.152 0.001 6.26 12.35 14.32
11/8/2021 1:15:00 AM 0.62 33.116 0.001 6.32 12.29 14.35
11/8/2021 1:30:00 AM 0.55 32.99 0.001 6.31 12.39 14.36
11/8/2021 1:45:00 AM 0.47 32.846 0.001 6.24 12.39 14.41
11/8/2021 2:00:00 AM 0.5 32.9 0.001 6.31 12.25 14.39
11/8/2021 2:15:00 AM 0.46 32.828 0.001 6.27 11.98 14.41
11/8/2021 2:30:00 AM 0.45 32.81 0.001 6.35 12.32 14.4
11/8/2021 2:45:00 AM 0.38 32.684 0.001 6.27 12.21 14.45
11/8/2021 3:00:00 AM 0.33 32.594 0.001 6.27 12.43 14.46
11/8/2021 3:15:00 AM 0.2 32.36 0.001 6.31 12.66 14.52
11/8/2021 3:30:00 AM 0.14 32.252 0.001 6.26 12.64 14.56
11/8/2021 3:45:00 AM 0.09 32.162 0.001 6.34 12.53 14.54
11/8/2021 4:00:00 AM 0.06 32.108 0.001 6.26 11.81 14.58
11/8/2021 4:15:00 AM 0.04 32.072 0.001 6.37 12 14.59
11/8/2021 4:30:00 AM 0.02 32.036 0.001 6.31 11.98 14.61
11/8/2021 4:45:00 AM 0.01 32.018 0.001 6.32 12.48 14.6
11/8/2021 5:00:00 AM 0 32 0.001 6.36 12.11 14.62
11/8/2021 5:15:00 AM -0.06 31.892 0.001 6.29 12.42 14.65
11/8/2021 5:30:00 AM -0.06 31.892 0.001 6.29 12.04 14.65
11/8/2021 5:45:00 AM -0.12 31.784 0.001 6.28 12.05 14.68
11/8/2021 6:00:00 AM -0.17 31.694 0.001 6.29 12.64 14.69
11/8/2021 6:15:00 AM -0.23 31.586 0.001 6.26 12.4 14.73
11/8/2021 6:30:00 AM -0.21 31.622 0.001 6.29 12.7 14.72
11/8/2021 6:45:00 AM -0.16 31.712 0.001 6.29 12.1 14.69
11/8/2021 7:00:00 AM -0.18 31.676 0.001 6.31 12.04 14.71
11/8/2021 7:15:00 AM -0.15 31.73 0.001 6.24 12.09 14.66
11/8/2021 7:30:00 AM -0.02 31.964 0.001 6.37 11.47 14.62
11/8/2021 7:45:00 AM 0.04 32.072 0.001 6.43 10.21 14.59
11/8/2021 8:00:00 AM 0.2 32.36 0.001 6.45 10.32 14.5
11/8/2021 8:15:00 AM 0.42 32.756 0.001 6.49 11.46 14.41
11/8/2021 8:30:00 AM 0.6 33.08 0.001 6.48 9.72 14.32
11/8/2021 8:45:00 AM 0.74 33.332 0.001 6.46 10.41 14.26
11/8/2021 9:00:00 AM 0.88 33.584 0.001 6.44 10.07 14.2
11/8/2021 9:15:00 AM 1.14 34.052 0.001 6.45 10.19 14.08
11/8/2021 9:30:00 AM 2.38 36.284 0.001 6.51 8.86 13.5
11/8/2021 9:45:00 AM 3.98 39.164 0.001 6.63 8.66 12.84
11/8/2021 10:00:00 AM 5.26 41.468 0.001 6.67 9.09 12.34
11/8/2021 10:15:00 AM 6.58 43.844 0 6.64 9.57 11.9
11/8/2021 10:30:00 AM 7.43 45.374 0 6.57 9.32 11.62
11/8/2021 10:45:00 AM 8.53 47.354 0 6.5 9.53 11.29
11/8/2021 11:00:00 AM 10.31 50.558 0 5.95 14.12 10.76
11/8/2021 11:15:00 AM 11.79 53.222 0 5.71 12.35 10.39
11/8/2021 11:30:00 AM 13.21 55.778 0 5.82 11.97 10.07
11/8/2021 11:45:00 AM 14.5 58.1 0 5.55 11.83 9.84
11/8/2021 12:00:00 PM 15.59 60.062 0 5.69 15.3 9.62
11/8/2021 12:15:00 PM 16.71 62.078 0 5.57 11.71 9.38
11/8/2021 12:30:00 PM 17.56 63.608 0 5.53 11.61 9.31
11/8/2021 12:45:00 PM 18.14 64.652 0 5.53 11.56 9.3
11/8/2021 1:00:00 PM 19.02 66.236 0 5.48 11.56 9.22
11/8/2021 1:15:00 PM 19.93 67.874 0 5.5 11.54 9.13
11/8/2021 1:30:00 PM 20.66 69.188 0 5.48 11.57 9.06
11/8/2021 1:45:00 PM 20.52 68.936 0 5.5 11.69 9.03
11/8/2021 2:00:00 PM 19.61 67.298 0 5.52 11.74 9.19
11/8/2021 2:15:00 PM 19.01 66.218 0 5.55 11.78 9.32
11/8/2021 2:30:00 PM 19.53 67.154 0 5.56 11.76 9.23
11/8/2021 2:45:00 PM 19.19 66.542 0 5.58 11.87 9.22
11/8/2021 3:00:00 PM 18.53 65.354 0 5.61 11.95 9.29
11/8/2021 3:15:00 PM 18.25 64.85 0 5.63 12 9.3
11/8/2021 3:30:00 PM 17.01 62.618 0 5.65 12.13 9.52
11/8/2021 3:45:00 PM 16.57 61.826 0 5.66 12.18 9.54
11/8/2021 4:00:00 PM 14.47 58.046 0 5.69 12.35 10.02
11/8/2021 4:15:00 PM 13.06 55.508 0 5.73 12.46 10.3
11/8/2021 4:30:00 PM 11.76 53.168 0 5.78 12.6 10.61
11/8/2021 4:45:00 PM 10.59 51.062 0 5.77 12.78 10.92
11/8/2021 5:00:00 PM 9.55 49.19 0 5.82 12.79 11.19
11/8/2021 5:15:00 PM 8.65 47.57 0 5.86 12.94 11.45
11/8/2021 5:30:00 PM 7.85 46.13 0 5.93 13 11.69
11/8/2021 5:45:00 PM 7.33 45.194 0 6.02 13.02 11.83
11/8/2021 6:00:00 PM 6.86 44.348 0 6.08 13.09 11.98
11/8/2021 6:15:00 PM 6.58 43.844 0 6.14 13.14 12.06
11/8/2021 6:30:00 PM 6.32 43.376 0 6.13 13.17 12.14
11/8/2021 6:45:00 PM 6.02 42.836 0 6.18 13.22 12.24
11/8/2021 7:00:00 PM 5.74 42.332 0 6.15 13.25 12.34
11/8/2021 7:15:00 PM 5.51 41.918 0 6.19 13.29 12.41
11/8/2021 7:30:00 PM 5.26 41.468 0 6.24 13.29 12.48
11/8/2021 7:45:00 PM 5.05 41.09 0 6.25 13.28 12.57
11/8/2021 8:00:00 PM 4.87 40.766 0 6.25 13.26 12.6
11/8/2021 8:15:00 PM 4.64 40.352 0 6.16 13.26 12.7
11/8/2021 8:30:00 PM 4.48 40.064 0 6.21 13.3 12.74
11/8/2021 8:45:00 PM 4.28 39.704 0 6.22 13.25 12.83
11/8/2021 9:00:00 PM 4.13 39.434 0 6.26 13.08 12.88
11/8/2021 9:15:00 PM 3.98 39.164 0 6.22 13.15 12.93
11/8/2021 9:30:00 PM 3.85 38.93 0 6.29 13.23 12.97
11/8/2021 9:45:00 PM 3.69 38.642 0 6.24 13.23 13.03
11/8/2021 10:00:00 PM 3.59 38.462 0 6.31 13.1 13.08
11/8/2021 10:15:00 PM 3.5 38.3 0 6.27 12.86 13.11
11/8/2021 10:30:00 PM 3.39 38.102 0 6.29 12.88 13.14
11/8/2021 10:45:00 PM 3.29 37.922 0 6.26 12.67 13.19
11/8/2021 11:00:00 PM 3.23 37.814 0 6.36 12.54 13.2
11/8/2021 11:15:00 PM 3.12 37.616 0 6.27 13.11 13.22
11/8/2021 11:30:00 PM 3.04 37.472 0 6.31 12.47 13.26
11/8/2021 11:45:00 PM 2.94 37.292 0 6.33 12.95 13.3
11/9/2021 12:00:00 AM 2.92 37.256 0 6.33 12.99 13.3
11/9/2021 12:15:00 AM 2.86 37.148 0 6.31 12.99 13.32
11/9/2021 12:30:00 AM 2.78 37.004 0 6.31 12.91 13.35
11/9/2021 12:45:00 AM 2.72 36.896 0 6.35 12.54 13.38
11/9/2021 1:00:00 AM 2.65 36.77 0 6.33 12.58 13.4
11/9/2021 1:15:00 AM 2.6 36.68 0 6.29 12.3 13.43
11/9/2021 1:30:00 AM 2.49 36.482 0 6.28 12.81 13.45
11/9/2021 1:45:00 AM 2.43 36.374 0 6.31 13.14 13.48
11/9/2021 2:00:00 AM 2.35 36.23 0 6.28 13.17 13.52
11/9/2021 2:15:00 AM 2.3 36.14 0 6.31 12.89 13.54
11/9/2021 2:30:00 AM 2.24 36.032 0 6.35 13.01 13.57
11/9/2021 2:45:00 AM 2.16 35.888 0 6.31 12.92 13.6
11/9/2021 3:00:00 AM 2.13 35.834 0 6.32 12.88 13.62
11/9/2021 3:15:00 AM 2.09 35.762 0 6.25 12.66 13.62
11/9/2021 3:30:00 AM 2.05 35.69 0 6.32 12.01 13.66
11/9/2021 3:45:00 AM 1.97 35.546 0 6.3 12.23 13.68
11/9/2021 4:00:00 AM 1.94 35.492 0 6.37 12.93 13.68
11/9/2021 4:15:00 AM 1.87 35.366 0 6.29 12.61 13.72
11/9/2021 4:30:00 AM 1.77 35.186 0 6.31 13.21 13.76
11/9/2021 4:45:00 AM 1.75 35.15 0 6.31 12.33 13.78
11/9/2021 5:00:00 AM 1.67 35.006 0 6.28 12.89 13.82
11/9/2021 5:15:00 AM 1.68 35.024 0 6.31 12.3 13.82
11/9/2021 5:30:00 AM 1.68 35.024 0 6.32 12.96 13.79
11/9/2021 5:45:00 AM 1.63 34.934 0 6.34 12.21 13.83
11/9/2021 6:00:00 AM 1.63 34.934 0 6.4 13.56 13.82
11/9/2021 6:15:00 AM 1.52 34.736 0 6.32 12.77 13.86
11/9/2021 6:30:00 AM 1.5 34.7 0 6.25 12.44 13.88
11/9/2021 6:45:00 AM 1.51 34.718 0 6.34 12.47 13.87
11/9/2021 7:00:00 AM 1.47 34.646 0 6.31 12.35 13.89
11/9/2021 7:15:00 AM 1.54 34.772 0.001 6.33 11.93 13.86
11/9/2021 7:30:00 AM 1.62 34.916 0.001 6.36 11.44 13.82
11/9/2021 7:45:00 AM 1.78 35.204 0.001 6.41 11.6 13.75
11/9/2021 8:00:00 AM 1.96 35.528 0.001 6.44 10.85 13.67
11/9/2021 8:15:00 AM 2.21 35.978 0.001 6.47 10.02 13.55
11/9/2021 8:30:00 AM 2.68 36.824 0.001 6.52 9.92 13.36
11/9/2021 8:45:00 AM 3.16 37.688 0.001 6.59 9.93 13.16
11/9/2021 9:00:00 AM 3.59 38.462 0.001 6.54 9.87 12.99
11/9/2021 9:15:00 AM 3.98 39.164 0.001 6.55 10.2 12.84
11/9/2021 9:30:00 AM 5.17 41.306 0.001 6.61 10 12.38
11/9/2021 9:45:00 AM 6.63 43.934 0 6.66 10.28 11.85
11/9/2021 10:00:00 AM 8 46.4 0 6.79 10.81 11.44
11/9/2021 10:15:00 AM 9.28 48.704 0 6.75 11.1 11.06
11/9/2021 10:30:00 AM 10.16 50.288 0 6.7 11.43 10.82
11/9/2021 10:45:00 AM 11.13 52.034 0 6.59 11.15 10.52
11/9/2021 11:00:00 AM 12.45 54.41 0 6.39 11.51 10.18
11/9/2021 11:15:00 AM 13.76 56.768 0 6.18 11.79 9.87
11/9/2021 11:30:00 AM 15.1 59.18 0 5.91 14.59 9.59
11/9/2021 11:45:00 AM 15.81 60.458 0 5.7 12.75 9.52
11/9/2021 12:00:00 PM 16.67 62.006 0 5.5 12.85 9.44
11/9/2021 12:15:00 PM 17.77 63.986 0 5.59 12.86 9.23
11/9/2021 12:30:00 PM 18.37 65.066 0 5.58 12.75 9.15
11/9/2021 12:45:00 PM 19.19 66.542 0 5.51 12.83 9.03
11/9/2021 1:00:00 PM 19.92 67.856 0 5.52 13.2 8.98
11/9/2021 1:15:00 PM 20.42 68.756 0 5.52 13.34 8.95
11/9/2021 1:30:00 PM 20.39 68.702 0 5.51 13.61 8.94
11/9/2021 1:45:00 PM 20.17 68.306 0 5.55 13.6 8.94
11/9/2021 2:00:00 PM 18.87 65.966 0 5.57 13.65 9.12
11/9/2021 2:15:00 PM 17.75 63.95 0 5.6 13.62 9.29
11/9/2021 2:30:00 PM 17 62.6 0 5.62 13.52 9.43
11/9/2021 2:45:00 PM 16.4 61.52 0 5.65 13.52 9.52
11/9/2021 3:00:00 PM 15.89 60.602 0 5.73 13.44 9.62
11/9/2021 3:15:00 PM 15.29 59.522 0 5.77 13.43 9.74
11/9/2021 3:30:00 PM 14.68 58.424 0 5.8 13.43 9.86
11/9/2021 3:45:00 PM 14.1 57.38 0 5.83 13.42 9.98
11/9/2021 4:00:00 PM 13.68 56.624 0 5.89 13.45 10.07
11/9/2021 4:15:00 PM 13.2 55.76 0 5.91 13.46 10.18
11/9/2021 4:30:00 PM 12.79 55.022 0 5.97 13.4 10.27
11/9/2021 4:45:00 PM 12.47 54.446 0 6.01 13.4 10.35
11/9/2021 5:00:00 PM 12.12 53.816 0 6.02 13.49 10.43
11/9/2021 5:15:00 PM 11.82 53.276 0 6.07 13.48 10.5
11/9/2021 5:30:00 PM 11.52 52.736 0 6.08 13.54 10.57
11/9/2021 5:45:00 PM 11.26 52.268 0 6.11 13.55 10.64
11/9/2021 6:00:00 PM 11.07 51.926 0 6.15 15.69 10.67
11/9/2021 6:15:00 PM 10.91 51.638 0 6.17 13.47 10.73
11/9/2021 6:30:00 PM 10.76 51.368 0 6.19 13.5 10.77
11/9/2021 6:45:00 PM 10.63 51.134 0 6.19 15.58 10.79
11/9/2021 7:00:00 PM 10.52 50.936 0 6.23 13.42 10.81
11/9/2021 7:15:00 PM 10.42 50.756 0 6.24 13.41 10.84
11/9/2021 7:30:00 PM 10.3 50.54 0 6.25 13.49 10.88
11/9/2021 7:45:00 PM 10.18 50.324 0 6.25 13.47 10.91
11/9/2021 8:00:00 PM 10.09 50.162 0 6.25 13.41 10.93
11/9/2021 8:15:00 PM 10.01 50.018 0 6.26 13.28 10.95
11/9/2021 8:30:00 PM 9.93 49.874 0 6.26 13.32 10.96
11/9/2021 8:45:00 PM 9.81 49.658 0 6.27 13.24 11
11/9/2021 9:00:00 PM 9.6 49.28 0 6.24 15.33 11.07
11/9/2021 9:15:00 PM 9.45 49.01 0 6.26 13.29 11.11
11/9/2021 9:30:00 PM 9.32 48.776 0 6.29 13.24 11.14
11/9/2021 9:45:00 PM 9.13 48.434 0 6.24 13.45 11.19
11/9/2021 10:00:00 PM 9.06 48.308 0 6.25 13.36 11.21
11/9/2021 10:15:00 PM 9.04 48.272 0 6.29 13.01 11.22
11/9/2021 10:30:00 PM 9.03 48.254 0 6.31 12.61 11.22
11/9/2021 10:45:00 PM 9.01 48.218 0 6.31 12.66 11.22
11/9/2021 11:00:00 PM 9 48.2 0 6.31 12.7 11.22
11/9/2021 11:15:00 PM 8.95 48.11 0 6.33 12.59 11.23
11/9/2021 11:30:00 PM 8.84 47.912 0 6.32 12.67 11.26
11/9/2021 11:45:00 PM 8.67 47.606 0 6.3 13.23 11.3
11/10/2021 12:00:00 AM 8.56 47.408 0 6.31 12.84 11.33
11/10/2021 12:15:00 AM 8.51 47.318 0 6.3 12.74 11.35
11/10/2021 12:30:00 AM 8.45 47.21 0 6.31 12.67 11.37
11/10/2021 12:45:00 AM 8.32 46.976 0 6.27 12.87 11.41
11/10/2021 1:00:00 AM 8.19 46.742 0 6.31 13.04 11.45
11/10/2021 1:15:00 AM 7.98 46.364 0 6.29 13.37 11.5
11/10/2021 1:30:00 AM 7.84 46.112 0 6.28 13.47 11.55
11/10/2021 1:45:00 AM 7.81 46.058 0 6.29 12.91 11.56
11/10/2021 2:00:00 AM 7.81 46.058 0 6.34 12.56 11.56
11/10/2021 2:15:00 AM 7.81 46.058 0 6.33 12.06 11.56
11/10/2021 2:30:00 AM 7.88 46.184 0 6.36 11.69 11.54
11/10/2021 2:45:00 AM 7.94 46.292 0 6.37 11.41 11.51
11/10/2021 3:00:00 AM 7.99 46.382 0 6.37 11.39 11.49
11/10/2021 3:15:00 AM 8.08 46.544 0 6.38 10.78 11.47
11/10/2021 3:30:00 AM 8.29 46.922 0 6.41 10.1 11.41
11/10/2021 3:45:00 AM 8.45 47.21 0 6.44 9.51 11.37
11/10/2021 4:00:00 AM 8.57 47.426 0 6.45 10.12 11.34
11/10/2021 4:15:00 AM 8.64 47.552 0 6.43 10.49 11.32
11/10/2021 4:30:00 AM 8.74 47.732 0.001 6.4 13.13 11.29
11/10/2021 4:45:00 AM 8.73 47.714 0 6.39 11.74 11.3
11/10/2021 5:00:00 AM 8.72 47.696 0 6.39 11.53 11.31
11/10/2021 5:15:00 AM 8.71 47.678 0 6.38 11.7 11.31
11/10/2021 5:30:00 AM 8.72 47.696 0 6.38 11.36 11.31
11/10/2021 5:45:00 AM 8.74 47.732 0 6.38 11.42 11.31
11/10/2021 6:00:00 AM 8.74 47.732 0 6.37 11.65 11.32
11/10/2021 6:15:00 AM 8.73 47.714 0 6.36 11.31 11.32
11/10/2021 6:30:00 AM 8.72 47.696 0 6.35 11.6 11.33
11/10/2021 6:45:00 AM 8.69 47.642 0 6.34 11.4 11.34
11/10/2021 7:00:00 AM 8.67 47.606 0 6.33 11 11.35
11/10/2021 7:15:00 AM 8.64 47.552 0 6.34 10.89 11.36
11/10/2021 7:30:00 AM 8.64 47.552 0.001 6.34 10.63 11.36
11/10/2021 7:45:00 AM 8.48 47.264 0.001 6.31 11.2 11.43
11/10/2021 8:00:00 AM 8.43 47.174 0.001 6.31 10.9 11.45
11/10/2021 8:15:00 AM 8.69 47.642 0.001 6.35 10.22 11.36
11/10/2021 8:30:00 AM 8.89 48.002 0.001 6.36 10.39 11.31
11/10/2021 8:45:00 AM 8.99 48.182 0.001 6.34 10.86 11.3
11/10/2021 9:00:00 AM 9.3 48.74 0.001 6.36 10.94 11.2
11/10/2021 9:15:00 AM 9.06 48.308 0 6.21 13.18 11.28
11/10/2021 9:30:00 AM 9.22 48.596 0 6.21 14.44 11.23
11/10/2021 9:45:00 AM 9.1 48.38 0 6.09 14.93 11.26
11/10/2021 10:00:00 AM 9.11 48.398 0 6.09 13.94 11.25
11/10/2021 10:15:00 AM 9.31 48.758 0 6.08 13.31 11.19
11/10/2021 10:30:00 AM 9.48 49.064 0 5.96 13.4 11.13
11/10/2021 10:45:00 AM 10.22 50.396 0 5.9 13.4 10.88
11/10/2021 11:00:00 AM 12.16 53.888 0 5.85 13.22 10.3
11/10/2021 11:15:00 AM 12.44 54.392 0 5.8 13.02 10.31
11/10/2021 11:30:00 AM 13.86 56.948 0 5.68 13.3 9.94
11/10/2021 11:45:00 AM 14.91 58.838 0 5.64 13.84 9.72
11/10/2021 12:00:00 PM 15.65 60.17 0 5.56 14.13 9.6
11/10/2021 12:15:00 PM 16.06 60.908 0 5.54 14.53 9.62
11/10/2021 12:30:00 PM 16.66 61.988 0 5.52 14.99 9.56
11/10/2021 12:45:00 PM 17.31 63.158 0 5.52 15.96 9.5
11/10/2021 1:00:00 PM 17.69 63.842 0 5.53 17.72 9.48
11/10/2021 1:15:00 PM 18.38 65.084 0 5.54 21.22 9.43
11/10/2021 1:30:00 PM 18.72 65.696 0 5.55 21.59 9.36
11/10/2021 1:45:00 PM 18.48 65.264 0 5.58 29.63 9.34
11/10/2021 2:00:00 PM 17.08 62.744 0 5.62 36.58 9.53
11/10/2021 2:15:00 PM 16.01 60.818 0 5.64 36.57 9.7
11/10/2021 2:30:00 PM 16.06 60.908 0 5.65 38.07 9.78
11/10/2021 2:45:00 PM 16.13 61.034 0 5.63 15.24 9.67
11/10/2021 3:00:00 PM 15.76 60.368 0 5.49 59.34 9.81
11/10/2021 3:15:00 PM 16.02 60.836 0 5.66 489.13 9.69
11/10/2021 3:30:00 PM 15.82 60.476 0 5.67 11.22 9.74
11/10/2021 3:45:00 PM 15.43 59.774 0 5.66 11.31 9.74
11/10/2021 4:00:00 PM 13.46 56.228 0 5.68 13.41 10.21
11/10/2021 4:15:00 PM 12.02 53.636 0 5.7 11.22 10.55
11/10/2021 4:30:00 PM 10.8 51.44 0 5.71 14.53 10.85
11/10/2021 4:45:00 PM 9.59 49.262 0 5.72 11.46 11.18
11/10/2021 5:00:00 PM 8.52 47.336 0 5.75 14.87 11.5
11/10/2021 5:15:00 PM 7.58 45.644 0 5.76 14.7 11.77
11/10/2021 5:30:00 PM 6.88 44.384 0 5.77 11.57 12.01
11/10/2021 5:45:00 PM 6.45 43.61 0 5.8 11.53 12.17
11/10/2021 6:00:00 PM 6 42.8 0 5.79 11.53 12.3
11/10/2021 6:15:00 PM 5.68 42.224 0 5.84 11.57 12.38
11/10/2021 6:30:00 PM 5.37 41.666 0 5.88 11.46 12.54
11/10/2021 6:45:00 PM 5.09 41.162 0 5.9 11.55 12.54
11/10/2021 7:00:00 PM 4.98 40.964 0 5.94 11.36 12.6
11/10/2021 7:15:00 PM 4.81 40.658 0 5.97 10.69 12.69
11/10/2021 7:30:00 PM 4.66 40.388 0 6.01 11.18 12.72
11/10/2021 7:45:00 PM 4.51 40.118 0 6.05 10.86 12.77
11/10/2021 8:00:00 PM 4.32 39.776 0 6.01 10.68 12.84
11/10/2021 8:15:00 PM 4.14 39.452 0 6.03 11.04 12.89
11/10/2021 8:30:00 PM 3.93 39.074 0 6.04 9.47 13
11/10/2021 8:45:00 PM 3.76 38.768 0 6.12 14.14 13.05
11/10/2021 9:00:00 PM 3.55 38.39 0 6.07 13.73 13.15
11/10/2021 9:15:00 PM 3.47 38.246 0 6.05 13.38 13.13
11/10/2021 9:30:00 PM 3.42 38.156 0 6.08 18.53 13.16
11/10/2021 9:45:00 PM 3.37 38.066 0 6.08 9.34 13.21
11/10/2021 10:00:00 PM 3.3 37.94 0 6.1 22.57 13.2
11/10/2021 10:15:00 PM 3.13 37.634 0 6.08 14.15 13.27
11/10/2021 10:30:00 PM 2.87 37.166 0 6.15 11.02 13.4
11/10/2021 10:45:00 PM 2.8 37.04 0 6.1 14.54 13.38
11/10/2021 11:00:00 PM 2.72 36.896 0 6.16 12.23 13.42
11/10/2021 11:15:00 PM 2.74 36.932 0 6.16 15.98 13.4
11/10/2021 11:30:00 PM 2.69 36.842 0 6.17 8.8 13.46
11/10/2021 11:45:00 PM 2.61 36.698 0 6.15 10.11 13.49
11/11/2021 12:00:00 AM 2.49 36.482 0 6.17 10.9 13.53
11/11/2021 12:15:00 AM 2.37 36.266 0 6.1 10.91 13.56
11/11/2021 12:30:00 AM 2.35 36.23 0 6.15 10.83 13.56
11/11/2021 12:45:00 AM 2.19 35.942 0 6.14 14.05 13.63
11/11/2021 1:00:00 AM 2.07 35.726 0 6.08 10.56 13.69
11/11/2021 1:15:00 AM 2 35.6 0 6.11 11.3 13.7
11/11/2021 1:30:00 AM 1.84 35.312 0 6.11 12.07 13.75
11/11/2021 1:45:00 AM 1.67 35.006 0 6.08 10.71 13.85
11/11/2021 2:00:00 AM 1.67 35.006 0 6.11 10.98 13.83
11/11/2021 2:15:00 AM 1.64 34.952 0 6.17 10.37 13.85
11/11/2021 2:30:00 AM 1.59 34.862 0 6.16 13.74 13.84
11/11/2021 2:45:00 AM 1.53 34.754 0.001 6.11 9.78 13.91
11/11/2021 3:00:00 AM 1.47 34.646 0.001 6.12 11.44 13.91
11/11/2021 3:15:00 AM 1.37 34.466 0.001 6.1 10.76 13.96
11/11/2021 3:30:00 AM 1.32 34.376 0.001 6.1 10.74 13.99
11/11/2021 3:45:00 AM 1.28 34.304 0.001 6.14 15.62 13.97
11/11/2021 4:00:00 AM 1.22 34.196 0.001 6.09 10.57 14.02
11/11/2021 4:15:00 AM 1.16 34.088 0.001 6.07 10.92 14.05
11/11/2021 4:30:00 AM 1.17 34.106 0.001 6.12 10.93 14.05
11/11/2021 4:45:00 AM 1.2 34.16 0.001 6.12 14.06 14.01
11/11/2021 5:00:00 AM 1.3 34.34 0.001 6.13 12.45 13.96
11/11/2021 5:15:00 AM 1.37 34.466 0.001 6.11 12.98 13.92
11/11/2021 5:30:00 AM 1.51 34.718 0.001 6.24 12.08 13.88
11/11/2021 5:45:00 AM 1.53 34.754 0.001 6.2 10.09 13.89
11/11/2021 6:00:00 AM 1.61 34.898 0.001 6.19 10.4 13.84
11/11/2021 6:15:00 AM 1.56 34.808 0.001 6.13 13.13 13.83
11/11/2021 6:30:00 AM 1.57 34.826 0.001 6.09 12.98 13.84
11/11/2021 6:45:00 AM 1.67 35.006 0.001 6.1 11.77 13.79
11/11/2021 7:00:00 AM 1.87 35.366 0.001 6.18 9.65 13.72
11/11/2021 7:15:00 AM 2.13 35.834 0.001 6.15 9.96 13.6
11/11/2021 7:30:00 AM 2.43 36.374 0.001 6.19 10.04 13.48
11/11/2021 7:45:00 AM 2.75 36.95 0.001 6.26 10.36 13.36
11/11/2021 8:00:00 AM 2.91 37.238 0.001 6.18 10.5 13.28
11/11/2021 8:15:00 AM 2.98 37.364 0.001 6.13 12.2 13.25
11/11/2021 8:30:00 AM 3.05 37.49 0 6.07 12.49 13.22
11/11/2021 8:45:00 AM 3.1 37.58 0 6.02 13.44 13.19
11/11/2021 9:00:00 AM 3.41 38.138 0 6.12 10.6 13.09
11/11/2021 9:15:00 AM 3.82 38.876 0 6.11 11.63 12.92
11/11/2021 9:30:00 AM 4.63 40.334 0 6.22 10.15 12.6
11/11/2021 9:45:00 AM 5.61 42.098 0 6.2 11.24 12.23
11/11/2021 10:00:00 AM 6.49 43.682 0 6.09 11.93 11.93
11/11/2021 10:15:00 AM 7.19 44.942 0 5.94 14.78 11.7
11/11/2021 10:30:00 AM 7.3 45.14 0 5.79 15.08 11.69
11/11/2021 10:45:00 AM 7.8 46.04 0 5.73 15.21 11.54
11/11/2021 11:00:00 AM 8.43 47.174 0 5.88 15.04 11.37
11/11/2021 11:15:00 AM 8.99 48.182 0 5.72 15.16 11.21
11/11/2021 11:30:00 AM 10.01 50.018 0 5.76 15.06 10.93
11/11/2021 11:45:00 AM 10.62 51.116 0 5.73 15.21 10.77
11/11/2021 12:00:00 PM 10.78 51.404 0 5.81 15.21 10.76
11/11/2021 12:15:00 PM 10.95 51.71 0 5.73 15.21 10.73
11/11/2021 12:30:00 PM 11.65 52.97 0 5.71 15.17 10.56
11/11/2021 12:45:00 PM 11.93 53.474 0 5.68 15.19 10.48
11/11/2021 1:00:00 PM 11.92 53.456 0 5.67 15.3 10.49
11/11/2021 1:15:00 PM 12.02 53.636 0 5.71 15.24 10.44
11/11/2021 1:30:00 PM 12.05 53.69 0 5.77 15.17 10.47
11/11/2021 1:45:00 PM 12.13 53.834 0 5.76 15.15 10.45
11/11/2021 2:00:00 PM 12.28 54.104 0 5.76 15.2 10.41
11/11/2021 2:15:00 PM 12.36 54.248 0 5.75 15.18 10.4
11/11/2021 2:30:00 PM 12.27 54.086 0 5.8 15.47 10.42
11/11/2021 2:45:00 PM 12.09 53.762 0 5.8 14.93 10.45
11/11/2021 3:00:00 PM 11.92 53.456 0 5.83 15.18 10.5
11/11/2021 3:15:00 PM 11.79 53.222 0 5.86 15.19 10.54
11/11/2021 3:30:00 PM 11.73 53.114 0 5.91 15.17 10.56
11/11/2021 3:45:00 PM 11.7 53.06 0 5.9 15.22 10.56
11/11/2021 4:00:00 PM 11.36 52.448 0 5.81 15.56 10.65
11/11/2021 4:15:00 PM 10.94 51.692 0 5.92 15.25 10.75
11/11/2021 4:30:00 PM 10.54 50.972 0 5.97 15.21 10.86
11/11/2021 4:45:00 PM 10.12 50.216 0 5.97 15.28 10.96
11/11/2021 5:00:00 PM 9.84 49.712 0 5.99 15.18 11.01
11/11/2021 5:15:00 PM 9.56 49.208 0 6 15.2 11.1
11/11/2021 5:30:00 PM 9.36 48.848 0 5.98 15.19 11.14
11/11/2021 5:45:00 PM 9.18 48.524 0 6.01 15.04 11.19
11/11/2021 6:00:00 PM 9.01 48.218 0 6.03 15.14 11.25
11/11/2021 6:15:00 PM 8.85 47.93 0 6.05 14.99 11.28
11/11/2021 6:30:00 PM 8.81 47.858 0 6.05 15.23 11.29
11/11/2021 6:45:00 PM 8.67 47.606 0 6.03 15.11 11.31
11/11/2021 7:00:00 PM 8.6 47.48 0 6.06 14.95 11.34
11/11/2021 7:15:00 PM 8.57 47.426 0 6.03 14.94 11.35
11/11/2021 7:30:00 PM 8.52 47.336 0 6.08 14.75 11.36
11/11/2021 7:45:00 PM 8.53 47.354 0 6.06 14.45 11.35
11/11/2021 8:00:00 PM 8.56 47.408 0 6.06 14.28 11.33
11/11/2021 8:15:00 PM 8.64 47.552 0 6.07 14.08 11.31
11/11/2021 8:30:00 PM 8.62 47.516 0 6.07 13.84 11.32
11/11/2021 8:45:00 PM 8.62 47.516 0 6.04 14.21 11.31
11/11/2021 9:00:00 PM 8.86 47.948 0 6.08 13.41 11.22
11/11/2021 9:15:00 PM 9.08 48.344 0 6.09 15.28 11.16
11/11/2021 9:30:00 PM 9.23 48.614 0 6.09 12.47 11.12
11/11/2021 9:45:00 PM 9.4 48.92 0 6.08 13.29 11.07
11/11/2021 10:00:00 PM 9.63 49.334 0 6.05 12.88 10.99
11/11/2021 10:15:00 PM 9.88 49.784 0 6.13 12.41 10.92
11/11/2021 10:30:00 PM 10 50 0 6.09 12.78 10.89
11/11/2021 10:45:00 PM 10.11 50.198 0 6.14 13.16 10.86
11/11/2021 11:00:00 PM 10.24 50.432 0.001 6.13 13.12 10.82
11/11/2021 11:15:00 PM 10.31 50.558 0.001 6.1 13.42 10.81
11/11/2021 11:30:00 PM 10.54 50.972 0.001 6.22 11.89 10.75
11/11/2021 11:45:00 PM 10.57 51.026 0.001 6.31 13.87 10.74
11/12/2021 12:00:00 AM 10.61 51.098 0.001 6.38 12.53 10.73
11/12/2021 12:15:00 AM 10.64 51.152 0.001 6.47 12.92 10.71
11/12/2021 12:30:00 AM 10.71 51.278 0 6.44 10.7 10.68
11/12/2021 12:45:00 AM 10.67 51.206 0.001 6.5 10.27 10.69
11/12/2021 1:00:00 AM 10.78 51.404 0.002 6.52 16.05 10.66
11/12/2021 1:15:00 AM 10.82 51.476 0.001 6.55 10.16 10.65
11/12/2021 1:30:00 AM 10.91 51.638 0.002 6.55 11.73 10.62
11/12/2021 1:45:00 AM 10.94 51.692 0.001 6.6 7.94 10.62
11/12/2021 2:00:00 AM 10.98 51.764 0.001 6.69 8.34 10.61
11/12/2021 2:15:00 AM 11.01 51.818 0.001 6.73 7.82 10.59
11/12/2021 2:30:00 AM 11.05 51.89 0 6.72 7.11 10.59
11/12/2021 2:45:00 AM 11.08 51.944 0 6.72 7.18 10.58
11/12/2021 3:00:00 AM 11.07 51.926 0.001 6.72 6.59 10.58
11/12/2021 3:15:00 AM 11.13 52.034 0 6.73 7.38 10.58
11/12/2021 3:30:00 AM 11.26 52.268 0 6.75 8.02 10.54
11/12/2021 3:45:00 AM 11.46 52.628 0 6.77 10.86 10.49
11/12/2021 4:00:00 AM 11.57 52.826 0 6.86 9.29 10.46
11/12/2021 4:15:00 AM 11.68 53.024 0 6.91 10.3 10.43
11/12/2021 4:30:00 AM 11.83 53.294 0 6.94 9.02 10.39
11/12/2021 4:45:00 AM 11.92 53.456 0 6.86 9.33 10.39
11/12/2021 5:00:00 AM 12.01 53.618 0 6.82 11.57 10.35
11/12/2021 5:15:00 AM 12.04 53.672 0 6.89 7.38 10.34
11/12/2021 5:30:00 AM 12.11 53.798 0 6.84 10.87 10.33
11/12/2021 5:45:00 AM 12.14 53.852 0.006 6.7 7.14 10.33
11/12/2021 6:00:00 AM 12.01 53.618 0 6.88 8.22 10.36
11/12/2021 6:15:00 AM 11.8 53.24 0 6.91 7.53 10.41
11/12/2021 6:30:00 AM 11.23 52.214 0 7.12 5.72 10.6
11/12/2021 6:45:00 AM 9.44 48.992 0.118 6.95 58.94 10.59
11/12/2021 7:00:00 AM 9.51 49.118 0.119 6.94 112.66 10.58
11/12/2021 7:15:00 AM 9.72 49.496 0.106 6.93 437.12 10.6
11/12/2021 7:30:00 AM 9.84 49.712 0.101 6.9 505.54 10.56
11/12/2021 7:45:00 AM 9.85 49.73 0.099 6.9 486.26 10.58
11/12/2021 8:00:00 AM 9.89 49.802 0.093 6.89 502.6 10.58
11/12/2021 8:15:00 AM 9.94 49.892 0.088 6.87 542.76 10.58
11/12/2021 8:30:00 AM 9.98 49.964 0.084 6.86 622.01 10.58
11/12/2021 8:45:00 AM 9.99 49.982 0.079 6.85 363.89 10.57
11/12/2021 9:00:00 AM 9.97 49.946 0.083 6.85 259.52 10.58
11/12/2021 9:15:00 AM 9.94 49.892 0.083 6.85 290.18 10.59
11/12/2021 9:30:00 AM 9.92 49.856 0.081 6.84 250.22 10.6
11/12/2021 9:45:00 AM 9.9 49.82 0.078 6.84 232.16 10.61
11/12/2021 10:00:00 AM 9.91 49.838 0.073 6.82 200.79 10.62
11/12/2021 10:15:00 AM 9.91 49.838 0.075 6.82 209.8 10.62
11/12/2021 10:30:00 AM 9.92 49.856 0.071 6.81 165.64 10.64
11/12/2021 10:45:00 AM 9.92 49.856 0.071 6.82 157.78 10.63
11/12/2021 11:00:00 AM 9.93 49.874 0.075 6.83 147.01 10.63
11/12/2021 11:15:00 AM 9.95 49.91 0.075 6.82 142.34 10.64
11/12/2021 11:30:00 AM 9.97 49.946 0.075 6.82 125.13 10.63
11/12/2021 11:45:00 AM 9.99 49.982 0.075 6.83 134.54 10.63
11/12/2021 12:00:00 PM 10.03 50.054 0.072 6.82 102.64 10.62
11/12/2021 12:15:00 PM 10.08 50.144 0.076 6.85 107.55 10.62
11/12/2021 12:30:00 PM 10.11 50.198 0.077 6.85 106.33 10.61
11/12/2021 12:45:00 PM 10.15 50.27 0.077 6.85 111.53 10.61
11/12/2021 1:00:00 PM 10.19 50.342 0.077 6.85 101.52 10.6
11/12/2021 1:15:00 PM 10.22 50.396 0.077 6.85 104.2 10.59
11/12/2021 1:30:00 PM 10.25 50.45 0.077 6.86 98.56 10.58
11/12/2021 1:45:00 PM 10.27 50.486 0.077 6.85 97.93 10.57
11/12/2021 2:00:00 PM 10.29 50.522 0.077 6.86 102.99 10.56
11/12/2021 2:15:00 PM 10.29 50.522 0.077 6.85 92.72 10.55
11/12/2021 2:30:00 PM 10.3 50.54 0.076 6.86 95.44 10.54
11/12/2021 2:45:00 PM 10.3 50.54 0.076 6.85 89.93 10.54
11/12/2021 3:00:00 PM 10.28 50.504 0.076 6.85 90.76 10.53
11/12/2021 3:15:00 PM 10.26 50.468 0.077 6.85 81.96 10.53
11/12/2021 3:30:00 PM 10.24 50.432 0.077 6.86 86.88 10.53
11/12/2021 3:45:00 PM 10.21 50.378 0.077 6.85 76.59 10.52
11/12/2021 4:00:00 PM 10.18 50.324 0.077 6.85 76.34 10.52
11/12/2021 4:15:00 PM 10.15 50.27 0.078 6.84 56.34 10.53
11/12/2021 4:30:00 PM 10.1 50.18 0.078 6.85 64.55 10.53
11/12/2021 4:45:00 PM 10.05 50.09 0.078 6.85 64.35 10.54
11/12/2021 5:00:00 PM 10 50 0.079 6.84 62.03 10.54
11/12/2021 5:15:00 PM 9.94 49.892 0.079 6.84 60.26 10.55
11/12/2021 5:30:00 PM 9.88 49.784 0.08 6.85 61.42 10.56
11/12/2021 5:45:00 PM 9.81 49.658 0.08 6.84 57.71 10.58
11/12/2021 6:00:00 PM 9.74 49.532 0.081 6.84 51.23 10.6
11/12/2021 6:15:00 PM 9.67 49.406 0.081 6.84 53.22 10.61
11/12/2021 6:30:00 PM 9.6 49.28 0.081 6.84 50.62 10.62
11/12/2021 6:45:00 PM 9.53 49.154 0.082 6.85 50.51 10.64
11/12/2021 7:00:00 PM 9.46 49.028 0.083 6.84 47.8 10.65
11/12/2021 7:15:00 PM 9.38 48.884 0.083 6.85 48.19 10.68
11/12/2021 7:30:00 PM 9.31 48.758 0.082 6.83 48.74 10.68
11/12/2021 7:45:00 PM 9.23 48.614 0.084 6.86 46.06 10.7
11/12/2021 8:00:00 PM 9.16 48.488 0.081 6.84 43.33 10.74
11/12/2021 8:15:00 PM 9.08 48.344 0.081 6.83 44.22 10.75
11/12/2021 8:30:00 PM 9.01 48.218 0.086 6.85 41.42 10.77
11/12/2021 8:45:00 PM 8.94 48.092 0.086 6.86 41.08 10.79
11/12/2021 9:00:00 PM 8.87 47.966 0.086 6.86 40.46 10.81
11/12/2021 9:15:00 PM 8.8 47.84 0.087 6.87 37.55 10.83
11/12/2021 9:30:00 PM 8.74 47.732 0.088 6.85 39.94 10.83
11/12/2021 9:45:00 PM 8.67 47.606 0.088 6.87 38.43 10.86
11/12/2021 10:00:00 PM 8.6 47.48 0.088 6.86 36.27 10.88
11/12/2021 10:15:00 PM 8.53 47.354 0.089 6.87 35.01 10.9
11/12/2021 10:30:00 PM 8.47 47.246 0.089 6.86 31.34 10.92
11/12/2021 10:45:00 PM 8.4 47.12 0.09 6.87 33.03 10.93
11/12/2021 11:00:00 PM 8.34 47.012 0.09 6.87 32.68 10.95
11/12/2021 11:15:00 PM 8.27 46.886 0.09 6.87 33.24 10.97
11/12/2021 11:30:00 PM 8.21 46.778 0.091 6.87 31.5 10.98
11/12/2021 11:45:00 PM 8.15 46.67 0.091 6.88 33.18 11
11/13/2021 12:00:00 AM 8.09 46.562 0.092 6.87 30.69 11.01
11/13/2021 12:15:00 AM 8.04 46.472 0.092 6.87 29.28 11.03
11/13/2021 12:30:00 AM 7.98 46.364 0.093 6.87 28.85 11.05
11/13/2021 12:45:00 AM 7.93 46.274 0.093 6.87 29.92 11.07
11/13/2021 1:00:00 AM 7.87 46.166 0.093 6.88 27.61 11.08
11/13/2021 1:15:00 AM 7.82 46.076 0.094 6.88 27.3 11.09
11/13/2021 1:30:00 AM 7.78 46.004 0.094 6.88 26.39 11.11
11/13/2021 1:45:00 AM 7.73 45.914 0.095 6.89 26.11 11.12
11/13/2021 2:00:00 AM 7.68 45.824 0.095 6.89 26.53 11.13
11/13/2021 2:15:00 AM 7.64 45.752 0.096 6.9 25.51 11.14
11/13/2021 2:30:00 AM 7.59 45.662 0.096 6.89 25.19 11.16
11/13/2021 2:45:00 AM 7.55 45.59 0.097 6.89 24.04 11.16
11/13/2021 3:00:00 AM 7.52 45.536 0.096 6.89 23.38 11.18
11/13/2021 3:15:00 AM 7.49 45.482 0.097 6.9 23.7 11.19
11/13/2021 3:30:00 AM 7.46 45.428 0.097 6.9 23.1 11.2
11/13/2021 3:45:00 AM 7.43 45.374 0.098 6.9 23.52 11.2
11/13/2021 4:00:00 AM 7.4 45.32 0.098 6.91 22.85 11.22
11/13/2021 4:15:00 AM 7.38 45.284 0.098 6.9 21.89 11.22
11/13/2021 4:30:00 AM 7.36 45.248 0.099 6.91 21.99 11.23
11/13/2021 4:45:00 AM 7.33 45.194 0.099 6.9 21.45 11.23
11/13/2021 5:00:00 AM 7.31 45.158 0.1 6.91 21.31 11.24
11/13/2021 5:15:00 AM 7.29 45.122 0.1 6.91 20.93 11.26
11/13/2021 5:30:00 AM 7.27 45.086 0.1 6.91 21.35 11.27
11/13/2021 5:45:00 AM 7.25 45.05 0.1 6.91 20.63 11.27
11/13/2021 6:00:00 AM 7.23 45.014 0.1 6.92 20.75 11.28
11/13/2021 6:15:00 AM 7.21 44.978 0.1 6.91 19.32 11.27
11/13/2021 6:30:00 AM 7.19 44.942 0.101 6.91 19.89 11.29
11/13/2021 6:45:00 AM 7.18 44.924 0.101 6.91 19.89 11.29
11/13/2021 7:00:00 AM 7.17 44.906 0.101 6.91 19.65 11.3
11/13/2021 7:15:00 AM 7.15 44.87 0.101 6.91 19.25 11.31
11/13/2021 7:30:00 AM 7.15 44.87 0.102 6.91 18.54 11.3
11/13/2021 7:45:00 AM 7.15 44.87 0.102 6.92 19.14 11.31
11/13/2021 8:00:00 AM 7.17 44.906 0.102 6.91 18.28 11.31
11/13/2021 8:15:00 AM 7.18 44.924 0.102 6.92 18.37 11.32
11/13/2021 8:30:00 AM 7.19 44.942 0.102 6.92 18.68 11.33
11/13/2021 8:45:00 AM 7.21 44.978 0.102 6.93 19.06 11.33
11/13/2021 9:00:00 AM 7.23 45.014 0.103 6.93 18.17 11.34
11/13/2021 9:15:00 AM 7.26 45.068 0.103 6.93 17.51 11.33
11/13/2021 9:30:00 AM 7.28 45.104 0.103 6.94 18.2 11.34
11/13/2021 9:45:00 AM 7.31 45.158 0.103 6.94 17.13 11.33
11/13/2021 10:00:00 AM 7.33 45.194 0.103 6.94 17.36 11.32
11/13/2021 10:15:00 AM 7.36 45.248 0.103 6.95 16.84 11.33
11/13/2021 10:30:00 AM 7.4 45.32 0.104 6.96 17.03 11.33
11/13/2021 10:45:00 AM 7.45 45.41 0.104 6.96 16.89 11.33
11/13/2021 11:00:00 AM 7.5 45.5 0.104 6.96 16.29 11.33
11/13/2021 11:15:00 AM 7.52 45.536 0.104 6.97 16.6 11.31
11/13/2021 11:30:00 AM 7.54 45.572 0.105 6.97 16.99 11.3
11/13/2021 11:45:00 AM 7.55 45.59 0.104 6.97 16.31 11.29
11/13/2021 12:00:00 PM 7.55 45.59 0.104 6.97 16.42 11.28
11/13/2021 12:15:00 PM 7.56 45.608 0.104 6.97 16.85 11.28
11/13/2021 12:30:00 PM 7.57 45.626 0.104 6.97 16.36 11.29
11/13/2021 12:45:00 PM 7.59 45.662 0.105 6.98 16.33 11.28
11/13/2021 1:00:00 PM 7.6 45.68 0.105 6.97 15.87 11.28
11/13/2021 1:15:00 PM 7.63 45.734 0.105 6.98 15.91 11.28
11/13/2021 1:30:00 PM 7.63 45.734 0.105 6.98 16.32 11.28
11/13/2021 1:45:00 PM 7.64 45.752 0.105 6.98 16.1 11.27
11/13/2021 2:00:00 PM 7.67 45.806 0.105 6.98 16.48 11.28
11/13/2021 2:15:00 PM 7.71 45.878 0.105 6.99 15.88 11.29
11/13/2021 2:30:00 PM 7.74 45.932 0.105 6.99 16.27 11.29
11/13/2021 2:45:00 PM 7.73 45.914 0.105 6.99 15.81 11.27
11/13/2021 3:00:00 PM 7.73 45.914 0.105 6.98 15.9 11.26
11/13/2021 3:15:00 PM 7.76 45.968 0.105 6.98 16.11 11.26
11/13/2021 3:30:00 PM 7.75 45.95 0.105 6.99 15.61 11.27
11/13/2021 3:45:00 PM 7.75 45.95 0.105 6.98 15.68 11.26
11/13/2021 4:00:00 PM 7.74 45.932 0.105 6.98 15.89 11.25
11/13/2021 4:15:00 PM 7.72 45.896 0.105 7 16.33 11.24
11/13/2021 4:30:00 PM 7.7 45.86 0.105 6.98 15.99 11.24
11/13/2021 4:45:00 PM 7.67 45.806 0.105 6.99 16.86 11.24
11/13/2021 5:00:00 PM 7.63 45.734 0.105 6.99 16.58 11.25
11/13/2021 5:15:00 PM 7.58 45.644 0.105 6.98 16.17 11.25
11/13/2021 5:30:00 PM 7.54 45.572 0.105 6.99 16.88 11.25
11/13/2021 5:45:00 PM 7.5 45.5 0.105 6.98 16.59 11.25
11/13/2021 6:00:00 PM 7.47 45.446 0.105 6.98 16.7 11.25
11/13/2021 6:15:00 PM 7.44 45.392 0.104 6.98 22.54 11.27
11/13/2021 6:30:00 PM 7.42 45.356 0.105 6.98 17.31 11.27
11/13/2021 6:45:00 PM 7.39 45.302 0.104 6.98 16.82 11.28
11/13/2021 7:00:00 PM 7.36 45.248 0.104 6.98 16.49 11.28
11/13/2021 7:15:00 PM 7.33 45.194 0.104 6.98 17.13 11.29
11/13/2021 7:30:00 PM 7.31 45.158 0.104 6.98 17.45 11.3
11/13/2021 7:45:00 PM 7.29 45.122 0.104 6.99 17.11 11.31
11/13/2021 8:00:00 PM 7.26 45.068 0.104 6.98 16.74 11.32
11/13/2021 8:15:00 PM 7.23 45.014 0.104 6.98 16.86 11.33
11/13/2021 8:30:00 PM 7.21 44.978 0.104 6.98 16.7 11.34
11/13/2021 8:45:00 PM 7.19 44.942 0.104 6.98 17.2 11.33
11/13/2021 9:00:00 PM 7.18 44.924 0.104 6.98 17.2 11.34
11/13/2021 9:15:00 PM 7.16 44.888 0.104 6.98 16.86 11.35
11/13/2021 9:30:00 PM 7.14 44.852 0.104 6.98 16.8 11.37
11/13/2021 9:45:00 PM 7.12 44.816 0.104 6.98 16.55 11.36
11/13/2021 10:00:00 PM 7.11 44.798 0.103 6.98 16.29 11.38
11/13/2021 10:15:00 PM 7.09 44.762 0.103 6.98 16.28 11.38
11/13/2021 10:30:00 PM 7.07 44.726 0.101 6.98 16.39 11.39
11/13/2021 10:45:00 PM 7.05 44.69 0.097 6.98 16.55 11.38
11/13/2021 11:00:00 PM 7.04 44.672 0.1 6.98 16.23 11.39
11/13/2021 11:15:00 PM 7.01 44.618 0.095 6.97 15.66 11.4
11/13/2021 11:30:00 PM 7 44.6 0.029 6.98 16.33 11.42
11/13/2021 11:45:00 PM 6.94 44.492 0.002 6.98 15.88 11.43
11/14/2021 12:00:00 AM 6.88 44.384 0.001 6.98 16.04 11.46
11/14/2021 12:15:00 AM 6.83 44.294 0.001 6.98 15.92 11.48
11/14/2021 12:30:00 AM 6.84 44.312 0 6.98 16 11.47
11/14/2021 12:45:00 AM 6.75 44.15 0 6.98 15.76 11.51
11/14/2021 1:00:00 AM 6.8 44.24 0 6.98 16.56 11.49
11/14/2021 1:15:00 AM 6.7 44.06 0 6.98 16.4 11.53
11/14/2021 1:30:00 AM 6.68 44.024 0 6.99 16.08 11.55
11/14/2021 1:45:00 AM 6.71 44.078 0 6.98 16.08 11.55
11/14/2021 2:00:00 AM 6.65 43.97 0 6.98 16 11.6
11/14/2021 2:15:00 AM 6.63 43.934 0 6.98 17.96 11.63
11/14/2021 2:30:00 AM 6.63 43.934 0 6.98 15.72 11.67
11/14/2021 2:45:00 AM 6.56 43.808 0 6.98 15.64 11.77
11/14/2021 3:00:00 AM 6.6 43.88 0 6.98 16.05 11.83
11/14/2021 3:15:00 AM 6.53 43.754 0 6.98 14.95 11.88
11/14/2021 3:30:00 AM 6.42 43.556 0 6.99 16.12 11.96
11/14/2021 3:45:00 AM 6.41 43.538 0 6.99 15.56 11.99
11/14/2021 4:00:00 AM 6.39 43.502 0 6.99 15.32 12.02
11/14/2021 4:15:00 AM 6.35 43.43 0 6.98 15.38 12.04
11/14/2021 4:30:00 AM 6.37 43.466 0 6.99 16.06 12.03
11/14/2021 4:45:00 AM 6.24 43.232 0 6.99 16.3 12.09
11/14/2021 5:00:00 AM 6.34 43.412 0 6.99 15.99 12.03
11/14/2021 5:15:00 AM 6.2 43.16 0 6.99 16.14 12.1
11/14/2021 5:30:00 AM 6.27 43.286 0 6.99 18.8 12.05
11/14/2021 5:45:00 AM 6.35 43.43 0 6.99 18.83 12
11/14/2021 6:00:00 AM 6.23 43.214 0 6.99 18.24 12.02
11/14/2021 6:15:00 AM 6.19 43.142 0 6.99 18.71 12.01
11/14/2021 6:30:00 AM 6.16 43.088 0 6.99 17.7 12.04
11/14/2021 6:45:00 AM 6.22 43.196 0 6.99 18.37 12
11/14/2021 7:00:00 AM 6.21 43.178 0 6.98 18.08 12
11/14/2021 7:15:00 AM 6.19 43.142 0 6.98 17.71 12.03
11/14/2021 7:30:00 AM 6.08 42.944 0 6.98 17.95 12.07
11/14/2021 7:45:00 AM 6.08 42.944 0 6.99 18.01 12.08
11/14/2021 8:00:00 AM 6.15 43.07 0 6.99 20.61 12.05
11/14/2021 8:15:00 AM 6.2 43.16 0 6.99 24.11 12.04
11/14/2021 8:30:00 AM 6.14 43.052 0 6.99 24.56 12.07
11/14/2021 8:45:00 AM 6.11 42.998 0 7 22.48 12.06
11/14/2021 9:00:00 AM 6.21 43.178 0 7 16.05 12.04
11/14/2021 9:15:00 AM 6.09 42.962 0 7.03 9.12 12.1
11/14/2021 9:30:00 AM 6.22 43.196 0 7.05 10.8 12.05
11/14/2021 9:45:00 AM 6.23 43.214 0 7.06 9.19 12.04
11/14/2021 10:00:00 AM 6.18 43.124 0 7.1 7.93 12.05
11/14/2021 10:15:00 AM 6.27 43.286 0 7.1 8.04 12.04
11/14/2021 10:30:00 AM 6.47 43.646 0 7.12 7.78 11.97
11/14/2021 10:45:00 AM 6.64 43.952 0 7.14 7.62 11.92
11/14/2021 11:00:00 AM 6.71 44.078 0 7.12 7.51 11.9
11/14/2021 11:15:00 AM 7.01 44.618 0 7.13 7.28 11.82
11/14/2021 11:30:00 AM 7.2 44.96 0 7.09 6.92 11.75
11/14/2021 11:45:00 AM 7.4 45.32 0 7.11 6.92 11.7
11/14/2021 12:00:00 PM 7.65 45.77 0 7.11 6.82 11.62
11/14/2021 12:15:00 PM 7.54 45.572 0 7.14 6.73 11.67
11/14/2021 12:30:00 PM 7.77 45.986 0 7.13 6.65 11.58
11/14/2021 12:45:00 PM 7.64 45.752 0 7.16 6.75 11.63
11/14/2021 1:00:00 PM 7.56 45.608 0 7.15 6.87 11.63
11/14/2021 1:15:00 PM 7.29 45.122 0 7.19 6.94 11.73
11/14/2021 1:30:00 PM 7.04 44.672 0 7.19 7.24 11.79
11/14/2021 1:45:00 PM 6.93 44.474 0 7.18 7.09 11.82
11/14/2021 2:00:00 PM 7.07 44.726 0 7.2 7.06 11.78
11/14/2021 2:15:00 PM 6.96 44.528 0 7.16 7.39 11.82
11/14/2021 2:30:00 PM 6.92 44.456 0 7.25 7.09 11.82
11/14/2021 2:45:00 PM 6.62 43.916 0 7.22 7.06 11.92
11/14/2021 3:00:00 PM 6.47 43.646 0 7.25 7.06 11.97
11/14/2021 3:15:00 PM 6.37 43.466 0 7.01 7.43 11.99
11/14/2021 3:30:00 PM 6.18 43.124 0 7.28 7.03 12.05
11/14/2021 3:45:00 PM 5.91 42.638 0 7.27 7.22 12.15
11/14/2021 4:00:00 PM 5.85 42.53 0 7.3 7.12 12.15
11/14/2021 4:15:00 PM 5.56 42.008 0 7 7.18 12.26
11/14/2021 4:30:00 PM 5.57 42.026 0 7.11 7.11 12.25
11/14/2021 4:45:00 PM 5.52 41.936 0 7.05 6.91 12.27
11/14/2021 5:00:00 PM 5.43 41.774 0 7.27 7.05 12.3
11/14/2021 5:15:00 PM 5.31 41.558 0 7.02 6.86 12.35
11/14/2021 5:30:00 PM 5.32 41.576 0 7.06 7 12.32
11/14/2021 5:45:00 PM 5.18 41.324 0 7.03 7.01 12.38
11/14/2021 6:00:00 PM 5.14 41.252 0 7.03 6.96 12.39
11/14/2021 6:15:00 PM 5.11 41.198 0 7.03 6.99 12.39
11/14/2021 6:30:00 PM 4.98 40.964 0 7.02 6.89 12.44
11/14/2021 6:45:00 PM 4.98 40.964 0 7.01 6.84 12.44
11/14/2021 7:00:00 PM 4.98 40.964 0 7.01 7.06 12.43
11/14/2021 7:15:00 PM 4.79 40.622 0 7.06 6.87 12.51
11/14/2021 7:30:00 PM 4.6 40.28 0 7.01 7.44 12.58
11/14/2021 7:45:00 PM 4.51 40.118 0 7.02 7.21 12.61
11/14/2021 8:00:00 PM 4.41 39.938 0 6.98 7.16 12.66
11/14/2021 8:15:00 PM 4.5 40.1 0 6.96 7.07 12.59
11/14/2021 8:30:00 PM 4.4 39.92 0 7.16 7 12.63
11/14/2021 8:45:00 PM 4.51 40.118 0 6.94 7.14 12.59
11/14/2021 9:00:00 PM 4.56 40.208 0 6.96 6.95 12.55
11/14/2021 9:15:00 PM 4.56 40.208 0 6.94 6.99 12.56
11/14/2021 9:30:00 PM 4.58 40.244 0 6.93 7.05 12.54
11/14/2021 9:45:00 PM 4.59 40.262 0 6.9 7.08 12.55
11/14/2021 10:00:00 PM 4.58 40.244 0 6.9 6.92 12.56
11/14/2021 10:15:00 PM 4.62 40.316 0 6.91 6.96 12.54
11/14/2021 10:30:00 PM 4.81 40.658 0 7.05 7.14 12.44
11/14/2021 10:45:00 PM 4.79 40.622 0 6.9 7.1 12.46
11/14/2021 11:00:00 PM 4.79 40.622 0 6.9 7.2 12.44
11/14/2021 11:15:00 PM 4.89 40.802 0 6.93 7.41 12.4
11/14/2021 11:30:00 PM 4.93 40.874 0 7.21 7.06 12.37
11/14/2021 11:45:00 PM 4.99 40.982 0 7.2 7.11 12.35
11/15/2021 12:00:00 AM 5.04 41.072 0 7.17 6.42 12.33
11/15/2021 12:15:00 AM 5.07 41.126 0 7.17 6.29 12.3
11/15/2021 12:30:00 AM 5.09 41.162 0 7.2 6.41 12.29
11/15/2021 12:45:00 AM 5.04 41.072 0 7.16 6.41 12.31
11/15/2021 1:00:00 AM 5.08 41.144 0 7.18 6.29 12.31
11/15/2021 1:15:00 AM 5.02 41.036 0 7.16 6.45 12.31
11/15/2021 1:30:00 AM 4.94 40.892 0 7.18 6.64 12.34
11/15/2021 1:45:00 AM 4.8 40.64 0 7.18 6.5 12.4
11/15/2021 2:00:00 AM 4.72 40.496 0 7.16 6.6 12.42
11/15/2021 2:15:00 AM 4.76 40.568 0 7.15 6.61 12.38
11/15/2021 2:30:00 AM 4.83 40.694 0 7.13 6.6 12.4
11/15/2021 2:45:00 AM 4.86 40.748 0 7.14 6.61 12.38
11/15/2021 3:00:00 AM 4.82 40.676 0 7.13 6.54 12.38
11/15/2021 3:15:00 AM 4.8 40.64 0 7.13 6.64 12.4
11/15/2021 3:30:00 AM 4.85 40.73 0 7.13 6.64 12.36
11/15/2021 3:45:00 AM 4.87 40.766 0 7.14 6.64 12.37
11/15/2021 4:00:00 AM 4.92 40.856 0 7.13 6.58 12.36
11/15/2021 4:15:00 AM 4.96 40.928 0 7.12 6.59 12.34
11/15/2021 4:30:00 AM 4.97 40.946 0 7.14 6.53 12.35
11/15/2021 4:45:00 AM 4.97 40.946 0 7.14 6.65 12.35
11/15/2021 5:00:00 AM 4.84 40.712 0 7.14 6.57 12.4
11/15/2021 5:15:00 AM 4.96 40.928 0 7.14 6.49 12.35
11/15/2021 5:30:00 AM 5 41 0 7.13 6.39 12.34
11/15/2021 5:45:00 AM 5 41 0 7.15 6.48 12.34
11/15/2021 6:00:00 AM 4.96 40.928 0 7.13 6.34 12.36
11/15/2021 6:15:00 AM 4.89 40.802 0 7.14 6.26 12.39
11/15/2021 6:30:00 AM 4.84 40.712 0 7.12 6.45 12.41
11/15/2021 6:45:00 AM 5.1 41.18 0.001 7.1 8.6 12.36
11/15/2021 7:00:00 AM 4.82 40.676 0 7.17 6.29 12.43
11/15/2021 7:15:00 AM 4.76 40.568 0 7.18 6.33 12.45
11/15/2021 7:30:00 AM 4.75 40.55 0 7.19 6.26 12.47
11/15/2021 7:45:00 AM 4.72 40.496 0 7.17 6.22 12.5
11/15/2021 8:00:00 AM 4.69 40.442 0 7.18 6.15 12.52
11/15/2021 8:15:00 AM 4.76 40.568 0 7.15 6.29 12.49
11/15/2021 8:30:00 AM 4.81 40.658 0 7.04 6.77 12.48
11/15/2021 8:45:00 AM 4.98 40.964 0 7.17 6.81 12.42
11/15/2021 9:00:00 AM 5.02 41.036 0 7.18 6.77 12.42
11/15/2021 9:15:00 AM 5.06 41.108 0 7.19 7 12.41
11/15/2021 9:30:00 AM 5.06 41.108 0 7.23 6.76 12.42
11/15/2021 9:45:00 AM 4.99 40.982 0 7.23 6.75 12.46